<?xml version="1.0" encoding="UTF-8" standalone="no" ?>
<gpx xmlns="http://www.topografix.com/GPX/1/1" xmlns:xsi="http://www.w3.org/2001/XMLSchema-instance" xsi:schemaLocation="http://www.topografix.com/GPX/1/1 http://www.topografix.com/GPX/1/1/gpx.xsd" version="1.1" creator="VisuGPX - https://www.visugpx.com">
  <metadata>
    <name>83 - D - Tourtour </name>
    <desc><![CDATA[83 - D - Tourtour : Infirmières 
2021-11-28]]></desc>
  </metadata>
  <trk>
    <name><![CDATA[Tourtour Infirmières 2021-11-28-]]></name>
    <extensions>
      <line xmlns="http://www.topografix.com/GPX/gpx_style/0/2">
        <width>4</width>
      </line>
    </extensions>
    <trkseg>
      <trkpt lat="43.60027" lon="6.29633">
        <ele>663.2</ele>
        <time>2021-11-28T08:34:01.000Z</time>
      </trkpt>
      <trkpt lat="43.60027" lon="6.29633">
        <ele>663.2</ele>
        <time>2021-11-28T08:34:02.000Z</time>
      </trkpt>
      <trkpt lat="43.6002" lon="6.29643">
        <ele>654.5</ele>
        <time>2021-11-28T08:36:23.000Z</time>
      </trkpt>
      <trkpt lat="43.60012" lon="6.29649">
        <ele>654.9</ele>
        <time>2021-11-28T08:36:33.000Z</time>
      </trkpt>
      <trkpt lat="43.60003" lon="6.29654">
        <ele>655.7</ele>
        <time>2021-11-28T08:36:43.000Z</time>
      </trkpt>
      <trkpt lat="43.59995" lon="6.29657">
        <ele>655.4</ele>
        <time>2021-11-28T08:36:52.000Z</time>
      </trkpt>
      <trkpt lat="43.59986" lon="6.29662">
        <ele>655.5</ele>
        <time>2021-11-28T08:37:00.000Z</time>
      </trkpt>
      <trkpt lat="43.59977" lon="6.29668">
        <ele>656</ele>
        <time>2021-11-28T08:37:09.000Z</time>
      </trkpt>
      <trkpt lat="43.59969" lon="6.29674">
        <ele>656.9</ele>
        <time>2021-11-28T08:37:19.000Z</time>
      </trkpt>
      <trkpt lat="43.59961" lon="6.2968">
        <ele>656.8</ele>
        <time>2021-11-28T08:37:28.000Z</time>
      </trkpt>
      <trkpt lat="43.59952" lon="6.29683">
        <ele>656</ele>
        <time>2021-11-28T08:37:37.000Z</time>
      </trkpt>
      <trkpt lat="43.59942" lon="6.29686">
        <ele>655.2</ele>
        <time>2021-11-28T08:37:45.000Z</time>
      </trkpt>
      <trkpt lat="43.59933" lon="6.2969">
        <ele>656.1</ele>
        <time>2021-11-28T08:37:52.000Z</time>
      </trkpt>
      <trkpt lat="43.59923" lon="6.29693">
        <ele>656.3</ele>
        <time>2021-11-28T08:38:00.000Z</time>
      </trkpt>
      <trkpt lat="43.59913" lon="6.29695">
        <ele>655.9</ele>
        <time>2021-11-28T08:38:09.000Z</time>
      </trkpt>
      <trkpt lat="43.59904" lon="6.29699">
        <ele>656.4</ele>
        <time>2021-11-28T08:38:16.000Z</time>
      </trkpt>
      <trkpt lat="43.59895" lon="6.29703">
        <ele>655.9</ele>
        <time>2021-11-28T08:38:23.000Z</time>
      </trkpt>
      <trkpt lat="43.59885" lon="6.29705">
        <ele>655.4</ele>
        <time>2021-11-28T08:38:30.000Z</time>
      </trkpt>
      <trkpt lat="43.59875" lon="6.29708">
        <ele>654.9</ele>
        <time>2021-11-28T08:38:36.000Z</time>
      </trkpt>
      <trkpt lat="43.59866" lon="6.29712">
        <ele>656.5</ele>
        <time>2021-11-28T08:38:42.000Z</time>
      </trkpt>
      <trkpt lat="43.59857" lon="6.29716">
        <ele>655.2</ele>
        <time>2021-11-28T08:38:48.000Z</time>
      </trkpt>
      <trkpt lat="43.59847" lon="6.29718">
        <ele>656.2</ele>
        <time>2021-11-28T08:38:56.000Z</time>
      </trkpt>
      <trkpt lat="43.59838" lon="6.29721">
        <ele>657.2</ele>
        <time>2021-11-28T08:39:04.000Z</time>
      </trkpt>
      <trkpt lat="43.59828" lon="6.29722">
        <ele>655.7</ele>
        <time>2021-11-28T08:39:12.000Z</time>
      </trkpt>
      <trkpt lat="43.59819" lon="6.29723">
        <ele>656.5</ele>
        <time>2021-11-28T08:39:19.000Z</time>
      </trkpt>
      <trkpt lat="43.59809" lon="6.29727">
        <ele>654.5</ele>
        <time>2021-11-28T08:39:28.000Z</time>
      </trkpt>
      <trkpt lat="43.598" lon="6.29733">
        <ele>655.6</ele>
        <time>2021-11-28T08:39:36.000Z</time>
      </trkpt>
      <trkpt lat="43.59791" lon="6.29738">
        <ele>654.6</ele>
        <time>2021-11-28T08:39:45.000Z</time>
      </trkpt>
      <trkpt lat="43.59783" lon="6.29744">
        <ele>655.2</ele>
        <time>2021-11-28T08:39:51.000Z</time>
      </trkpt>
      <trkpt lat="43.59775" lon="6.2975">
        <ele>655.9</ele>
        <time>2021-11-28T08:39:58.000Z</time>
      </trkpt>
      <trkpt lat="43.59766" lon="6.29757">
        <ele>654.4</ele>
        <time>2021-11-28T08:40:06.000Z</time>
      </trkpt>
      <trkpt lat="43.59771" lon="6.29746">
        <ele>652.9</ele>
        <time>2021-11-28T08:40:27.000Z</time>
      </trkpt>
      <trkpt lat="43.59774" lon="6.29733">
        <ele>651.5</ele>
        <time>2021-11-28T08:40:37.000Z</time>
      </trkpt>
      <trkpt lat="43.59777" lon="6.2972">
        <ele>650</ele>
        <time>2021-11-28T08:40:44.000Z</time>
      </trkpt>
      <trkpt lat="43.59779" lon="6.29706">
        <ele>651.1</ele>
        <time>2021-11-28T08:40:50.000Z</time>
      </trkpt>
      <trkpt lat="43.59781" lon="6.29693">
        <ele>650.6</ele>
        <time>2021-11-28T08:40:56.000Z</time>
      </trkpt>
      <trkpt lat="43.59784" lon="6.29681">
        <ele>649</ele>
        <time>2021-11-28T08:41:03.000Z</time>
      </trkpt>
      <trkpt lat="43.59788" lon="6.29668">
        <ele>648.7</ele>
        <time>2021-11-28T08:41:13.000Z</time>
      </trkpt>
      <trkpt lat="43.59792" lon="6.29655">
        <ele>646.6</ele>
        <time>2021-11-28T08:41:22.000Z</time>
      </trkpt>
      <trkpt lat="43.59796" lon="6.29644">
        <ele>647.2</ele>
        <time>2021-11-28T08:41:30.000Z</time>
      </trkpt>
      <trkpt lat="43.59799" lon="6.29632">
        <ele>645.1</ele>
        <time>2021-11-28T08:41:37.000Z</time>
      </trkpt>
      <trkpt lat="43.59803" lon="6.2962">
        <ele>645.7</ele>
        <time>2021-11-28T08:41:44.000Z</time>
      </trkpt>
      <trkpt lat="43.59806" lon="6.29607">
        <ele>645.3</ele>
        <time>2021-11-28T08:41:51.000Z</time>
      </trkpt>
      <trkpt lat="43.5981" lon="6.29596">
        <ele>645.7</ele>
        <time>2021-11-28T08:41:59.000Z</time>
      </trkpt>
      <trkpt lat="43.59815" lon="6.29585">
        <ele>644.8</ele>
        <time>2021-11-28T08:42:06.000Z</time>
      </trkpt>
      <trkpt lat="43.59818" lon="6.29572">
        <ele>645.6</ele>
        <time>2021-11-28T08:42:14.000Z</time>
      </trkpt>
      <trkpt lat="43.59822" lon="6.29561">
        <ele>645.6</ele>
        <time>2021-11-28T08:42:24.000Z</time>
      </trkpt>
      <trkpt lat="43.59826" lon="6.29549">
        <ele>645</ele>
        <time>2021-11-28T08:42:32.000Z</time>
      </trkpt>
      <trkpt lat="43.5983" lon="6.29537">
        <ele>644.2</ele>
        <time>2021-11-28T08:42:40.000Z</time>
      </trkpt>
      <trkpt lat="43.59832" lon="6.29524">
        <ele>646.2</ele>
        <time>2021-11-28T08:42:47.000Z</time>
      </trkpt>
      <trkpt lat="43.59836" lon="6.2951">
        <ele>646.2</ele>
        <time>2021-11-28T08:42:55.000Z</time>
      </trkpt>
      <trkpt lat="43.59837" lon="6.29497">
        <ele>645.8</ele>
        <time>2021-11-28T08:43:01.000Z</time>
      </trkpt>
      <trkpt lat="43.59838" lon="6.29484">
        <ele>646.4</ele>
        <time>2021-11-28T08:43:10.000Z</time>
      </trkpt>
      <trkpt lat="43.59838" lon="6.29471">
        <ele>644.6</ele>
        <time>2021-11-28T08:43:17.000Z</time>
      </trkpt>
      <trkpt lat="43.59838" lon="6.29459">
        <ele>645.5</ele>
        <time>2021-11-28T08:43:23.000Z</time>
      </trkpt>
      <trkpt lat="43.59835" lon="6.29447">
        <ele>644.7</ele>
        <time>2021-11-28T08:43:30.000Z</time>
      </trkpt>
      <trkpt lat="43.59831" lon="6.29434">
        <ele>645.4</ele>
        <time>2021-11-28T08:43:37.000Z</time>
      </trkpt>
      <trkpt lat="43.59829" lon="6.2942">
        <ele>644.8</ele>
        <time>2021-11-28T08:43:44.000Z</time>
      </trkpt>
      <trkpt lat="43.5983" lon="6.29406">
        <ele>643.4</ele>
        <time>2021-11-28T08:43:51.000Z</time>
      </trkpt>
      <trkpt lat="43.59834" lon="6.29393">
        <ele>645.2</ele>
        <time>2021-11-28T08:43:59.000Z</time>
      </trkpt>
      <trkpt lat="43.59837" lon="6.29381">
        <ele>644.4</ele>
        <time>2021-11-28T08:44:07.000Z</time>
      </trkpt>
      <trkpt lat="43.59838" lon="6.29366">
        <ele>646.9</ele>
        <time>2021-11-28T08:44:14.000Z</time>
      </trkpt>
      <trkpt lat="43.59837" lon="6.29352">
        <ele>646.1</ele>
        <time>2021-11-28T08:44:21.000Z</time>
      </trkpt>
      <trkpt lat="43.59836" lon="6.29339">
        <ele>644.8</ele>
        <time>2021-11-28T08:44:28.000Z</time>
      </trkpt>
      <trkpt lat="43.59835" lon="6.29327">
        <ele>645.7</ele>
        <time>2021-11-28T08:44:35.000Z</time>
      </trkpt>
      <trkpt lat="43.59837" lon="6.29314">
        <ele>646.1</ele>
        <time>2021-11-28T08:44:43.000Z</time>
      </trkpt>
      <trkpt lat="43.59842" lon="6.29302">
        <ele>646.1</ele>
        <time>2021-11-28T08:44:51.000Z</time>
      </trkpt>
      <trkpt lat="43.59848" lon="6.29293">
        <ele>645.9</ele>
        <time>2021-11-28T08:44:59.000Z</time>
      </trkpt>
      <trkpt lat="43.59853" lon="6.29281">
        <ele>645</ele>
        <time>2021-11-28T08:45:07.000Z</time>
      </trkpt>
      <trkpt lat="43.59856" lon="6.29268">
        <ele>646.8</ele>
        <time>2021-11-28T08:45:14.000Z</time>
      </trkpt>
      <trkpt lat="43.59858" lon="6.29254">
        <ele>645.8</ele>
        <time>2021-11-28T08:45:21.000Z</time>
      </trkpt>
      <trkpt lat="43.59861" lon="6.29241">
        <ele>647.5</ele>
        <time>2021-11-28T08:45:28.000Z</time>
      </trkpt>
      <trkpt lat="43.59862" lon="6.29229">
        <ele>645.7</ele>
        <time>2021-11-28T08:45:35.000Z</time>
      </trkpt>
      <trkpt lat="43.59865" lon="6.29215">
        <ele>646.4</ele>
        <time>2021-11-28T08:45:43.000Z</time>
      </trkpt>
      <trkpt lat="43.59866" lon="6.29203">
        <ele>646.8</ele>
        <time>2021-11-28T08:45:50.000Z</time>
      </trkpt>
      <trkpt lat="43.59865" lon="6.29189">
        <ele>645.2</ele>
        <time>2021-11-28T08:45:56.000Z</time>
      </trkpt>
      <trkpt lat="43.59863" lon="6.29177">
        <ele>647.9</ele>
        <time>2021-11-28T08:46:03.000Z</time>
      </trkpt>
      <trkpt lat="43.59863" lon="6.29163">
        <ele>646.5</ele>
        <time>2021-11-28T08:46:10.000Z</time>
      </trkpt>
      <trkpt lat="43.59863" lon="6.29149">
        <ele>648.5</ele>
        <time>2021-11-28T08:46:17.000Z</time>
      </trkpt>
      <trkpt lat="43.59863" lon="6.29136">
        <ele>647.5</ele>
        <time>2021-11-28T08:46:24.000Z</time>
      </trkpt>
      <trkpt lat="43.59861" lon="6.29122">
        <ele>648.5</ele>
        <time>2021-11-28T08:46:31.000Z</time>
      </trkpt>
      <trkpt lat="43.59859" lon="6.2911">
        <ele>646.4</ele>
        <time>2021-11-28T08:46:39.000Z</time>
      </trkpt>
      <trkpt lat="43.59855" lon="6.29098">
        <ele>647.8</ele>
        <time>2021-11-28T08:46:51.000Z</time>
      </trkpt>
      <trkpt lat="43.59852" lon="6.29085">
        <ele>648</ele>
        <time>2021-11-28T08:49:02.000Z</time>
      </trkpt>
      <trkpt lat="43.59846" lon="6.29096">
        <ele>645.9</ele>
        <time>2021-11-28T08:51:16.000Z</time>
      </trkpt>
      <trkpt lat="43.59837" lon="6.29098">
        <ele>647.5</ele>
        <time>2021-11-28T08:51:32.000Z</time>
      </trkpt>
      <trkpt lat="43.59827" lon="6.29095">
        <ele>648.2</ele>
        <time>2021-11-28T08:51:42.000Z</time>
      </trkpt>
      <trkpt lat="43.59818" lon="6.29097">
        <ele>647.6</ele>
        <time>2021-11-28T08:51:50.000Z</time>
      </trkpt>
      <trkpt lat="43.5981" lon="6.29102">
        <ele>646.2</ele>
        <time>2021-11-28T08:52:00.000Z</time>
      </trkpt>
      <trkpt lat="43.59801" lon="6.29106">
        <ele>647</ele>
        <time>2021-11-28T08:52:09.000Z</time>
      </trkpt>
      <trkpt lat="43.59792" lon="6.29108">
        <ele>646.9</ele>
        <time>2021-11-28T08:52:19.000Z</time>
      </trkpt>
      <trkpt lat="43.59784" lon="6.29115">
        <ele>647.2</ele>
        <time>2021-11-28T08:52:27.000Z</time>
      </trkpt>
      <trkpt lat="43.59774" lon="6.29116">
        <ele>647.9</ele>
        <time>2021-11-28T08:52:36.000Z</time>
      </trkpt>
      <trkpt lat="43.59765" lon="6.29115">
        <ele>648.1</ele>
        <time>2021-11-28T08:52:47.000Z</time>
      </trkpt>
      <trkpt lat="43.59756" lon="6.2911">
        <ele>647.5</ele>
        <time>2021-11-28T08:52:59.000Z</time>
      </trkpt>
      <trkpt lat="43.59747" lon="6.29106">
        <ele>647.7</ele>
        <time>2021-11-28T08:53:11.000Z</time>
      </trkpt>
      <trkpt lat="43.59738" lon="6.29102">
        <ele>647</ele>
        <time>2021-11-28T08:53:22.000Z</time>
      </trkpt>
      <trkpt lat="43.59732" lon="6.29093">
        <ele>648</ele>
        <time>2021-11-28T08:53:33.000Z</time>
      </trkpt>
      <trkpt lat="43.59723" lon="6.29086">
        <ele>647.3</ele>
        <time>2021-11-28T08:53:40.000Z</time>
      </trkpt>
      <trkpt lat="43.59714" lon="6.29084">
        <ele>647.3</ele>
        <time>2021-11-28T08:53:49.000Z</time>
      </trkpt>
      <trkpt lat="43.59705" lon="6.29081">
        <ele>646.2</ele>
        <time>2021-11-28T08:53:59.000Z</time>
      </trkpt>
      <trkpt lat="43.59695" lon="6.2908">
        <ele>645.3</ele>
        <time>2021-11-28T08:54:06.000Z</time>
      </trkpt>
      <trkpt lat="43.59686" lon="6.29082">
        <ele>644.4</ele>
        <time>2021-11-28T08:54:13.000Z</time>
      </trkpt>
      <trkpt lat="43.59677" lon="6.29085">
        <ele>645.3</ele>
        <time>2021-11-28T08:54:21.000Z</time>
      </trkpt>
      <trkpt lat="43.59668" lon="6.29088">
        <ele>645.3</ele>
        <time>2021-11-28T08:54:29.000Z</time>
      </trkpt>
      <trkpt lat="43.59659" lon="6.29093">
        <ele>644.4</ele>
        <time>2021-11-28T08:54:38.000Z</time>
      </trkpt>
      <trkpt lat="43.5965" lon="6.291">
        <ele>643.2</ele>
        <time>2021-11-28T08:54:47.000Z</time>
      </trkpt>
      <trkpt lat="43.59641" lon="6.29103">
        <ele>643.1</ele>
        <time>2021-11-28T08:54:59.000Z</time>
      </trkpt>
      <trkpt lat="43.59632" lon="6.291">
        <ele>641.6</ele>
        <time>2021-11-28T08:55:08.000Z</time>
      </trkpt>
      <trkpt lat="43.59622" lon="6.29098">
        <ele>642</ele>
        <time>2021-11-28T08:55:18.000Z</time>
      </trkpt>
      <trkpt lat="43.59613" lon="6.29091">
        <ele>641.2</ele>
        <time>2021-11-28T08:55:26.000Z</time>
      </trkpt>
      <trkpt lat="43.59603" lon="6.29087">
        <ele>641</ele>
        <time>2021-11-28T08:55:36.000Z</time>
      </trkpt>
      <trkpt lat="43.59594" lon="6.29091">
        <ele>639.9</ele>
        <time>2021-11-28T08:55:45.000Z</time>
      </trkpt>
      <trkpt lat="43.59587" lon="6.29099">
        <ele>640.4</ele>
        <time>2021-11-28T08:55:53.000Z</time>
      </trkpt>
      <trkpt lat="43.59577" lon="6.291">
        <ele>639.8</ele>
        <time>2021-11-28T08:56:01.000Z</time>
      </trkpt>
      <trkpt lat="43.5957" lon="6.29108">
        <ele>639.2</ele>
        <time>2021-11-28T08:56:10.000Z</time>
      </trkpt>
      <trkpt lat="43.59565" lon="6.2912">
        <ele>637.8</ele>
        <time>2021-11-28T08:56:19.000Z</time>
      </trkpt>
      <trkpt lat="43.59562" lon="6.29132">
        <ele>636.6</ele>
        <time>2021-11-28T08:56:28.000Z</time>
      </trkpt>
      <trkpt lat="43.59557" lon="6.29143">
        <ele>636.9</ele>
        <time>2021-11-28T08:56:38.000Z</time>
      </trkpt>
      <trkpt lat="43.59558" lon="6.29155">
        <ele>634.7</ele>
        <time>2021-11-28T08:57:16.000Z</time>
      </trkpt>
      <trkpt lat="43.59559" lon="6.29168">
        <ele>637</ele>
        <time>2021-11-28T08:57:29.000Z</time>
      </trkpt>
      <trkpt lat="43.59562" lon="6.29182">
        <ele>637.5</ele>
        <time>2021-11-28T08:57:44.000Z</time>
      </trkpt>
      <trkpt lat="43.59568" lon="6.29194">
        <ele>638.6</ele>
        <time>2021-11-28T08:57:55.000Z</time>
      </trkpt>
      <trkpt lat="43.59572" lon="6.29205">
        <ele>639.8</ele>
        <time>2021-11-28T08:58:10.000Z</time>
      </trkpt>
      <trkpt lat="43.59578" lon="6.29216">
        <ele>639.7</ele>
        <time>2021-11-28T08:58:23.000Z</time>
      </trkpt>
      <trkpt lat="43.59582" lon="6.29227">
        <ele>640.9</ele>
        <time>2021-11-28T08:58:33.000Z</time>
      </trkpt>
      <trkpt lat="43.59586" lon="6.29239">
        <ele>642</ele>
        <time>2021-11-28T08:58:43.000Z</time>
      </trkpt>
      <trkpt lat="43.59591" lon="6.29249">
        <ele>641.7</ele>
        <time>2021-11-28T08:58:51.000Z</time>
      </trkpt>
      <trkpt lat="43.59599" lon="6.29256">
        <ele>641.1</ele>
        <time>2021-11-28T08:59:01.000Z</time>
      </trkpt>
      <trkpt lat="43.59607" lon="6.29264">
        <ele>642.2</ele>
        <time>2021-11-28T08:59:11.000Z</time>
      </trkpt>
      <trkpt lat="43.59612" lon="6.29275">
        <ele>642.2</ele>
        <time>2021-11-28T08:59:24.000Z</time>
      </trkpt>
      <trkpt lat="43.59616" lon="6.29287">
        <ele>643.6</ele>
        <time>2021-11-28T08:59:34.000Z</time>
      </trkpt>
      <trkpt lat="43.59618" lon="6.29301">
        <ele>644.2</ele>
        <time>2021-11-28T08:59:44.000Z</time>
      </trkpt>
      <trkpt lat="43.59616" lon="6.29313">
        <ele>643.5</ele>
        <time>2021-11-28T08:59:52.000Z</time>
      </trkpt>
      <trkpt lat="43.59611" lon="6.29324">
        <ele>644.3</ele>
        <time>2021-11-28T09:00:00.000Z</time>
      </trkpt>
      <trkpt lat="43.59602" lon="6.29331">
        <ele>642.6</ele>
        <time>2021-11-28T09:00:08.000Z</time>
      </trkpt>
      <trkpt lat="43.59596" lon="6.29341">
        <ele>642.6</ele>
        <time>2021-11-28T09:00:18.000Z</time>
      </trkpt>
      <trkpt lat="43.59588" lon="6.29349">
        <ele>642.9</ele>
        <time>2021-11-28T09:00:33.000Z</time>
      </trkpt>
      <trkpt lat="43.59586" lon="6.29362">
        <ele>643.4</ele>
        <time>2021-11-28T09:00:53.000Z</time>
      </trkpt>
      <trkpt lat="43.59586" lon="6.29374">
        <ele>643</ele>
        <time>2021-11-28T09:01:05.000Z</time>
      </trkpt>
      <trkpt lat="43.59588" lon="6.29387">
        <ele>642.2</ele>
        <time>2021-11-28T09:01:16.000Z</time>
      </trkpt>
      <trkpt lat="43.59589" lon="6.294">
        <ele>643.8</ele>
        <time>2021-11-28T09:01:25.000Z</time>
      </trkpt>
      <trkpt lat="43.59591" lon="6.29413">
        <ele>644.2</ele>
        <time>2021-11-28T09:01:33.000Z</time>
      </trkpt>
      <trkpt lat="43.59597" lon="6.29423">
        <ele>642</ele>
        <time>2021-11-28T09:01:43.000Z</time>
      </trkpt>
      <trkpt lat="43.59601" lon="6.29434">
        <ele>643.4</ele>
        <time>2021-11-28T09:01:58.000Z</time>
      </trkpt>
      <trkpt lat="43.59602" lon="6.29446">
        <ele>643</ele>
        <time>2021-11-28T09:02:09.000Z</time>
      </trkpt>
      <trkpt lat="43.59608" lon="6.29458">
        <ele>642.9</ele>
        <time>2021-11-28T09:02:17.000Z</time>
      </trkpt>
      <trkpt lat="43.59615" lon="6.29467">
        <ele>642.3</ele>
        <time>2021-11-28T09:02:25.000Z</time>
      </trkpt>
      <trkpt lat="43.5962" lon="6.29479">
        <ele>641.7</ele>
        <time>2021-11-28T09:02:33.000Z</time>
      </trkpt>
      <trkpt lat="43.59625" lon="6.2949">
        <ele>642.4</ele>
        <time>2021-11-28T09:02:41.000Z</time>
      </trkpt>
      <trkpt lat="43.59631" lon="6.29501">
        <ele>641.5</ele>
        <time>2021-11-28T09:02:50.000Z</time>
      </trkpt>
      <trkpt lat="43.59635" lon="6.29514">
        <ele>640.8</ele>
        <time>2021-11-28T09:02:58.000Z</time>
      </trkpt>
      <trkpt lat="43.59641" lon="6.29526">
        <ele>640.2</ele>
        <time>2021-11-28T09:03:07.000Z</time>
      </trkpt>
      <trkpt lat="43.59646" lon="6.29537">
        <ele>640</ele>
        <time>2021-11-28T09:03:18.000Z</time>
      </trkpt>
      <trkpt lat="43.59652" lon="6.29547">
        <ele>640.9</ele>
        <time>2021-11-28T09:03:27.000Z</time>
      </trkpt>
      <trkpt lat="43.59658" lon="6.29557">
        <ele>641</ele>
        <time>2021-11-28T09:03:36.000Z</time>
      </trkpt>
      <trkpt lat="43.59664" lon="6.29566">
        <ele>641.1</ele>
        <time>2021-11-28T09:03:46.000Z</time>
      </trkpt>
      <trkpt lat="43.59671" lon="6.29575">
        <ele>640.4</ele>
        <time>2021-11-28T09:03:54.000Z</time>
      </trkpt>
      <trkpt lat="43.59677" lon="6.29584">
        <ele>640.9</ele>
        <time>2021-11-28T09:04:03.000Z</time>
      </trkpt>
      <trkpt lat="43.59684" lon="6.29593">
        <ele>641.2</ele>
        <time>2021-11-28T09:04:12.000Z</time>
      </trkpt>
      <trkpt lat="43.59692" lon="6.29601">
        <ele>641.6</ele>
        <time>2021-11-28T09:04:27.000Z</time>
      </trkpt>
      <trkpt lat="43.59697" lon="6.29613">
        <ele>642.4</ele>
        <time>2021-11-28T09:04:38.000Z</time>
      </trkpt>
      <trkpt lat="43.59705" lon="6.29607">
        <ele>642.1</ele>
        <time>2021-11-28T09:04:49.000Z</time>
      </trkpt>
      <trkpt lat="43.59707" lon="6.29619">
        <ele>642.8</ele>
        <time>2021-11-28T09:07:52.000Z</time>
      </trkpt>
      <trkpt lat="43.59716" lon="6.29622">
        <ele>643</ele>
        <time>2021-11-28T09:08:04.000Z</time>
      </trkpt>
      <trkpt lat="43.59725" lon="6.29627">
        <ele>642.6</ele>
        <time>2021-11-28T09:08:14.000Z</time>
      </trkpt>
      <trkpt lat="43.59734" lon="6.2963">
        <ele>642.7</ele>
        <time>2021-11-28T09:08:25.000Z</time>
      </trkpt>
      <trkpt lat="43.59742" lon="6.29634">
        <ele>643.3</ele>
        <time>2021-11-28T09:08:36.000Z</time>
      </trkpt>
      <trkpt lat="43.59752" lon="6.29633">
        <ele>642.6</ele>
        <time>2021-11-28T09:08:46.000Z</time>
      </trkpt>
      <trkpt lat="43.59761" lon="6.29633">
        <ele>643.2</ele>
        <time>2021-11-28T09:08:57.000Z</time>
      </trkpt>
      <trkpt lat="43.59771" lon="6.29635">
        <ele>644</ele>
        <time>2021-11-28T09:09:05.000Z</time>
      </trkpt>
      <trkpt lat="43.5978" lon="6.29638">
        <ele>643.4</ele>
        <time>2021-11-28T09:09:13.000Z</time>
      </trkpt>
      <trkpt lat="43.59786" lon="6.29648">
        <ele>643.2</ele>
        <time>2021-11-28T09:09:25.000Z</time>
      </trkpt>
      <trkpt lat="43.59783" lon="6.29661">
        <ele>644.8</ele>
        <time>2021-11-28T09:09:35.000Z</time>
      </trkpt>
      <trkpt lat="43.59781" lon="6.29674">
        <ele>644.7</ele>
        <time>2021-11-28T09:09:45.000Z</time>
      </trkpt>
      <trkpt lat="43.59778" lon="6.29686">
        <ele>645.6</ele>
        <time>2021-11-28T09:09:55.000Z</time>
      </trkpt>
      <trkpt lat="43.59773" lon="6.29698">
        <ele>646.4</ele>
        <time>2021-11-28T09:10:04.000Z</time>
      </trkpt>
      <trkpt lat="43.59771" lon="6.29711">
        <ele>647.2</ele>
        <time>2021-11-28T09:10:12.000Z</time>
      </trkpt>
      <trkpt lat="43.59769" lon="6.29724">
        <ele>649.1</ele>
        <time>2021-11-28T09:10:22.000Z</time>
      </trkpt>
      <trkpt lat="43.59767" lon="6.29736">
        <ele>650.4</ele>
        <time>2021-11-28T09:10:31.000Z</time>
      </trkpt>
      <trkpt lat="43.59763" lon="6.29748">
        <ele>651.1</ele>
        <time>2021-11-28T09:10:40.000Z</time>
      </trkpt>
      <trkpt lat="43.5977" lon="6.29757">
        <ele>651.5</ele>
        <time>2021-11-28T09:10:56.000Z</time>
      </trkpt>
      <trkpt lat="43.59778" lon="6.29751">
        <ele>653.2</ele>
        <time>2021-11-28T09:11:05.000Z</time>
      </trkpt>
      <trkpt lat="43.59786" lon="6.29744">
        <ele>652.7</ele>
        <time>2021-11-28T09:11:14.000Z</time>
      </trkpt>
      <trkpt lat="43.59794" lon="6.29737">
        <ele>653.3</ele>
        <time>2021-11-28T09:11:22.000Z</time>
      </trkpt>
      <trkpt lat="43.59803" lon="6.29735">
        <ele>653.4</ele>
        <time>2021-11-28T09:11:32.000Z</time>
      </trkpt>
      <trkpt lat="43.59812" lon="6.29733">
        <ele>652.2</ele>
        <time>2021-11-28T09:11:40.000Z</time>
      </trkpt>
      <trkpt lat="43.59822" lon="6.29727">
        <ele>652.1</ele>
        <time>2021-11-28T09:11:50.000Z</time>
      </trkpt>
      <trkpt lat="43.59832" lon="6.29723">
        <ele>653</ele>
        <time>2021-11-28T09:11:58.000Z</time>
      </trkpt>
      <trkpt lat="43.59841" lon="6.29719">
        <ele>653.2</ele>
        <time>2021-11-28T09:12:06.000Z</time>
      </trkpt>
      <trkpt lat="43.5985" lon="6.29717">
        <ele>652.8</ele>
        <time>2021-11-28T09:12:15.000Z</time>
      </trkpt>
      <trkpt lat="43.5986" lon="6.29716">
        <ele>651.4</ele>
        <time>2021-11-28T09:12:23.000Z</time>
      </trkpt>
      <trkpt lat="43.5987" lon="6.29712">
        <ele>652.4</ele>
        <time>2021-11-28T09:12:32.000Z</time>
      </trkpt>
      <trkpt lat="43.59879" lon="6.29709">
        <ele>651.4</ele>
        <time>2021-11-28T09:12:41.000Z</time>
      </trkpt>
      <trkpt lat="43.59889" lon="6.29705">
        <ele>653.2</ele>
        <time>2021-11-28T09:12:50.000Z</time>
      </trkpt>
      <trkpt lat="43.59898" lon="6.29705">
        <ele>652.9</ele>
        <time>2021-11-28T09:12:58.000Z</time>
      </trkpt>
      <trkpt lat="43.59907" lon="6.29701">
        <ele>653.4</ele>
        <time>2021-11-28T09:13:06.000Z</time>
      </trkpt>
      <trkpt lat="43.59917" lon="6.297">
        <ele>651.6</ele>
        <time>2021-11-28T09:13:12.000Z</time>
      </trkpt>
      <trkpt lat="43.59926" lon="6.29701">
        <ele>651.8</ele>
        <time>2021-11-28T09:13:21.000Z</time>
      </trkpt>
      <trkpt lat="43.59934" lon="6.29695">
        <ele>651.6</ele>
        <time>2021-11-28T09:13:30.000Z</time>
      </trkpt>
      <trkpt lat="43.59943" lon="6.29691">
        <ele>652.3</ele>
        <time>2021-11-28T09:13:39.000Z</time>
      </trkpt>
      <trkpt lat="43.59952" lon="6.29684">
        <ele>653.1</ele>
        <time>2021-11-28T09:13:46.000Z</time>
      </trkpt>
      <trkpt lat="43.59961" lon="6.29676">
        <ele>652.2</ele>
        <time>2021-11-28T09:13:54.000Z</time>
      </trkpt>
      <trkpt lat="43.59969" lon="6.29672">
        <ele>652.5</ele>
        <time>2021-11-28T09:14:05.000Z</time>
      </trkpt>
      <trkpt lat="43.59979" lon="6.29668">
        <ele>652.5</ele>
        <time>2021-11-28T09:14:15.000Z</time>
      </trkpt>
      <trkpt lat="43.59988" lon="6.29665">
        <ele>651.5</ele>
        <time>2021-11-28T09:14:24.000Z</time>
      </trkpt>
      <trkpt lat="43.59998" lon="6.29659">
        <ele>651</ele>
        <time>2021-11-28T09:14:33.000Z</time>
      </trkpt>
      <trkpt lat="43.60006" lon="6.29652">
        <ele>650.1</ele>
        <time>2021-11-28T09:14:42.000Z</time>
      </trkpt>
      <trkpt lat="43.60014" lon="6.29646">
        <ele>650.7</ele>
        <time>2021-11-28T09:14:49.000Z</time>
      </trkpt>
      <trkpt lat="43.60023" lon="6.29641">
        <ele>650.2</ele>
        <time>2021-11-28T09:14:58.000Z</time>
      </trkpt>
      <trkpt lat="43.60032" lon="6.29635">
        <ele>650.1</ele>
        <time>2021-11-28T09:15:06.000Z</time>
      </trkpt>
      <trkpt lat="43.60041" lon="6.29627">
        <ele>650.5</ele>
        <time>2021-11-28T09:15:14.000Z</time>
      </trkpt>
      <trkpt lat="43.60049" lon="6.29619">
        <ele>649.9</ele>
        <time>2021-11-28T09:15:21.000Z</time>
      </trkpt>
      <trkpt lat="43.60056" lon="6.29611">
        <ele>649.5</ele>
        <time>2021-11-28T09:15:29.000Z</time>
      </trkpt>
      <trkpt lat="43.60063" lon="6.29601">
        <ele>649.9</ele>
        <time>2021-11-28T09:15:37.000Z</time>
      </trkpt>
      <trkpt lat="43.6007" lon="6.29591">
        <ele>648.3</ele>
        <time>2021-11-28T09:15:46.000Z</time>
      </trkpt>
      <trkpt lat="43.60075" lon="6.2958">
        <ele>648.7</ele>
        <time>2021-11-28T09:15:54.000Z</time>
      </trkpt>
      <trkpt lat="43.6008" lon="6.29569">
        <ele>647.1</ele>
        <time>2021-11-28T09:16:02.000Z</time>
      </trkpt>
      <trkpt lat="43.60089" lon="6.2956">
        <ele>646.6</ele>
        <time>2021-11-28T09:16:11.000Z</time>
      </trkpt>
      <trkpt lat="43.60096" lon="6.2955">
        <ele>645.6</ele>
        <time>2021-11-28T09:16:18.000Z</time>
      </trkpt>
      <trkpt lat="43.60104" lon="6.29541">
        <ele>645.8</ele>
        <time>2021-11-28T09:16:25.000Z</time>
      </trkpt>
      <trkpt lat="43.6011" lon="6.29533">
        <ele>644.3</ele>
        <time>2021-11-28T09:16:33.000Z</time>
      </trkpt>
      <trkpt lat="43.60117" lon="6.29523">
        <ele>643.8</ele>
        <time>2021-11-28T09:16:43.000Z</time>
      </trkpt>
      <trkpt lat="43.60124" lon="6.29515">
        <ele>641.6</ele>
        <time>2021-11-28T09:16:51.000Z</time>
      </trkpt>
      <trkpt lat="43.60132" lon="6.29506">
        <ele>640.8</ele>
        <time>2021-11-28T09:16:59.000Z</time>
      </trkpt>
      <trkpt lat="43.6014" lon="6.29499">
        <ele>639.2</ele>
        <time>2021-11-28T09:17:07.000Z</time>
      </trkpt>
      <trkpt lat="43.60149" lon="6.29495">
        <ele>638</ele>
        <time>2021-11-28T09:17:22.000Z</time>
      </trkpt>
      <trkpt lat="43.60156" lon="6.29488">
        <ele>638.5</ele>
        <time>2021-11-28T09:17:32.000Z</time>
      </trkpt>
      <trkpt lat="43.60165" lon="6.29479">
        <ele>636.9</ele>
        <time>2021-11-28T09:17:40.000Z</time>
      </trkpt>
      <trkpt lat="43.60172" lon="6.2947">
        <ele>637</ele>
        <time>2021-11-28T09:17:48.000Z</time>
      </trkpt>
      <trkpt lat="43.60179" lon="6.2946">
        <ele>635.6</ele>
        <time>2021-11-28T09:17:55.000Z</time>
      </trkpt>
      <trkpt lat="43.60188" lon="6.29453">
        <ele>636.2</ele>
        <time>2021-11-28T09:18:03.000Z</time>
      </trkpt>
      <trkpt lat="43.60194" lon="6.29443">
        <ele>635</ele>
        <time>2021-11-28T09:18:11.000Z</time>
      </trkpt>
      <trkpt lat="43.602" lon="6.29433">
        <ele>634.9</ele>
        <time>2021-11-28T09:18:18.000Z</time>
      </trkpt>
      <trkpt lat="43.60203" lon="6.2942">
        <ele>633.5</ele>
        <time>2021-11-28T09:18:25.000Z</time>
      </trkpt>
      <trkpt lat="43.60206" lon="6.29408">
        <ele>633.2</ele>
        <time>2021-11-28T09:18:50.000Z</time>
      </trkpt>
      <trkpt lat="43.6021" lon="6.29396">
        <ele>634.3</ele>
        <time>2021-11-28T09:19:00.000Z</time>
      </trkpt>
      <trkpt lat="43.60214" lon="6.29384">
        <ele>634.7</ele>
        <time>2021-11-28T09:19:09.000Z</time>
      </trkpt>
      <trkpt lat="43.60215" lon="6.29372">
        <ele>634.4</ele>
        <time>2021-11-28T09:19:17.000Z</time>
      </trkpt>
      <trkpt lat="43.60219" lon="6.29359">
        <ele>632.5</ele>
        <time>2021-11-28T09:19:27.000Z</time>
      </trkpt>
      <trkpt lat="43.60224" lon="6.29348">
        <ele>634.7</ele>
        <time>2021-11-28T09:19:37.000Z</time>
      </trkpt>
      <trkpt lat="43.60231" lon="6.29338">
        <ele>634.9</ele>
        <time>2021-11-28T09:19:47.000Z</time>
      </trkpt>
      <trkpt lat="43.60238" lon="6.29331">
        <ele>632.8</ele>
        <time>2021-11-28T09:19:56.000Z</time>
      </trkpt>
      <trkpt lat="43.60246" lon="6.29323">
        <ele>634.7</ele>
        <time>2021-11-28T09:20:03.000Z</time>
      </trkpt>
      <trkpt lat="43.60254" lon="6.29313">
        <ele>633.6</ele>
        <time>2021-11-28T09:20:11.000Z</time>
      </trkpt>
      <trkpt lat="43.60261" lon="6.29302">
        <ele>633.6</ele>
        <time>2021-11-28T09:20:20.000Z</time>
      </trkpt>
      <trkpt lat="43.60264" lon="6.29289">
        <ele>635.9</ele>
        <time>2021-11-28T09:20:28.000Z</time>
      </trkpt>
      <trkpt lat="43.60265" lon="6.29276">
        <ele>634.6</ele>
        <time>2021-11-28T09:20:35.000Z</time>
      </trkpt>
      <trkpt lat="43.60266" lon="6.29263">
        <ele>637</ele>
        <time>2021-11-28T09:20:43.000Z</time>
      </trkpt>
      <trkpt lat="43.60266" lon="6.2925">
        <ele>636.6</ele>
        <time>2021-11-28T09:20:51.000Z</time>
      </trkpt>
      <trkpt lat="43.60266" lon="6.29237">
        <ele>637.7</ele>
        <time>2021-11-28T09:20:58.000Z</time>
      </trkpt>
      <trkpt lat="43.60266" lon="6.29223">
        <ele>637.5</ele>
        <time>2021-11-28T09:21:06.000Z</time>
      </trkpt>
      <trkpt lat="43.60273" lon="6.29214">
        <ele>637.9</ele>
        <time>2021-11-28T09:21:17.000Z</time>
      </trkpt>
      <trkpt lat="43.60282" lon="6.29209">
        <ele>637.7</ele>
        <time>2021-11-28T09:21:25.000Z</time>
      </trkpt>
      <trkpt lat="43.60291" lon="6.29208">
        <ele>638.4</ele>
        <time>2021-11-28T09:21:33.000Z</time>
      </trkpt>
      <trkpt lat="43.60301" lon="6.2921">
        <ele>639.1</ele>
        <time>2021-11-28T09:21:42.000Z</time>
      </trkpt>
      <trkpt lat="43.60311" lon="6.29211">
        <ele>637.2</ele>
        <time>2021-11-28T09:21:50.000Z</time>
      </trkpt>
      <trkpt lat="43.6032" lon="6.29214">
        <ele>639.4</ele>
        <time>2021-11-28T09:21:57.000Z</time>
      </trkpt>
      <trkpt lat="43.60329" lon="6.29217">
        <ele>639.1</ele>
        <time>2021-11-28T09:22:05.000Z</time>
      </trkpt>
      <trkpt lat="43.60338" lon="6.29222">
        <ele>640.2</ele>
        <time>2021-11-28T09:22:14.000Z</time>
      </trkpt>
      <trkpt lat="43.60348" lon="6.29223">
        <ele>638.2</ele>
        <time>2021-11-28T09:22:20.000Z</time>
      </trkpt>
      <trkpt lat="43.60357" lon="6.29227">
        <ele>639.6</ele>
        <time>2021-11-28T09:22:27.000Z</time>
      </trkpt>
      <trkpt lat="43.60366" lon="6.29232">
        <ele>637.8</ele>
        <time>2021-11-28T09:22:35.000Z</time>
      </trkpt>
      <trkpt lat="43.60376" lon="6.29233">
        <ele>641</ele>
        <time>2021-11-28T09:22:42.000Z</time>
      </trkpt>
      <trkpt lat="43.60387" lon="6.29235">
        <ele>639.8</ele>
        <time>2021-11-28T09:22:49.000Z</time>
      </trkpt>
      <trkpt lat="43.60396" lon="6.29236">
        <ele>642.1</ele>
        <time>2021-11-28T09:22:57.000Z</time>
      </trkpt>
      <trkpt lat="43.60404" lon="6.29241">
        <ele>641.1</ele>
        <time>2021-11-28T09:23:03.000Z</time>
      </trkpt>
      <trkpt lat="43.60412" lon="6.29249">
        <ele>642.2</ele>
        <time>2021-11-28T09:23:12.000Z</time>
      </trkpt>
      <trkpt lat="43.60412" lon="6.29263">
        <ele>640.2</ele>
        <time>2021-11-28T09:23:21.000Z</time>
      </trkpt>
      <trkpt lat="43.60413" lon="6.29277">
        <ele>643.1</ele>
        <time>2021-11-28T09:23:28.000Z</time>
      </trkpt>
      <trkpt lat="43.60419" lon="6.29286">
        <ele>643.2</ele>
        <time>2021-11-28T09:23:35.000Z</time>
      </trkpt>
      <trkpt lat="43.60427" lon="6.29292">
        <ele>642.6</ele>
        <time>2021-11-28T09:23:43.000Z</time>
      </trkpt>
      <trkpt lat="43.60437" lon="6.2929">
        <ele>644.9</ele>
        <time>2021-11-28T09:23:50.000Z</time>
      </trkpt>
      <trkpt lat="43.60446" lon="6.29287">
        <ele>645.3</ele>
        <time>2021-11-28T09:23:59.000Z</time>
      </trkpt>
      <trkpt lat="43.60456" lon="6.29287">
        <ele>643.8</ele>
        <time>2021-11-28T09:24:07.000Z</time>
      </trkpt>
      <trkpt lat="43.60466" lon="6.29289">
        <ele>644.6</ele>
        <time>2021-11-28T09:24:15.000Z</time>
      </trkpt>
      <trkpt lat="43.60475" lon="6.29284">
        <ele>645.2</ele>
        <time>2021-11-28T09:24:24.000Z</time>
      </trkpt>
      <trkpt lat="43.60484" lon="6.29287">
        <ele>644.8</ele>
        <time>2021-11-28T09:24:31.000Z</time>
      </trkpt>
      <trkpt lat="43.60492" lon="6.29292">
        <ele>645.9</ele>
        <time>2021-11-28T09:24:40.000Z</time>
      </trkpt>
      <trkpt lat="43.60501" lon="6.29295">
        <ele>646.2</ele>
        <time>2021-11-28T09:24:47.000Z</time>
      </trkpt>
      <trkpt lat="43.6051" lon="6.29298">
        <ele>645.4</ele>
        <time>2021-11-28T09:24:55.000Z</time>
      </trkpt>
      <trkpt lat="43.6052" lon="6.29303">
        <ele>645.5</ele>
        <time>2021-11-28T09:25:02.000Z</time>
      </trkpt>
      <trkpt lat="43.60527" lon="6.29312">
        <ele>645.5</ele>
        <time>2021-11-28T09:25:10.000Z</time>
      </trkpt>
      <trkpt lat="43.60535" lon="6.2932">
        <ele>645.5</ele>
        <time>2021-11-28T09:25:17.000Z</time>
      </trkpt>
      <trkpt lat="43.60542" lon="6.29329">
        <ele>646.4</ele>
        <time>2021-11-28T09:25:25.000Z</time>
      </trkpt>
      <trkpt lat="43.60548" lon="6.29339">
        <ele>645.4</ele>
        <time>2021-11-28T09:25:34.000Z</time>
      </trkpt>
      <trkpt lat="43.60553" lon="6.29349">
        <ele>646.4</ele>
        <time>2021-11-28T09:25:43.000Z</time>
      </trkpt>
      <trkpt lat="43.60556" lon="6.29361">
        <ele>647.1</ele>
        <time>2021-11-28T09:25:51.000Z</time>
      </trkpt>
      <trkpt lat="43.60565" lon="6.29366">
        <ele>647.3</ele>
        <time>2021-11-28T09:26:00.000Z</time>
      </trkpt>
      <trkpt lat="43.60575" lon="6.29367">
        <ele>648.3</ele>
        <time>2021-11-28T09:26:10.000Z</time>
      </trkpt>
      <trkpt lat="43.6057" lon="6.29357">
        <ele>643.7</ele>
        <time>2021-11-28T09:26:55.000Z</time>
      </trkpt>
      <trkpt lat="43.60579" lon="6.2936">
        <ele>660.5</ele>
        <time>2021-11-28T09:27:14.000Z</time>
      </trkpt>
      <trkpt lat="43.60587" lon="6.29354">
        <ele>654.5</ele>
        <time>2021-11-28T09:27:22.000Z</time>
      </trkpt>
      <trkpt lat="43.60596" lon="6.29349">
        <ele>652.1</ele>
        <time>2021-11-28T09:27:31.000Z</time>
      </trkpt>
      <trkpt lat="43.60605" lon="6.29344">
        <ele>650.2</ele>
        <time>2021-11-28T09:27:40.000Z</time>
      </trkpt>
      <trkpt lat="43.60611" lon="6.29335">
        <ele>650.5</ele>
        <time>2021-11-28T09:27:47.000Z</time>
      </trkpt>
      <trkpt lat="43.6062" lon="6.2933">
        <ele>650.9</ele>
        <time>2021-11-28T09:27:55.000Z</time>
      </trkpt>
      <trkpt lat="43.60627" lon="6.29321">
        <ele>650</ele>
        <time>2021-11-28T09:28:05.000Z</time>
      </trkpt>
      <trkpt lat="43.60636" lon="6.29315">
        <ele>651.5</ele>
        <time>2021-11-28T09:28:13.000Z</time>
      </trkpt>
      <trkpt lat="43.60644" lon="6.29308">
        <ele>652.9</ele>
        <time>2021-11-28T09:28:20.000Z</time>
      </trkpt>
      <trkpt lat="43.60651" lon="6.29298">
        <ele>652.4</ele>
        <time>2021-11-28T09:28:28.000Z</time>
      </trkpt>
      <trkpt lat="43.60659" lon="6.29292">
        <ele>654.3</ele>
        <time>2021-11-28T09:28:36.000Z</time>
      </trkpt>
      <trkpt lat="43.60669" lon="6.29289">
        <ele>653.9</ele>
        <time>2021-11-28T09:28:44.000Z</time>
      </trkpt>
      <trkpt lat="43.60678" lon="6.29282">
        <ele>655.2</ele>
        <time>2021-11-28T09:28:52.000Z</time>
      </trkpt>
      <trkpt lat="43.60685" lon="6.29273">
        <ele>654.7</ele>
        <time>2021-11-28T09:29:00.000Z</time>
      </trkpt>
      <trkpt lat="43.60691" lon="6.29264">
        <ele>655.6</ele>
        <time>2021-11-28T09:29:06.000Z</time>
      </trkpt>
      <trkpt lat="43.60698" lon="6.29255">
        <ele>654</ele>
        <time>2021-11-28T09:29:13.000Z</time>
      </trkpt>
      <trkpt lat="43.60703" lon="6.29244">
        <ele>655.5</ele>
        <time>2021-11-28T09:29:20.000Z</time>
      </trkpt>
      <trkpt lat="43.60709" lon="6.29235">
        <ele>653.4</ele>
        <time>2021-11-28T09:29:28.000Z</time>
      </trkpt>
      <trkpt lat="43.60718" lon="6.29229">
        <ele>654.4</ele>
        <time>2021-11-28T09:29:37.000Z</time>
      </trkpt>
      <trkpt lat="43.60725" lon="6.29221">
        <ele>656.2</ele>
        <time>2021-11-28T09:29:45.000Z</time>
      </trkpt>
      <trkpt lat="43.6073" lon="6.29211">
        <ele>656.2</ele>
        <time>2021-11-28T09:29:54.000Z</time>
      </trkpt>
      <trkpt lat="43.60739" lon="6.29206">
        <ele>655.6</ele>
        <time>2021-11-28T09:30:05.000Z</time>
      </trkpt>
      <trkpt lat="43.60741" lon="6.29194">
        <ele>657.2</ele>
        <time>2021-11-28T09:30:14.000Z</time>
      </trkpt>
      <trkpt lat="43.60734" lon="6.29186">
        <ele>658.6</ele>
        <time>2021-11-28T09:30:27.000Z</time>
      </trkpt>
      <trkpt lat="43.60725" lon="6.29183">
        <ele>659.2</ele>
        <time>2021-11-28T09:30:36.000Z</time>
      </trkpt>
      <trkpt lat="43.60716" lon="6.29178">
        <ele>659.5</ele>
        <time>2021-11-28T09:30:49.000Z</time>
      </trkpt>
      <trkpt lat="43.60711" lon="6.29168">
        <ele>662.5</ele>
        <time>2021-11-28T09:31:03.000Z</time>
      </trkpt>
      <trkpt lat="43.60706" lon="6.29157">
        <ele>663.9</ele>
        <time>2021-11-28T09:31:18.000Z</time>
      </trkpt>
      <trkpt lat="43.60698" lon="6.29152">
        <ele>664.4</ele>
        <time>2021-11-28T09:31:28.000Z</time>
      </trkpt>
      <trkpt lat="43.60688" lon="6.29156">
        <ele>665.2</ele>
        <time>2021-11-28T09:31:39.000Z</time>
      </trkpt>
      <trkpt lat="43.6068" lon="6.2916">
        <ele>667.1</ele>
        <time>2021-11-28T09:31:51.000Z</time>
      </trkpt>
      <trkpt lat="43.6067" lon="6.29159">
        <ele>667.7</ele>
        <time>2021-11-28T09:32:01.000Z</time>
      </trkpt>
      <trkpt lat="43.60661" lon="6.29156">
        <ele>669.2</ele>
        <time>2021-11-28T09:32:11.000Z</time>
      </trkpt>
      <trkpt lat="43.60652" lon="6.29151">
        <ele>671</ele>
        <time>2021-11-28T09:32:30.000Z</time>
      </trkpt>
      <trkpt lat="43.60657" lon="6.2914">
        <ele>672</ele>
        <time>2021-11-28T09:33:32.000Z</time>
      </trkpt>
      <trkpt lat="43.60659" lon="6.29128">
        <ele>673.9</ele>
        <time>2021-11-28T09:34:26.000Z</time>
      </trkpt>
      <trkpt lat="43.60668" lon="6.29124">
        <ele>673.6</ele>
        <time>2021-11-28T09:34:38.000Z</time>
      </trkpt>
      <trkpt lat="43.60677" lon="6.29119">
        <ele>675.3</ele>
        <time>2021-11-28T09:34:50.000Z</time>
      </trkpt>
      <trkpt lat="43.60686" lon="6.29113">
        <ele>676.2</ele>
        <time>2021-11-28T09:35:01.000Z</time>
      </trkpt>
      <trkpt lat="43.60694" lon="6.29105">
        <ele>677.8</ele>
        <time>2021-11-28T09:35:13.000Z</time>
      </trkpt>
      <trkpt lat="43.60699" lon="6.29095">
        <ele>680.3</ele>
        <time>2021-11-28T09:35:28.000Z</time>
      </trkpt>
      <trkpt lat="43.60706" lon="6.29087">
        <ele>687.3</ele>
        <time>2021-11-28T09:35:46.000Z</time>
      </trkpt>
      <trkpt lat="43.60715" lon="6.29088">
        <ele>689.2</ele>
        <time>2021-11-28T09:36:58.000Z</time>
      </trkpt>
      <trkpt lat="43.60725" lon="6.29083">
        <ele>688.7</ele>
        <time>2021-11-28T09:37:08.000Z</time>
      </trkpt>
      <trkpt lat="43.60733" lon="6.29079">
        <ele>689.1</ele>
        <time>2021-11-28T09:37:21.000Z</time>
      </trkpt>
      <trkpt lat="43.60743" lon="6.29073">
        <ele>689.2</ele>
        <time>2021-11-28T09:37:31.000Z</time>
      </trkpt>
      <trkpt lat="43.60751" lon="6.29068">
        <ele>689</ele>
        <time>2021-11-28T09:37:39.000Z</time>
      </trkpt>
      <trkpt lat="43.60759" lon="6.29062">
        <ele>690.4</ele>
        <time>2021-11-28T09:37:46.000Z</time>
      </trkpt>
      <trkpt lat="43.60768" lon="6.29057">
        <ele>691.2</ele>
        <time>2021-11-28T09:37:54.000Z</time>
      </trkpt>
      <trkpt lat="43.60776" lon="6.2905">
        <ele>691.2</ele>
        <time>2021-11-28T09:38:02.000Z</time>
      </trkpt>
      <trkpt lat="43.60784" lon="6.29042">
        <ele>691.3</ele>
        <time>2021-11-28T09:38:10.000Z</time>
      </trkpt>
      <trkpt lat="43.60793" lon="6.29037">
        <ele>692.5</ele>
        <time>2021-11-28T09:38:18.000Z</time>
      </trkpt>
      <trkpt lat="43.60803" lon="6.29035">
        <ele>691.2</ele>
        <time>2021-11-28T09:38:25.000Z</time>
      </trkpt>
      <trkpt lat="43.60811" lon="6.29031">
        <ele>692.5</ele>
        <time>2021-11-28T09:38:32.000Z</time>
      </trkpt>
      <trkpt lat="43.60819" lon="6.29022">
        <ele>691.7</ele>
        <time>2021-11-28T09:38:40.000Z</time>
      </trkpt>
      <trkpt lat="43.60828" lon="6.29016">
        <ele>692.4</ele>
        <time>2021-11-28T09:38:49.000Z</time>
      </trkpt>
      <trkpt lat="43.60837" lon="6.29012">
        <ele>693.4</ele>
        <time>2021-11-28T09:38:59.000Z</time>
      </trkpt>
      <trkpt lat="43.60847" lon="6.29008">
        <ele>694.6</ele>
        <time>2021-11-28T09:39:08.000Z</time>
      </trkpt>
      <trkpt lat="43.60854" lon="6.28999">
        <ele>696</ele>
        <time>2021-11-28T09:39:17.000Z</time>
      </trkpt>
      <trkpt lat="43.60861" lon="6.28988">
        <ele>697</ele>
        <time>2021-11-28T09:39:26.000Z</time>
      </trkpt>
      <trkpt lat="43.60868" lon="6.28981">
        <ele>696.6</ele>
        <time>2021-11-28T09:39:34.000Z</time>
      </trkpt>
      <trkpt lat="43.60875" lon="6.28971">
        <ele>697.2</ele>
        <time>2021-11-28T09:39:42.000Z</time>
      </trkpt>
      <trkpt lat="43.60881" lon="6.28961">
        <ele>698.9</ele>
        <time>2021-11-28T09:39:50.000Z</time>
      </trkpt>
      <trkpt lat="43.60888" lon="6.28951">
        <ele>698.3</ele>
        <time>2021-11-28T09:39:58.000Z</time>
      </trkpt>
      <trkpt lat="43.60896" lon="6.28944">
        <ele>698.6</ele>
        <time>2021-11-28T09:40:06.000Z</time>
      </trkpt>
      <trkpt lat="43.60903" lon="6.28935">
        <ele>698.9</ele>
        <time>2021-11-28T09:40:14.000Z</time>
      </trkpt>
      <trkpt lat="43.60908" lon="6.28923">
        <ele>697.7</ele>
        <time>2021-11-28T09:40:22.000Z</time>
      </trkpt>
      <trkpt lat="43.60916" lon="6.28915">
        <ele>699.3</ele>
        <time>2021-11-28T09:40:32.000Z</time>
      </trkpt>
      <trkpt lat="43.60926" lon="6.28912">
        <ele>697.8</ele>
        <time>2021-11-28T09:40:40.000Z</time>
      </trkpt>
      <trkpt lat="43.60935" lon="6.28908">
        <ele>698.8</ele>
        <time>2021-11-28T09:40:47.000Z</time>
      </trkpt>
      <trkpt lat="43.60944" lon="6.28905">
        <ele>696.9</ele>
        <time>2021-11-28T09:40:54.000Z</time>
      </trkpt>
      <trkpt lat="43.60953" lon="6.28901">
        <ele>698.3</ele>
        <time>2021-11-28T09:41:03.000Z</time>
      </trkpt>
      <trkpt lat="43.60962" lon="6.28898">
        <ele>697.8</ele>
        <time>2021-11-28T09:41:10.000Z</time>
      </trkpt>
      <trkpt lat="43.60971" lon="6.28894">
        <ele>698.1</ele>
        <time>2021-11-28T09:41:19.000Z</time>
      </trkpt>
      <trkpt lat="43.6098" lon="6.28892">
        <ele>696.1</ele>
        <time>2021-11-28T09:41:26.000Z</time>
      </trkpt>
      <trkpt lat="43.6099" lon="6.28891">
        <ele>696.6</ele>
        <time>2021-11-28T09:41:33.000Z</time>
      </trkpt>
      <trkpt lat="43.60999" lon="6.28888">
        <ele>694.7</ele>
        <time>2021-11-28T09:41:41.000Z</time>
      </trkpt>
      <trkpt lat="43.61008" lon="6.28885">
        <ele>696.8</ele>
        <time>2021-11-28T09:41:47.000Z</time>
      </trkpt>
      <trkpt lat="43.61017" lon="6.28881">
        <ele>695.2</ele>
        <time>2021-11-28T09:41:55.000Z</time>
      </trkpt>
      <trkpt lat="43.61027" lon="6.28878">
        <ele>697.8</ele>
        <time>2021-11-28T09:42:03.000Z</time>
      </trkpt>
      <trkpt lat="43.61035" lon="6.28872">
        <ele>696.4</ele>
        <time>2021-11-28T09:42:12.000Z</time>
      </trkpt>
      <trkpt lat="43.61044" lon="6.28869">
        <ele>696.9</ele>
        <time>2021-11-28T09:42:20.000Z</time>
      </trkpt>
      <trkpt lat="43.61053" lon="6.28862">
        <ele>697.6</ele>
        <time>2021-11-28T09:42:29.000Z</time>
      </trkpt>
      <trkpt lat="43.61061" lon="6.28857">
        <ele>700.7</ele>
        <time>2021-11-28T09:42:36.000Z</time>
      </trkpt>
      <trkpt lat="43.61071" lon="6.28852">
        <ele>701.2</ele>
        <time>2021-11-28T09:42:45.000Z</time>
      </trkpt>
      <trkpt lat="43.61079" lon="6.28845">
        <ele>700.4</ele>
        <time>2021-11-28T09:42:52.000Z</time>
      </trkpt>
      <trkpt lat="43.61087" lon="6.2884">
        <ele>701.5</ele>
        <time>2021-11-28T09:42:58.000Z</time>
      </trkpt>
      <trkpt lat="43.61096" lon="6.28835">
        <ele>701.5</ele>
        <time>2021-11-28T09:43:06.000Z</time>
      </trkpt>
      <trkpt lat="43.61105" lon="6.28831">
        <ele>703.6</ele>
        <time>2021-11-28T09:43:14.000Z</time>
      </trkpt>
      <trkpt lat="43.61114" lon="6.28831">
        <ele>703.4</ele>
        <time>2021-11-28T09:43:23.000Z</time>
      </trkpt>
      <trkpt lat="43.61124" lon="6.2883">
        <ele>703.2</ele>
        <time>2021-11-28T09:43:33.000Z</time>
      </trkpt>
      <trkpt lat="43.61133" lon="6.28826">
        <ele>705.2</ele>
        <time>2021-11-28T09:43:40.000Z</time>
      </trkpt>
      <trkpt lat="43.6114" lon="6.28816">
        <ele>704.9</ele>
        <time>2021-11-28T09:43:48.000Z</time>
      </trkpt>
      <trkpt lat="43.61145" lon="6.28806">
        <ele>705.3</ele>
        <time>2021-11-28T09:43:57.000Z</time>
      </trkpt>
      <trkpt lat="43.6115" lon="6.28794">
        <ele>706</ele>
        <time>2021-11-28T09:44:11.000Z</time>
      </trkpt>
      <trkpt lat="43.61158" lon="6.28788">
        <ele>708</ele>
        <time>2021-11-28T09:44:21.000Z</time>
      </trkpt>
      <trkpt lat="43.61166" lon="6.28782">
        <ele>708.9</ele>
        <time>2021-11-28T09:44:29.000Z</time>
      </trkpt>
      <trkpt lat="43.61175" lon="6.28778">
        <ele>709.8</ele>
        <time>2021-11-28T09:44:37.000Z</time>
      </trkpt>
      <trkpt lat="43.61184" lon="6.28777">
        <ele>708.9</ele>
        <time>2021-11-28T09:44:46.000Z</time>
      </trkpt>
      <trkpt lat="43.61193" lon="6.28771">
        <ele>710.6</ele>
        <time>2021-11-28T09:44:55.000Z</time>
      </trkpt>
      <trkpt lat="43.61199" lon="6.28761">
        <ele>711.4</ele>
        <time>2021-11-28T09:45:04.000Z</time>
      </trkpt>
      <trkpt lat="43.61206" lon="6.28754">
        <ele>711.8</ele>
        <time>2021-11-28T09:45:12.000Z</time>
      </trkpt>
      <trkpt lat="43.61213" lon="6.28744">
        <ele>713</ele>
        <time>2021-11-28T09:45:21.000Z</time>
      </trkpt>
      <trkpt lat="43.61219" lon="6.28734">
        <ele>713.1</ele>
        <time>2021-11-28T09:45:31.000Z</time>
      </trkpt>
      <trkpt lat="43.61224" lon="6.28723">
        <ele>714.3</ele>
        <time>2021-11-28T09:45:41.000Z</time>
      </trkpt>
      <trkpt lat="43.61228" lon="6.28712">
        <ele>715.4</ele>
        <time>2021-11-28T09:45:51.000Z</time>
      </trkpt>
      <trkpt lat="43.61229" lon="6.28699">
        <ele>716.1</ele>
        <time>2021-11-28T09:45:59.000Z</time>
      </trkpt>
      <trkpt lat="43.6123" lon="6.28686">
        <ele>717.8</ele>
        <time>2021-11-28T09:46:08.000Z</time>
      </trkpt>
      <trkpt lat="43.61234" lon="6.28674">
        <ele>717.9</ele>
        <time>2021-11-28T09:46:18.000Z</time>
      </trkpt>
      <trkpt lat="43.61237" lon="6.28662">
        <ele>719.5</ele>
        <time>2021-11-28T09:46:30.000Z</time>
      </trkpt>
      <trkpt lat="43.6124" lon="6.2865">
        <ele>720.7</ele>
        <time>2021-11-28T09:46:38.000Z</time>
      </trkpt>
      <trkpt lat="43.61244" lon="6.28638">
        <ele>721.3</ele>
        <time>2021-11-28T09:46:47.000Z</time>
      </trkpt>
      <trkpt lat="43.61248" lon="6.28627">
        <ele>722.4</ele>
        <time>2021-11-28T09:46:55.000Z</time>
      </trkpt>
      <trkpt lat="43.61255" lon="6.28617">
        <ele>725.8</ele>
        <time>2021-11-28T09:48:03.000Z</time>
      </trkpt>
      <trkpt lat="43.61262" lon="6.28609">
        <ele>724.6</ele>
        <time>2021-11-28T09:48:11.000Z</time>
      </trkpt>
      <trkpt lat="43.61269" lon="6.28601">
        <ele>723.9</ele>
        <time>2021-11-28T09:48:19.000Z</time>
      </trkpt>
      <trkpt lat="43.61275" lon="6.28591">
        <ele>724.3</ele>
        <time>2021-11-28T09:48:28.000Z</time>
      </trkpt>
      <trkpt lat="43.61283" lon="6.28582">
        <ele>725.3</ele>
        <time>2021-11-28T09:48:37.000Z</time>
      </trkpt>
      <trkpt lat="43.61291" lon="6.28575">
        <ele>726.5</ele>
        <time>2021-11-28T09:48:48.000Z</time>
      </trkpt>
      <trkpt lat="43.61297" lon="6.28566">
        <ele>728.5</ele>
        <time>2021-11-28T09:48:57.000Z</time>
      </trkpt>
      <trkpt lat="43.61305" lon="6.28557">
        <ele>730</ele>
        <time>2021-11-28T09:49:07.000Z</time>
      </trkpt>
      <trkpt lat="43.61312" lon="6.28549">
        <ele>730.9</ele>
        <time>2021-11-28T09:49:16.000Z</time>
      </trkpt>
      <trkpt lat="43.61319" lon="6.28542">
        <ele>732.5</ele>
        <time>2021-11-28T09:49:26.000Z</time>
      </trkpt>
      <trkpt lat="43.61327" lon="6.28534">
        <ele>734</ele>
        <time>2021-11-28T09:49:36.000Z</time>
      </trkpt>
      <trkpt lat="43.61336" lon="6.28531">
        <ele>735.2</ele>
        <time>2021-11-28T09:49:45.000Z</time>
      </trkpt>
      <trkpt lat="43.61344" lon="6.28522">
        <ele>737.3</ele>
        <time>2021-11-28T09:49:56.000Z</time>
      </trkpt>
      <trkpt lat="43.61353" lon="6.28517">
        <ele>738.9</ele>
        <time>2021-11-28T09:50:06.000Z</time>
      </trkpt>
      <trkpt lat="43.61363" lon="6.28515">
        <ele>739.9</ele>
        <time>2021-11-28T09:50:15.000Z</time>
      </trkpt>
      <trkpt lat="43.61373" lon="6.28514">
        <ele>741.1</ele>
        <time>2021-11-28T09:50:25.000Z</time>
      </trkpt>
      <trkpt lat="43.61383" lon="6.28516">
        <ele>742.2</ele>
        <time>2021-11-28T09:50:35.000Z</time>
      </trkpt>
      <trkpt lat="43.61392" lon="6.28517">
        <ele>744.7</ele>
        <time>2021-11-28T09:50:47.000Z</time>
      </trkpt>
      <trkpt lat="43.61402" lon="6.28519">
        <ele>746.4</ele>
        <time>2021-11-28T09:50:58.000Z</time>
      </trkpt>
      <trkpt lat="43.61411" lon="6.28522">
        <ele>747.2</ele>
        <time>2021-11-28T09:51:07.000Z</time>
      </trkpt>
      <trkpt lat="43.6142" lon="6.28522">
        <ele>748.9</ele>
        <time>2021-11-28T09:51:17.000Z</time>
      </trkpt>
      <trkpt lat="43.6143" lon="6.28522">
        <ele>750.6</ele>
        <time>2021-11-28T09:51:29.000Z</time>
      </trkpt>
      <trkpt lat="43.61439" lon="6.28523">
        <ele>753</ele>
        <time>2021-11-28T09:51:41.000Z</time>
      </trkpt>
      <trkpt lat="43.61448" lon="6.28521">
        <ele>755.9</ele>
        <time>2021-11-28T09:52:02.000Z</time>
      </trkpt>
      <trkpt lat="43.61458" lon="6.28521">
        <ele>757.5</ele>
        <time>2021-11-28T09:52:17.000Z</time>
      </trkpt>
      <trkpt lat="43.61466" lon="6.28522">
        <ele>759.3</ele>
        <time>2021-11-28T09:52:40.000Z</time>
      </trkpt>
      <trkpt lat="43.61475" lon="6.28518">
        <ele>761</ele>
        <time>2021-11-28T09:55:27.000Z</time>
      </trkpt>
      <trkpt lat="43.61484" lon="6.28522">
        <ele>762.5</ele>
        <time>2021-11-28T09:55:44.000Z</time>
      </trkpt>
      <trkpt lat="43.61493" lon="6.28528">
        <ele>764</ele>
        <time>2021-11-28T09:56:00.000Z</time>
      </trkpt>
      <trkpt lat="43.61501" lon="6.28535">
        <ele>765.7</ele>
        <time>2021-11-28T09:56:12.000Z</time>
      </trkpt>
      <trkpt lat="43.61506" lon="6.28545">
        <ele>766.9</ele>
        <time>2021-11-28T09:56:24.000Z</time>
      </trkpt>
      <trkpt lat="43.61509" lon="6.28558">
        <ele>767.1</ele>
        <time>2021-11-28T09:56:37.000Z</time>
      </trkpt>
      <trkpt lat="43.61506" lon="6.2857">
        <ele>767.7</ele>
        <time>2021-11-28T09:56:46.000Z</time>
      </trkpt>
      <trkpt lat="43.61503" lon="6.28583">
        <ele>767.9</ele>
        <time>2021-11-28T09:56:55.000Z</time>
      </trkpt>
      <trkpt lat="43.615" lon="6.28596">
        <ele>767.8</ele>
        <time>2021-11-28T09:57:04.000Z</time>
      </trkpt>
      <trkpt lat="43.61499" lon="6.28609">
        <ele>768.2</ele>
        <time>2021-11-28T09:57:13.000Z</time>
      </trkpt>
      <trkpt lat="43.61502" lon="6.28621">
        <ele>768.4</ele>
        <time>2021-11-28T09:57:23.000Z</time>
      </trkpt>
      <trkpt lat="43.61508" lon="6.28632">
        <ele>770.2</ele>
        <time>2021-11-28T09:57:33.000Z</time>
      </trkpt>
      <trkpt lat="43.61514" lon="6.28643">
        <ele>770.3</ele>
        <time>2021-11-28T09:57:42.000Z</time>
      </trkpt>
      <trkpt lat="43.6152" lon="6.28654">
        <ele>771.1</ele>
        <time>2021-11-28T09:57:53.000Z</time>
      </trkpt>
      <trkpt lat="43.61527" lon="6.28662">
        <ele>771.3</ele>
        <time>2021-11-28T09:58:03.000Z</time>
      </trkpt>
      <trkpt lat="43.61536" lon="6.28667">
        <ele>770.6</ele>
        <time>2021-11-28T09:58:12.000Z</time>
      </trkpt>
      <trkpt lat="43.61545" lon="6.2867">
        <ele>771.8</ele>
        <time>2021-11-28T09:58:22.000Z</time>
      </trkpt>
      <trkpt lat="43.61554" lon="6.28672">
        <ele>772.6</ele>
        <time>2021-11-28T09:58:32.000Z</time>
      </trkpt>
      <trkpt lat="43.61563" lon="6.28675">
        <ele>773.7</ele>
        <time>2021-11-28T09:58:42.000Z</time>
      </trkpt>
      <trkpt lat="43.61573" lon="6.28678">
        <ele>775.6</ele>
        <time>2021-11-28T09:58:55.000Z</time>
      </trkpt>
      <trkpt lat="43.61583" lon="6.2868">
        <ele>775.8</ele>
        <time>2021-11-28T09:59:04.000Z</time>
      </trkpt>
      <trkpt lat="43.61592" lon="6.28681">
        <ele>777.5</ele>
        <time>2021-11-28T09:59:13.000Z</time>
      </trkpt>
      <trkpt lat="43.61601" lon="6.2868">
        <ele>777.9</ele>
        <time>2021-11-28T09:59:22.000Z</time>
      </trkpt>
      <trkpt lat="43.6161" lon="6.2868">
        <ele>778.8</ele>
        <time>2021-11-28T09:59:30.000Z</time>
      </trkpt>
      <trkpt lat="43.61619" lon="6.28677">
        <ele>779</ele>
        <time>2021-11-28T09:59:39.000Z</time>
      </trkpt>
      <trkpt lat="43.61628" lon="6.28673">
        <ele>780.3</ele>
        <time>2021-11-28T09:59:50.000Z</time>
      </trkpt>
      <trkpt lat="43.61638" lon="6.28671">
        <ele>781.4</ele>
        <time>2021-11-28T09:59:58.000Z</time>
      </trkpt>
      <trkpt lat="43.61647" lon="6.28666">
        <ele>782.2</ele>
        <time>2021-11-28T10:00:08.000Z</time>
      </trkpt>
      <trkpt lat="43.61656" lon="6.28662">
        <ele>783.4</ele>
        <time>2021-11-28T10:00:19.000Z</time>
      </trkpt>
      <trkpt lat="43.61666" lon="6.2866">
        <ele>783.8</ele>
        <time>2021-11-28T10:00:29.000Z</time>
      </trkpt>
      <trkpt lat="43.61674" lon="6.28654">
        <ele>785.1</ele>
        <time>2021-11-28T10:00:39.000Z</time>
      </trkpt>
      <trkpt lat="43.61682" lon="6.28647">
        <ele>786.4</ele>
        <time>2021-11-28T10:00:47.000Z</time>
      </trkpt>
      <trkpt lat="43.6169" lon="6.28638">
        <ele>787</ele>
        <time>2021-11-28T10:00:56.000Z</time>
      </trkpt>
      <trkpt lat="43.61698" lon="6.28634">
        <ele>788.2</ele>
        <time>2021-11-28T10:01:06.000Z</time>
      </trkpt>
      <trkpt lat="43.61707" lon="6.28629">
        <ele>789.4</ele>
        <time>2021-11-28T10:01:15.000Z</time>
      </trkpt>
      <trkpt lat="43.61716" lon="6.28625">
        <ele>790</ele>
        <time>2021-11-28T10:01:25.000Z</time>
      </trkpt>
      <trkpt lat="43.61726" lon="6.28623">
        <ele>790.7</ele>
        <time>2021-11-28T10:01:34.000Z</time>
      </trkpt>
      <trkpt lat="43.61736" lon="6.28619">
        <ele>791.3</ele>
        <time>2021-11-28T10:01:44.000Z</time>
      </trkpt>
      <trkpt lat="43.61745" lon="6.28617">
        <ele>791.1</ele>
        <time>2021-11-28T10:01:52.000Z</time>
      </trkpt>
      <trkpt lat="43.61754" lon="6.28616">
        <ele>790.9</ele>
        <time>2021-11-28T10:02:01.000Z</time>
      </trkpt>
      <trkpt lat="43.61764" lon="6.28616">
        <ele>790.2</ele>
        <time>2021-11-28T10:02:09.000Z</time>
      </trkpt>
      <trkpt lat="43.61774" lon="6.28613">
        <ele>790.7</ele>
        <time>2021-11-28T10:02:18.000Z</time>
      </trkpt>
      <trkpt lat="43.61784" lon="6.28616">
        <ele>791.5</ele>
        <time>2021-11-28T10:02:29.000Z</time>
      </trkpt>
      <trkpt lat="43.61793" lon="6.28616">
        <ele>793.2</ele>
        <time>2021-11-28T10:02:41.000Z</time>
      </trkpt>
      <trkpt lat="43.61802" lon="6.28615">
        <ele>795.4</ele>
        <time>2021-11-28T10:02:50.000Z</time>
      </trkpt>
      <trkpt lat="43.61811" lon="6.28612">
        <ele>796.9</ele>
        <time>2021-11-28T10:03:03.000Z</time>
      </trkpt>
      <trkpt lat="43.61819" lon="6.28607">
        <ele>798.2</ele>
        <time>2021-11-28T10:03:22.000Z</time>
      </trkpt>
      <trkpt lat="43.61828" lon="6.28604">
        <ele>798.6</ele>
        <time>2021-11-28T10:03:38.000Z</time>
      </trkpt>
      <trkpt lat="43.61836" lon="6.28597">
        <ele>798.8</ele>
        <time>2021-11-28T10:03:49.000Z</time>
      </trkpt>
      <trkpt lat="43.61843" lon="6.28589">
        <ele>798.3</ele>
        <time>2021-11-28T10:03:59.000Z</time>
      </trkpt>
      <trkpt lat="43.6185" lon="6.2858">
        <ele>798.6</ele>
        <time>2021-11-28T10:04:07.000Z</time>
      </trkpt>
      <trkpt lat="43.61858" lon="6.28572">
        <ele>799.6</ele>
        <time>2021-11-28T10:04:14.000Z</time>
      </trkpt>
      <trkpt lat="43.61863" lon="6.28561">
        <ele>799.6</ele>
        <time>2021-11-28T10:04:21.000Z</time>
      </trkpt>
      <trkpt lat="43.61868" lon="6.2855">
        <ele>798.8</ele>
        <time>2021-11-28T10:04:29.000Z</time>
      </trkpt>
      <trkpt lat="43.61871" lon="6.28538">
        <ele>798.5</ele>
        <time>2021-11-28T10:04:37.000Z</time>
      </trkpt>
      <trkpt lat="43.61876" lon="6.28528">
        <ele>798.2</ele>
        <time>2021-11-28T10:04:42.000Z</time>
      </trkpt>
      <trkpt lat="43.61879" lon="6.28514">
        <ele>796.7</ele>
        <time>2021-11-28T10:05:44.000Z</time>
      </trkpt>
      <trkpt lat="43.61882" lon="6.28503">
        <ele>796.9</ele>
        <time>2021-11-28T10:05:53.000Z</time>
      </trkpt>
      <trkpt lat="43.61887" lon="6.28489">
        <ele>797.6</ele>
        <time>2021-11-28T10:06:02.000Z</time>
      </trkpt>
      <trkpt lat="43.61892" lon="6.28477">
        <ele>797.8</ele>
        <time>2021-11-28T10:06:10.000Z</time>
      </trkpt>
      <trkpt lat="43.61896" lon="6.28466">
        <ele>797.8</ele>
        <time>2021-11-28T10:06:17.000Z</time>
      </trkpt>
      <trkpt lat="43.61901" lon="6.28454">
        <ele>797.2</ele>
        <time>2021-11-28T10:06:24.000Z</time>
      </trkpt>
      <trkpt lat="43.61907" lon="6.28446">
        <ele>798.9</ele>
        <time>2021-11-28T10:06:33.000Z</time>
      </trkpt>
      <trkpt lat="43.61915" lon="6.28439">
        <ele>798.9</ele>
        <time>2021-11-28T10:06:41.000Z</time>
      </trkpt>
      <trkpt lat="43.61923" lon="6.28432">
        <ele>801.1</ele>
        <time>2021-11-28T10:06:51.000Z</time>
      </trkpt>
      <trkpt lat="43.6193" lon="6.28422">
        <ele>802.8</ele>
        <time>2021-11-28T10:07:02.000Z</time>
      </trkpt>
      <trkpt lat="43.61938" lon="6.28417">
        <ele>803.6</ele>
        <time>2021-11-28T10:07:12.000Z</time>
      </trkpt>
      <trkpt lat="43.61946" lon="6.28411">
        <ele>806</ele>
        <time>2021-11-28T10:07:24.000Z</time>
      </trkpt>
      <trkpt lat="43.61955" lon="6.28407">
        <ele>807.9</ele>
        <time>2021-11-28T10:07:37.000Z</time>
      </trkpt>
      <trkpt lat="43.61964" lon="6.28404">
        <ele>809.1</ele>
        <time>2021-11-28T10:07:49.000Z</time>
      </trkpt>
      <trkpt lat="43.6197" lon="6.28395">
        <ele>811.8</ele>
        <time>2021-11-28T10:08:03.000Z</time>
      </trkpt>
      <trkpt lat="43.61964" lon="6.28387">
        <ele>815.3</ele>
        <time>2021-11-28T10:08:24.000Z</time>
      </trkpt>
      <trkpt lat="43.61957" lon="6.28378">
        <ele>816.9</ele>
        <time>2021-11-28T10:08:37.000Z</time>
      </trkpt>
      <trkpt lat="43.61951" lon="6.28369">
        <ele>819</ele>
        <time>2021-11-28T10:08:51.000Z</time>
      </trkpt>
      <trkpt lat="43.61943" lon="6.28362">
        <ele>819.3</ele>
        <time>2021-11-28T10:09:02.000Z</time>
      </trkpt>
      <trkpt lat="43.61934" lon="6.28357">
        <ele>820.4</ele>
        <time>2021-11-28T10:09:13.000Z</time>
      </trkpt>
      <trkpt lat="43.61925" lon="6.28357">
        <ele>822.8</ele>
        <time>2021-11-28T10:09:26.000Z</time>
      </trkpt>
      <trkpt lat="43.61916" lon="6.28362">
        <ele>824.5</ele>
        <time>2021-11-28T10:09:42.000Z</time>
      </trkpt>
      <trkpt lat="43.61909" lon="6.28368">
        <ele>826.3</ele>
        <time>2021-11-28T10:09:58.000Z</time>
      </trkpt>
      <trkpt lat="43.619" lon="6.28373">
        <ele>828.5</ele>
        <time>2021-11-28T10:10:09.000Z</time>
      </trkpt>
      <trkpt lat="43.61894" lon="6.28362">
        <ele>830.3</ele>
        <time>2021-11-28T10:10:25.000Z</time>
      </trkpt>
      <trkpt lat="43.61896" lon="6.2835">
        <ele>832.1</ele>
        <time>2021-11-28T10:10:40.000Z</time>
      </trkpt>
      <trkpt lat="43.61903" lon="6.2834">
        <ele>834.3</ele>
        <time>2021-11-28T10:10:52.000Z</time>
      </trkpt>
      <trkpt lat="43.61909" lon="6.2833">
        <ele>835.8</ele>
        <time>2021-11-28T10:11:03.000Z</time>
      </trkpt>
      <trkpt lat="43.61911" lon="6.28317">
        <ele>837.8</ele>
        <time>2021-11-28T10:11:15.000Z</time>
      </trkpt>
      <trkpt lat="43.61912" lon="6.28304">
        <ele>839.6</ele>
        <time>2021-11-28T10:11:27.000Z</time>
      </trkpt>
      <trkpt lat="43.61914" lon="6.28291">
        <ele>841.1</ele>
        <time>2021-11-28T10:11:36.000Z</time>
      </trkpt>
      <trkpt lat="43.61921" lon="6.28284">
        <ele>842</ele>
        <time>2021-11-28T10:11:47.000Z</time>
      </trkpt>
      <trkpt lat="43.61926" lon="6.28273">
        <ele>844</ele>
        <time>2021-11-28T10:12:15.000Z</time>
      </trkpt>
      <trkpt lat="43.61934" lon="6.28266">
        <ele>844.7</ele>
        <time>2021-11-28T10:12:24.000Z</time>
      </trkpt>
      <trkpt lat="43.61943" lon="6.28261">
        <ele>845.2</ele>
        <time>2021-11-28T10:12:35.000Z</time>
      </trkpt>
      <trkpt lat="43.61951" lon="6.28255">
        <ele>845.1</ele>
        <time>2021-11-28T10:12:46.000Z</time>
      </trkpt>
      <trkpt lat="43.61959" lon="6.28259">
        <ele>846.3</ele>
        <time>2021-11-28T10:12:58.000Z</time>
      </trkpt>
      <trkpt lat="43.61966" lon="6.28267">
        <ele>847.1</ele>
        <time>2021-11-28T10:13:07.000Z</time>
      </trkpt>
      <trkpt lat="43.61974" lon="6.28274">
        <ele>848.4</ele>
        <time>2021-11-28T10:13:18.000Z</time>
      </trkpt>
      <trkpt lat="43.61982" lon="6.28281">
        <ele>851.8</ele>
        <time>2021-11-28T10:13:28.000Z</time>
      </trkpt>
      <trkpt lat="43.61991" lon="6.28288">
        <ele>853.3</ele>
        <time>2021-11-28T10:13:40.000Z</time>
      </trkpt>
      <trkpt lat="43.62" lon="6.28293">
        <ele>854.3</ele>
        <time>2021-11-28T10:13:51.000Z</time>
      </trkpt>
      <trkpt lat="43.62008" lon="6.28298">
        <ele>854.6</ele>
        <time>2021-11-28T10:14:11.000Z</time>
      </trkpt>
      <trkpt lat="43.62017" lon="6.28304">
        <ele>854.8</ele>
        <time>2021-11-28T10:14:34.000Z</time>
      </trkpt>
      <trkpt lat="43.62025" lon="6.28311">
        <ele>857</ele>
        <time>2021-11-28T10:14:49.000Z</time>
      </trkpt>
      <trkpt lat="43.62034" lon="6.28315">
        <ele>858.5</ele>
        <time>2021-11-28T10:15:02.000Z</time>
      </trkpt>
      <trkpt lat="43.62043" lon="6.28313">
        <ele>861.3</ele>
        <time>2021-11-28T10:15:14.000Z</time>
      </trkpt>
      <trkpt lat="43.62052" lon="6.28309">
        <ele>862.8</ele>
        <time>2021-11-28T10:15:24.000Z</time>
      </trkpt>
      <trkpt lat="43.6206" lon="6.28302">
        <ele>863.4</ele>
        <time>2021-11-28T10:15:33.000Z</time>
      </trkpt>
      <trkpt lat="43.6207" lon="6.28298">
        <ele>863.3</ele>
        <time>2021-11-28T10:15:43.000Z</time>
      </trkpt>
      <trkpt lat="43.62079" lon="6.28296">
        <ele>862.7</ele>
        <time>2021-11-28T10:15:55.000Z</time>
      </trkpt>
      <trkpt lat="43.62088" lon="6.28296">
        <ele>862.9</ele>
        <time>2021-11-28T10:16:04.000Z</time>
      </trkpt>
      <trkpt lat="43.62098" lon="6.28294">
        <ele>863</ele>
        <time>2021-11-28T10:16:14.000Z</time>
      </trkpt>
      <trkpt lat="43.62107" lon="6.28296">
        <ele>863.3</ele>
        <time>2021-11-28T10:16:22.000Z</time>
      </trkpt>
      <trkpt lat="43.62114" lon="6.28303">
        <ele>864.4</ele>
        <time>2021-11-28T10:16:31.000Z</time>
      </trkpt>
      <trkpt lat="43.62122" lon="6.28312">
        <ele>865.3</ele>
        <time>2021-11-28T10:16:42.000Z</time>
      </trkpt>
      <trkpt lat="43.62125" lon="6.28325">
        <ele>865.8</ele>
        <time>2021-11-28T10:16:52.000Z</time>
      </trkpt>
      <trkpt lat="43.62132" lon="6.28334">
        <ele>866.9</ele>
        <time>2021-11-28T10:17:00.000Z</time>
      </trkpt>
      <trkpt lat="43.62135" lon="6.28346">
        <ele>866.6</ele>
        <time>2021-11-28T10:17:08.000Z</time>
      </trkpt>
      <trkpt lat="43.62143" lon="6.28354">
        <ele>867.2</ele>
        <time>2021-11-28T10:17:16.000Z</time>
      </trkpt>
      <trkpt lat="43.62149" lon="6.28364">
        <ele>867.5</ele>
        <time>2021-11-28T10:17:25.000Z</time>
      </trkpt>
      <trkpt lat="43.62155" lon="6.28373">
        <ele>867.9</ele>
        <time>2021-11-28T10:17:35.000Z</time>
      </trkpt>
      <trkpt lat="43.62163" lon="6.28382">
        <ele>869.7</ele>
        <time>2021-11-28T10:17:46.000Z</time>
      </trkpt>
      <trkpt lat="43.6217" lon="6.28389">
        <ele>871.2</ele>
        <time>2021-11-28T10:17:56.000Z</time>
      </trkpt>
      <trkpt lat="43.6218" lon="6.28392">
        <ele>871.4</ele>
        <time>2021-11-28T10:18:05.000Z</time>
      </trkpt>
      <trkpt lat="43.6219" lon="6.28392">
        <ele>871.4</ele>
        <time>2021-11-28T10:18:14.000Z</time>
      </trkpt>
      <trkpt lat="43.62198" lon="6.28394">
        <ele>871.5</ele>
        <time>2021-11-28T10:18:26.000Z</time>
      </trkpt>
      <trkpt lat="43.62207" lon="6.284">
        <ele>872.7</ele>
        <time>2021-11-28T10:18:35.000Z</time>
      </trkpt>
      <trkpt lat="43.62213" lon="6.2841">
        <ele>872.3</ele>
        <time>2021-11-28T10:18:44.000Z</time>
      </trkpt>
      <trkpt lat="43.62217" lon="6.28422">
        <ele>871.9</ele>
        <time>2021-11-28T10:18:52.000Z</time>
      </trkpt>
      <trkpt lat="43.62224" lon="6.2843">
        <ele>872.1</ele>
        <time>2021-11-28T10:19:01.000Z</time>
      </trkpt>
      <trkpt lat="43.62232" lon="6.28436">
        <ele>872.7</ele>
        <time>2021-11-28T10:19:11.000Z</time>
      </trkpt>
      <trkpt lat="43.6224" lon="6.28443">
        <ele>873.7</ele>
        <time>2021-11-28T10:19:21.000Z</time>
      </trkpt>
      <trkpt lat="43.62249" lon="6.28448">
        <ele>875.5</ele>
        <time>2021-11-28T10:19:33.000Z</time>
      </trkpt>
      <trkpt lat="43.62247" lon="6.2846">
        <ele>877.2</ele>
        <time>2021-11-28T10:19:50.000Z</time>
      </trkpt>
      <trkpt lat="43.62239" lon="6.28467">
        <ele>878.4</ele>
        <time>2021-11-28T10:19:59.000Z</time>
      </trkpt>
      <trkpt lat="43.62229" lon="6.28464">
        <ele>878.8</ele>
        <time>2021-11-28T10:20:09.000Z</time>
      </trkpt>
      <trkpt lat="43.62219" lon="6.28463">
        <ele>878.4</ele>
        <time>2021-11-28T10:20:20.000Z</time>
      </trkpt>
      <trkpt lat="43.62211" lon="6.28471">
        <ele>877.7</ele>
        <time>2021-11-28T10:20:30.000Z</time>
      </trkpt>
      <trkpt lat="43.6221" lon="6.28485">
        <ele>876.8</ele>
        <time>2021-11-28T10:20:39.000Z</time>
      </trkpt>
      <trkpt lat="43.62215" lon="6.28497">
        <ele>876</ele>
        <time>2021-11-28T10:20:48.000Z</time>
      </trkpt>
      <trkpt lat="43.62221" lon="6.28507">
        <ele>874.9</ele>
        <time>2021-11-28T10:20:57.000Z</time>
      </trkpt>
      <trkpt lat="43.62229" lon="6.28514">
        <ele>874.7</ele>
        <time>2021-11-28T10:21:06.000Z</time>
      </trkpt>
      <trkpt lat="43.62239" lon="6.2852">
        <ele>875.2</ele>
        <time>2021-11-28T10:21:18.000Z</time>
      </trkpt>
      <trkpt lat="43.62248" lon="6.28521">
        <ele>875.8</ele>
        <time>2021-11-28T10:21:32.000Z</time>
      </trkpt>
      <trkpt lat="43.62258" lon="6.28526">
        <ele>878.3</ele>
        <time>2021-11-28T10:21:46.000Z</time>
      </trkpt>
      <trkpt lat="43.62264" lon="6.28536">
        <ele>878.7</ele>
        <time>2021-11-28T10:21:53.000Z</time>
      </trkpt>
      <trkpt lat="43.6227" lon="6.28547">
        <ele>878.8</ele>
        <time>2021-11-28T10:22:02.000Z</time>
      </trkpt>
      <trkpt lat="43.62275" lon="6.28558">
        <ele>878.5</ele>
        <time>2021-11-28T10:22:12.000Z</time>
      </trkpt>
      <trkpt lat="43.62279" lon="6.2857">
        <ele>878.3</ele>
        <time>2021-11-28T10:22:23.000Z</time>
      </trkpt>
      <trkpt lat="43.62283" lon="6.28582">
        <ele>879.4</ele>
        <time>2021-11-28T10:22:32.000Z</time>
      </trkpt>
      <trkpt lat="43.62286" lon="6.28595">
        <ele>880</ele>
        <time>2021-11-28T10:22:41.000Z</time>
      </trkpt>
      <trkpt lat="43.6229" lon="6.28606">
        <ele>880.6</ele>
        <time>2021-11-28T10:22:49.000Z</time>
      </trkpt>
      <trkpt lat="43.6229" lon="6.28619">
        <ele>881.2</ele>
        <time>2021-11-28T10:23:02.000Z</time>
      </trkpt>
      <trkpt lat="43.62288" lon="6.28631">
        <ele>882</ele>
        <time>2021-11-28T10:23:14.000Z</time>
      </trkpt>
      <trkpt lat="43.62285" lon="6.28643">
        <ele>883.9</ele>
        <time>2021-11-28T10:23:25.000Z</time>
      </trkpt>
      <trkpt lat="43.62279" lon="6.28652">
        <ele>884.6</ele>
        <time>2021-11-28T10:23:37.000Z</time>
      </trkpt>
      <trkpt lat="43.62274" lon="6.28663">
        <ele>884.6</ele>
        <time>2021-11-28T10:24:20.000Z</time>
      </trkpt>
      <trkpt lat="43.62267" lon="6.28671">
        <ele>884.2</ele>
        <time>2021-11-28T10:24:31.000Z</time>
      </trkpt>
      <trkpt lat="43.6226" lon="6.28681">
        <ele>884.4</ele>
        <time>2021-11-28T10:24:43.000Z</time>
      </trkpt>
      <trkpt lat="43.62252" lon="6.28687">
        <ele>883.6</ele>
        <time>2021-11-28T10:24:53.000Z</time>
      </trkpt>
      <trkpt lat="43.62243" lon="6.2869">
        <ele>882.9</ele>
        <time>2021-11-28T10:25:01.000Z</time>
      </trkpt>
      <trkpt lat="43.62234" lon="6.28693">
        <ele>881.9</ele>
        <time>2021-11-28T10:25:10.000Z</time>
      </trkpt>
      <trkpt lat="43.62225" lon="6.28694">
        <ele>879.9</ele>
        <time>2021-11-28T10:25:22.000Z</time>
      </trkpt>
      <trkpt lat="43.62215" lon="6.28694">
        <ele>878.3</ele>
        <time>2021-11-28T10:25:33.000Z</time>
      </trkpt>
      <trkpt lat="43.62208" lon="6.28701">
        <ele>876.7</ele>
        <time>2021-11-28T10:25:43.000Z</time>
      </trkpt>
      <trkpt lat="43.62202" lon="6.28712">
        <ele>876.4</ele>
        <time>2021-11-28T10:25:51.000Z</time>
      </trkpt>
      <trkpt lat="43.62199" lon="6.28724">
        <ele>876.9</ele>
        <time>2021-11-28T10:26:01.000Z</time>
      </trkpt>
      <trkpt lat="43.62194" lon="6.28735">
        <ele>876.2</ele>
        <time>2021-11-28T10:26:12.000Z</time>
      </trkpt>
      <trkpt lat="43.6219" lon="6.28748">
        <ele>875.7</ele>
        <time>2021-11-28T10:26:21.000Z</time>
      </trkpt>
      <trkpt lat="43.62185" lon="6.28759">
        <ele>875.4</ele>
        <time>2021-11-28T10:26:30.000Z</time>
      </trkpt>
      <trkpt lat="43.6218" lon="6.2877">
        <ele>875.3</ele>
        <time>2021-11-28T10:26:40.000Z</time>
      </trkpt>
      <trkpt lat="43.62173" lon="6.2878">
        <ele>874.7</ele>
        <time>2021-11-28T10:27:19.000Z</time>
      </trkpt>
      <trkpt lat="43.62164" lon="6.28784">
        <ele>873.6</ele>
        <time>2021-11-28T10:27:32.000Z</time>
      </trkpt>
      <trkpt lat="43.62154" lon="6.28788">
        <ele>872.7</ele>
        <time>2021-11-28T10:27:42.000Z</time>
      </trkpt>
      <trkpt lat="43.62146" lon="6.28795">
        <ele>872.1</ele>
        <time>2021-11-28T10:27:48.000Z</time>
      </trkpt>
      <trkpt lat="43.6214" lon="6.28805">
        <ele>871.4</ele>
        <time>2021-11-28T10:27:55.000Z</time>
      </trkpt>
      <trkpt lat="43.62134" lon="6.28816">
        <ele>871.9</ele>
        <time>2021-11-28T10:28:01.000Z</time>
      </trkpt>
      <trkpt lat="43.62132" lon="6.28829">
        <ele>871</ele>
        <time>2021-11-28T10:28:09.000Z</time>
      </trkpt>
      <trkpt lat="43.62127" lon="6.2884">
        <ele>870.4</ele>
        <time>2021-11-28T10:28:16.000Z</time>
      </trkpt>
      <trkpt lat="43.62121" lon="6.28849">
        <ele>871</ele>
        <time>2021-11-28T10:28:27.000Z</time>
      </trkpt>
      <trkpt lat="43.62112" lon="6.28853">
        <ele>870.2</ele>
        <time>2021-11-28T10:28:35.000Z</time>
      </trkpt>
      <trkpt lat="43.62104" lon="6.2886">
        <ele>870.8</ele>
        <time>2021-11-28T10:28:41.000Z</time>
      </trkpt>
      <trkpt lat="43.62096" lon="6.28867">
        <ele>871.6</ele>
        <time>2021-11-28T10:28:48.000Z</time>
      </trkpt>
      <trkpt lat="43.62096" lon="6.2888">
        <ele>873.2</ele>
        <time>2021-11-28T10:28:58.000Z</time>
      </trkpt>
      <trkpt lat="43.62101" lon="6.28892">
        <ele>874.8</ele>
        <time>2021-11-28T10:29:10.000Z</time>
      </trkpt>
      <trkpt lat="43.62107" lon="6.28901">
        <ele>874.9</ele>
        <time>2021-11-28T10:29:19.000Z</time>
      </trkpt>
      <trkpt lat="43.62115" lon="6.2891">
        <ele>874.5</ele>
        <time>2021-11-28T10:29:28.000Z</time>
      </trkpt>
      <trkpt lat="43.62125" lon="6.28911">
        <ele>874.1</ele>
        <time>2021-11-28T10:29:35.000Z</time>
      </trkpt>
      <trkpt lat="43.62133" lon="6.28918">
        <ele>873.9</ele>
        <time>2021-11-28T10:29:43.000Z</time>
      </trkpt>
      <trkpt lat="43.62141" lon="6.28927">
        <ele>872.8</ele>
        <time>2021-11-28T10:29:51.000Z</time>
      </trkpt>
      <trkpt lat="43.62147" lon="6.28936">
        <ele>872.7</ele>
        <time>2021-11-28T10:29:56.000Z</time>
      </trkpt>
      <trkpt lat="43.62148" lon="6.28948">
        <ele>872</ele>
        <time>2021-11-28T10:30:04.000Z</time>
      </trkpt>
      <trkpt lat="43.62152" lon="6.2896">
        <ele>870.9</ele>
        <time>2021-11-28T10:30:12.000Z</time>
      </trkpt>
      <trkpt lat="43.62159" lon="6.28969">
        <ele>870.8</ele>
        <time>2021-11-28T10:30:19.000Z</time>
      </trkpt>
      <trkpt lat="43.62169" lon="6.28973">
        <ele>870.4</ele>
        <time>2021-11-28T10:30:27.000Z</time>
      </trkpt>
      <trkpt lat="43.62178" lon="6.28975">
        <ele>869.7</ele>
        <time>2021-11-28T10:30:35.000Z</time>
      </trkpt>
      <trkpt lat="43.62185" lon="6.28984">
        <ele>869.4</ele>
        <time>2021-11-28T10:30:41.000Z</time>
      </trkpt>
      <trkpt lat="43.62188" lon="6.28996">
        <ele>869</ele>
        <time>2021-11-28T10:30:50.000Z</time>
      </trkpt>
      <trkpt lat="43.62192" lon="6.29008">
        <ele>869.2</ele>
        <time>2021-11-28T10:30:59.000Z</time>
      </trkpt>
      <trkpt lat="43.62195" lon="6.2902">
        <ele>869.5</ele>
        <time>2021-11-28T10:31:07.000Z</time>
      </trkpt>
      <trkpt lat="43.62198" lon="6.29032">
        <ele>869.4</ele>
        <time>2021-11-28T10:31:16.000Z</time>
      </trkpt>
      <trkpt lat="43.62201" lon="6.29045">
        <ele>869.4</ele>
        <time>2021-11-28T10:31:25.000Z</time>
      </trkpt>
      <trkpt lat="43.6221" lon="6.29053">
        <ele>869.1</ele>
        <time>2021-11-28T10:31:33.000Z</time>
      </trkpt>
      <trkpt lat="43.62214" lon="6.29065">
        <ele>869</ele>
        <time>2021-11-28T10:31:43.000Z</time>
      </trkpt>
      <trkpt lat="43.62218" lon="6.29077">
        <ele>869.1</ele>
        <time>2021-11-28T10:31:52.000Z</time>
      </trkpt>
      <trkpt lat="43.62223" lon="6.29089">
        <ele>868.9</ele>
        <time>2021-11-28T10:32:00.000Z</time>
      </trkpt>
      <trkpt lat="43.62225" lon="6.29101">
        <ele>869.6</ele>
        <time>2021-11-28T10:32:08.000Z</time>
      </trkpt>
      <trkpt lat="43.6223" lon="6.29112">
        <ele>870.2</ele>
        <time>2021-11-28T10:32:16.000Z</time>
      </trkpt>
      <trkpt lat="43.6224" lon="6.29116">
        <ele>871</ele>
        <time>2021-11-28T10:32:26.000Z</time>
      </trkpt>
      <trkpt lat="43.62246" lon="6.29127">
        <ele>871.3</ele>
        <time>2021-11-28T10:32:37.000Z</time>
      </trkpt>
      <trkpt lat="43.62251" lon="6.29138">
        <ele>872.1</ele>
        <time>2021-11-28T10:32:49.000Z</time>
      </trkpt>
      <trkpt lat="43.62256" lon="6.2915">
        <ele>873.2</ele>
        <time>2021-11-28T10:32:58.000Z</time>
      </trkpt>
      <trkpt lat="43.62261" lon="6.29162">
        <ele>873.9</ele>
        <time>2021-11-28T10:33:08.000Z</time>
      </trkpt>
      <trkpt lat="43.62261" lon="6.29175">
        <ele>874.1</ele>
        <time>2021-11-28T10:33:20.000Z</time>
      </trkpt>
      <trkpt lat="43.62267" lon="6.29183">
        <ele>876.2</ele>
        <time>2021-11-28T10:34:18.000Z</time>
      </trkpt>
      <trkpt lat="43.62275" lon="6.29189">
        <ele>876.4</ele>
        <time>2021-11-28T10:35:16.000Z</time>
      </trkpt>
      <trkpt lat="43.62268" lon="6.29197">
        <ele>876.6</ele>
        <time>2021-11-28T10:36:55.000Z</time>
      </trkpt>
      <trkpt lat="43.62277" lon="6.29201">
        <ele>877.2</ele>
        <time>2021-11-28T10:37:55.000Z</time>
      </trkpt>
      <trkpt lat="43.62281" lon="6.29213">
        <ele>877.5</ele>
        <time>2021-11-28T10:38:06.000Z</time>
      </trkpt>
      <trkpt lat="43.62285" lon="6.29225">
        <ele>877.9</ele>
        <time>2021-11-28T10:38:14.000Z</time>
      </trkpt>
      <trkpt lat="43.62293" lon="6.29233">
        <ele>877.7</ele>
        <time>2021-11-28T10:38:23.000Z</time>
      </trkpt>
      <trkpt lat="43.62296" lon="6.29245">
        <ele>877.2</ele>
        <time>2021-11-28T10:38:33.000Z</time>
      </trkpt>
      <trkpt lat="43.62298" lon="6.29258">
        <ele>878.3</ele>
        <time>2021-11-28T10:38:41.000Z</time>
      </trkpt>
      <trkpt lat="43.62303" lon="6.2927">
        <ele>879.8</ele>
        <time>2021-11-28T10:38:49.000Z</time>
      </trkpt>
      <trkpt lat="43.62308" lon="6.2928">
        <ele>880</ele>
        <time>2021-11-28T10:38:55.000Z</time>
      </trkpt>
      <trkpt lat="43.62315" lon="6.29289">
        <ele>880.1</ele>
        <time>2021-11-28T10:39:04.000Z</time>
      </trkpt>
      <trkpt lat="43.6232" lon="6.29301">
        <ele>879.7</ele>
        <time>2021-11-28T10:39:15.000Z</time>
      </trkpt>
      <trkpt lat="43.62311" lon="6.29307">
        <ele>881.2</ele>
        <time>2021-11-28T10:39:31.000Z</time>
      </trkpt>
      <trkpt lat="43.62301" lon="6.29309">
        <ele>882.2</ele>
        <time>2021-11-28T10:39:40.000Z</time>
      </trkpt>
      <trkpt lat="43.62294" lon="6.29317">
        <ele>883.5</ele>
        <time>2021-11-28T10:39:50.000Z</time>
      </trkpt>
      <trkpt lat="43.62286" lon="6.29326">
        <ele>884.5</ele>
        <time>2021-11-28T10:39:59.000Z</time>
      </trkpt>
      <trkpt lat="43.62278" lon="6.2933">
        <ele>885.4</ele>
        <time>2021-11-28T10:40:08.000Z</time>
      </trkpt>
      <trkpt lat="43.62269" lon="6.29335">
        <ele>884.9</ele>
        <time>2021-11-28T10:40:16.000Z</time>
      </trkpt>
      <trkpt lat="43.62259" lon="6.29337">
        <ele>886.9</ele>
        <time>2021-11-28T10:40:25.000Z</time>
      </trkpt>
      <trkpt lat="43.62251" lon="6.2934">
        <ele>887.5</ele>
        <time>2021-11-28T10:40:34.000Z</time>
      </trkpt>
      <trkpt lat="43.62244" lon="6.2935">
        <ele>886.8</ele>
        <time>2021-11-28T10:40:45.000Z</time>
      </trkpt>
      <trkpt lat="43.62239" lon="6.2936">
        <ele>885.4</ele>
        <time>2021-11-28T10:40:57.000Z</time>
      </trkpt>
      <trkpt lat="43.62235" lon="6.29372">
        <ele>884.3</ele>
        <time>2021-11-28T10:41:04.000Z</time>
      </trkpt>
      <trkpt lat="43.62236" lon="6.29385">
        <ele>882.9</ele>
        <time>2021-11-28T10:41:15.000Z</time>
      </trkpt>
      <trkpt lat="43.62238" lon="6.29398">
        <ele>881.5</ele>
        <time>2021-11-28T10:41:32.000Z</time>
      </trkpt>
      <trkpt lat="43.62239" lon="6.29411">
        <ele>880.3</ele>
        <time>2021-11-28T10:41:46.000Z</time>
      </trkpt>
      <trkpt lat="43.6224" lon="6.29424">
        <ele>879.5</ele>
        <time>2021-11-28T10:41:57.000Z</time>
      </trkpt>
      <trkpt lat="43.62233" lon="6.29432">
        <ele>879.1</ele>
        <time>2021-11-28T10:42:14.000Z</time>
      </trkpt>
      <trkpt lat="43.62225" lon="6.29438">
        <ele>878.7</ele>
        <time>2021-11-28T10:42:20.000Z</time>
      </trkpt>
      <trkpt lat="43.62215" lon="6.29441">
        <ele>877.9</ele>
        <time>2021-11-28T10:42:30.000Z</time>
      </trkpt>
      <trkpt lat="43.62206" lon="6.29439">
        <ele>870</ele>
        <time>2021-11-28T10:43:50.000Z</time>
      </trkpt>
      <trkpt lat="43.62197" lon="6.29439">
        <ele>879.5</ele>
        <time>2021-11-28T10:45:10.000Z</time>
      </trkpt>
      <trkpt lat="43.62189" lon="6.29433">
        <ele>883.2</ele>
        <time>2021-11-28T10:45:37.000Z</time>
      </trkpt>
      <trkpt lat="43.62183" lon="6.29424">
        <ele>886</ele>
        <time>2021-11-28T10:45:54.000Z</time>
      </trkpt>
      <trkpt lat="43.62179" lon="6.29412">
        <ele>890.9</ele>
        <time>2021-11-28T10:46:42.000Z</time>
      </trkpt>
      <trkpt lat="43.6217" lon="6.29409">
        <ele>891.8</ele>
        <time>2021-11-28T10:47:10.000Z</time>
      </trkpt>
      <trkpt lat="43.62167" lon="6.29397">
        <ele>891.5</ele>
        <time>2021-11-28T10:47:24.000Z</time>
      </trkpt>
      <trkpt lat="43.62169" lon="6.29384">
        <ele>891.3</ele>
        <time>2021-11-28T10:47:45.000Z</time>
      </trkpt>
      <trkpt lat="43.62179" lon="6.29386">
        <ele>890.6</ele>
        <time>2021-11-28T10:49:07.000Z</time>
      </trkpt>
      <trkpt lat="43.62175" lon="6.29374">
        <ele>890.4</ele>
        <time>2021-11-28T10:50:24.000Z</time>
      </trkpt>
      <trkpt lat="43.62184" lon="6.29368">
        <ele>888.2</ele>
        <time>2021-11-28T10:50:51.000Z</time>
      </trkpt>
      <trkpt lat="43.62192" lon="6.29373">
        <ele>887</ele>
        <time>2021-11-28T10:51:01.000Z</time>
      </trkpt>
      <trkpt lat="43.62202" lon="6.29375">
        <ele>885.5</ele>
        <time>2021-11-28T10:51:11.000Z</time>
      </trkpt>
      <trkpt lat="43.62211" lon="6.29374">
        <ele>884.5</ele>
        <time>2021-11-28T11:04:30.000Z</time>
      </trkpt>
      <trkpt lat="43.62201" lon="6.29374">
        <ele>883.3</ele>
        <time>2021-11-28T11:06:04.000Z</time>
      </trkpt>
      <trkpt lat="43.62209" lon="6.29369">
        <ele>883.7</ele>
        <time>2021-11-28T11:06:33.000Z</time>
      </trkpt>
      <trkpt lat="43.62217" lon="6.29376">
        <ele>884.8</ele>
        <time>2021-11-28T11:07:37.000Z</time>
      </trkpt>
      <trkpt lat="43.62207" lon="6.29372">
        <ele>886.9</ele>
        <time>2021-11-28T11:10:50.000Z</time>
      </trkpt>
      <trkpt lat="43.62197" lon="6.29368">
        <ele>885.6</ele>
        <time>2021-11-28T11:10:55.000Z</time>
      </trkpt>
      <trkpt lat="43.62206" lon="6.29369">
        <ele>884.8</ele>
        <time>2021-11-28T11:11:04.000Z</time>
      </trkpt>
      <trkpt lat="43.62215" lon="6.29373">
        <ele>885.1</ele>
        <time>2021-11-28T11:11:29.000Z</time>
      </trkpt>
      <trkpt lat="43.62206" lon="6.29369">
        <ele>842.1</ele>
        <time>2021-11-28T11:13:06.000Z</time>
      </trkpt>
      <trkpt lat="43.62216" lon="6.29371">
        <ele>869.4</ele>
        <time>2021-11-28T11:14:48.000Z</time>
      </trkpt>
      <trkpt lat="43.62208" lon="6.29377">
        <ele>884.8</ele>
        <time>2021-11-28T11:16:10.000Z</time>
      </trkpt>
      <trkpt lat="43.62217" lon="6.29378">
        <ele>883</ele>
        <time>2021-11-28T11:16:52.000Z</time>
      </trkpt>
      <trkpt lat="43.62208" lon="6.29375">
        <ele>884.7</ele>
        <time>2021-11-28T11:17:41.000Z</time>
      </trkpt>
      <trkpt lat="43.62198" lon="6.29377">
        <ele>836.8</ele>
        <time>2021-11-28T11:18:54.000Z</time>
      </trkpt>
      <trkpt lat="43.62207" lon="6.29375">
        <ele>886.4</ele>
        <time>2021-11-28T11:20:20.000Z</time>
      </trkpt>
      <trkpt lat="43.62198" lon="6.29375">
        <ele>867.3</ele>
        <time>2021-11-28T11:23:21.000Z</time>
      </trkpt>
      <trkpt lat="43.62189" lon="6.29381">
        <ele>888.1</ele>
        <time>2021-11-28T11:24:11.000Z</time>
      </trkpt>
      <trkpt lat="43.62198" lon="6.29374">
        <ele>885.1</ele>
        <time>2021-11-28T11:24:25.000Z</time>
      </trkpt>
      <trkpt lat="43.62206" lon="6.29379">
        <ele>884.7</ele>
        <time>2021-11-28T11:26:11.000Z</time>
      </trkpt>
      <trkpt lat="43.62215" lon="6.29378">
        <ele>884.6</ele>
        <time>2021-11-28T11:27:24.000Z</time>
      </trkpt>
      <trkpt lat="43.62206" lon="6.29378">
        <ele>886.1</ele>
        <time>2021-11-28T11:28:46.000Z</time>
      </trkpt>
      <trkpt lat="43.62198" lon="6.29383">
        <ele>885.6</ele>
        <time>2021-11-28T11:30:23.000Z</time>
      </trkpt>
      <trkpt lat="43.6219" lon="6.29376">
        <ele>886.8</ele>
        <time>2021-11-28T11:30:36.000Z</time>
      </trkpt>
      <trkpt lat="43.62181" lon="6.29373">
        <ele>885.6</ele>
        <time>2021-11-28T11:30:51.000Z</time>
      </trkpt>
      <trkpt lat="43.62172" lon="6.29378">
        <ele>889.3</ele>
        <time>2021-11-28T11:31:07.000Z</time>
      </trkpt>
      <trkpt lat="43.62167" lon="6.29387">
        <ele>891.6</ele>
        <time>2021-11-28T11:31:23.000Z</time>
      </trkpt>
      <trkpt lat="43.62158" lon="6.29393">
        <ele>892</ele>
        <time>2021-11-28T11:31:42.000Z</time>
      </trkpt>
      <trkpt lat="43.62149" lon="6.29392">
        <ele>894.2</ele>
        <time>2021-11-28T11:31:56.000Z</time>
      </trkpt>
      <trkpt lat="43.6214" lon="6.2939">
        <ele>894.5</ele>
        <time>2021-11-28T11:32:07.000Z</time>
      </trkpt>
      <trkpt lat="43.6213" lon="6.29392">
        <ele>895.1</ele>
        <time>2021-11-28T11:32:23.000Z</time>
      </trkpt>
      <trkpt lat="43.62123" lon="6.29399">
        <ele>893.9</ele>
        <time>2021-11-28T11:32:38.000Z</time>
      </trkpt>
      <trkpt lat="43.62115" lon="6.29405">
        <ele>892.1</ele>
        <time>2021-11-28T11:32:50.000Z</time>
      </trkpt>
      <trkpt lat="43.62107" lon="6.29413">
        <ele>891.9</ele>
        <time>2021-11-28T11:33:02.000Z</time>
      </trkpt>
      <trkpt lat="43.621" lon="6.29422">
        <ele>890.9</ele>
        <time>2021-11-28T11:33:12.000Z</time>
      </trkpt>
      <trkpt lat="43.62092" lon="6.29429">
        <ele>889.3</ele>
        <time>2021-11-28T11:33:23.000Z</time>
      </trkpt>
      <trkpt lat="43.62086" lon="6.2944">
        <ele>889.1</ele>
        <time>2021-11-28T11:33:38.000Z</time>
      </trkpt>
      <trkpt lat="43.62081" lon="6.29451">
        <ele>890.3</ele>
        <time>2021-11-28T11:34:04.000Z</time>
      </trkpt>
      <trkpt lat="43.6208" lon="6.29464">
        <ele>889.1</ele>
        <time>2021-11-28T11:34:15.000Z</time>
      </trkpt>
      <trkpt lat="43.62079" lon="6.29477">
        <ele>886.8</ele>
        <time>2021-11-28T11:34:25.000Z</time>
      </trkpt>
      <trkpt lat="43.62077" lon="6.29491">
        <ele>885.1</ele>
        <time>2021-11-28T11:34:36.000Z</time>
      </trkpt>
      <trkpt lat="43.62075" lon="6.29503">
        <ele>884.1</ele>
        <time>2021-11-28T11:34:45.000Z</time>
      </trkpt>
      <trkpt lat="43.62069" lon="6.29512">
        <ele>882.7</ele>
        <time>2021-11-28T11:34:51.000Z</time>
      </trkpt>
      <trkpt lat="43.62061" lon="6.2952">
        <ele>883</ele>
        <time>2021-11-28T11:34:59.000Z</time>
      </trkpt>
      <trkpt lat="43.62053" lon="6.29527">
        <ele>883</ele>
        <time>2021-11-28T11:35:07.000Z</time>
      </trkpt>
      <trkpt lat="43.62043" lon="6.2953">
        <ele>884.1</ele>
        <time>2021-11-28T11:35:16.000Z</time>
      </trkpt>
      <trkpt lat="43.62035" lon="6.29534">
        <ele>884.6</ele>
        <time>2021-11-28T11:35:24.000Z</time>
      </trkpt>
      <trkpt lat="43.62027" lon="6.29542">
        <ele>885</ele>
        <time>2021-11-28T11:35:32.000Z</time>
      </trkpt>
      <trkpt lat="43.62019" lon="6.29551">
        <ele>884.7</ele>
        <time>2021-11-28T11:35:38.000Z</time>
      </trkpt>
      <trkpt lat="43.62015" lon="6.29563">
        <ele>883.7</ele>
        <time>2021-11-28T11:35:46.000Z</time>
      </trkpt>
      <trkpt lat="43.62014" lon="6.29577">
        <ele>882.5</ele>
        <time>2021-11-28T11:35:54.000Z</time>
      </trkpt>
      <trkpt lat="43.62016" lon="6.2959">
        <ele>881</ele>
        <time>2021-11-28T11:36:03.000Z</time>
      </trkpt>
      <trkpt lat="43.62018" lon="6.29604">
        <ele>880.2</ele>
        <time>2021-11-28T11:36:11.000Z</time>
      </trkpt>
      <trkpt lat="43.62018" lon="6.29617">
        <ele>879.1</ele>
        <time>2021-11-28T11:36:17.000Z</time>
      </trkpt>
      <trkpt lat="43.6202" lon="6.29629">
        <ele>877.8</ele>
        <time>2021-11-28T11:36:23.000Z</time>
      </trkpt>
      <trkpt lat="43.62026" lon="6.29641">
        <ele>876.9</ele>
        <time>2021-11-28T11:36:29.000Z</time>
      </trkpt>
      <trkpt lat="43.62031" lon="6.29653">
        <ele>874</ele>
        <time>2021-11-28T11:36:40.000Z</time>
      </trkpt>
      <trkpt lat="43.62034" lon="6.29665">
        <ele>873</ele>
        <time>2021-11-28T11:36:49.000Z</time>
      </trkpt>
      <trkpt lat="43.62031" lon="6.29679">
        <ele>872.1</ele>
        <time>2021-11-28T11:36:58.000Z</time>
      </trkpt>
      <trkpt lat="43.62031" lon="6.29692">
        <ele>870.3</ele>
        <time>2021-11-28T11:37:07.000Z</time>
      </trkpt>
      <trkpt lat="43.62029" lon="6.29704">
        <ele>869.4</ele>
        <time>2021-11-28T11:37:16.000Z</time>
      </trkpt>
      <trkpt lat="43.62025" lon="6.29716">
        <ele>867.1</ele>
        <time>2021-11-28T11:37:27.000Z</time>
      </trkpt>
      <trkpt lat="43.62019" lon="6.29726">
        <ele>865.4</ele>
        <time>2021-11-28T11:37:35.000Z</time>
      </trkpt>
      <trkpt lat="43.62011" lon="6.29733">
        <ele>863</ele>
        <time>2021-11-28T11:37:47.000Z</time>
      </trkpt>
      <trkpt lat="43.62003" lon="6.29739">
        <ele>861.1</ele>
        <time>2021-11-28T11:38:01.000Z</time>
      </trkpt>
      <trkpt lat="43.61995" lon="6.29746">
        <ele>858.3</ele>
        <time>2021-11-28T11:38:15.000Z</time>
      </trkpt>
      <trkpt lat="43.61987" lon="6.29751">
        <ele>855.3</ele>
        <time>2021-11-28T11:38:30.000Z</time>
      </trkpt>
      <trkpt lat="43.61978" lon="6.29756">
        <ele>852.9</ele>
        <time>2021-11-28T11:38:43.000Z</time>
      </trkpt>
      <trkpt lat="43.61971" lon="6.29764">
        <ele>851</ele>
        <time>2021-11-28T11:38:56.000Z</time>
      </trkpt>
      <trkpt lat="43.61965" lon="6.29774">
        <ele>848</ele>
        <time>2021-11-28T11:39:15.000Z</time>
      </trkpt>
      <trkpt lat="43.61961" lon="6.29787">
        <ele>845.3</ele>
        <time>2021-11-28T11:39:34.000Z</time>
      </trkpt>
      <trkpt lat="43.61958" lon="6.298">
        <ele>843.7</ele>
        <time>2021-11-28T11:39:45.000Z</time>
      </trkpt>
      <trkpt lat="43.61956" lon="6.29813">
        <ele>842.9</ele>
        <time>2021-11-28T11:39:54.000Z</time>
      </trkpt>
      <trkpt lat="43.61957" lon="6.29826">
        <ele>840.8</ele>
        <time>2021-11-28T11:40:07.000Z</time>
      </trkpt>
      <trkpt lat="43.61951" lon="6.29837">
        <ele>839.5</ele>
        <time>2021-11-28T11:40:19.000Z</time>
      </trkpt>
      <trkpt lat="43.61947" lon="6.29849">
        <ele>841.5</ele>
        <time>2021-11-28T11:40:29.000Z</time>
      </trkpt>
      <trkpt lat="43.61946" lon="6.29861">
        <ele>844.2</ele>
        <time>2021-11-28T11:40:39.000Z</time>
      </trkpt>
      <trkpt lat="43.61944" lon="6.29874">
        <ele>844.4</ele>
        <time>2021-11-28T11:40:48.000Z</time>
      </trkpt>
      <trkpt lat="43.61945" lon="6.29887">
        <ele>846.8</ele>
        <time>2021-11-28T11:41:00.000Z</time>
      </trkpt>
      <trkpt lat="43.61946" lon="6.29899">
        <ele>847.3</ele>
        <time>2021-11-28T11:41:15.000Z</time>
      </trkpt>
      <trkpt lat="43.61946" lon="6.29912">
        <ele>846.6</ele>
        <time>2021-11-28T11:41:31.000Z</time>
      </trkpt>
      <trkpt lat="43.61946" lon="6.29925">
        <ele>847</ele>
        <time>2021-11-28T11:41:42.000Z</time>
      </trkpt>
      <trkpt lat="43.61946" lon="6.29937">
        <ele>846.3</ele>
        <time>2021-11-28T11:41:58.000Z</time>
      </trkpt>
      <trkpt lat="43.61943" lon="6.2995">
        <ele>844.7</ele>
        <time>2021-11-28T11:42:14.000Z</time>
      </trkpt>
      <trkpt lat="43.61938" lon="6.29961">
        <ele>842.8</ele>
        <time>2021-11-28T11:42:26.000Z</time>
      </trkpt>
      <trkpt lat="43.61937" lon="6.29974">
        <ele>840.6</ele>
        <time>2021-11-28T11:42:39.000Z</time>
      </trkpt>
      <trkpt lat="43.61934" lon="6.29986">
        <ele>838.9</ele>
        <time>2021-11-28T11:42:48.000Z</time>
      </trkpt>
      <trkpt lat="43.61933" lon="6.3">
        <ele>837.6</ele>
        <time>2021-11-28T11:42:58.000Z</time>
      </trkpt>
      <trkpt lat="43.61933" lon="6.30013">
        <ele>836.5</ele>
        <time>2021-11-28T11:43:07.000Z</time>
      </trkpt>
      <trkpt lat="43.61929" lon="6.30025">
        <ele>836.6</ele>
        <time>2021-11-28T11:43:16.000Z</time>
      </trkpt>
      <trkpt lat="43.61926" lon="6.30036">
        <ele>835.7</ele>
        <time>2021-11-28T11:43:26.000Z</time>
      </trkpt>
      <trkpt lat="43.61923" lon="6.30049">
        <ele>834.1</ele>
        <time>2021-11-28T11:43:35.000Z</time>
      </trkpt>
      <trkpt lat="43.61923" lon="6.30063">
        <ele>833</ele>
        <time>2021-11-28T11:43:44.000Z</time>
      </trkpt>
      <trkpt lat="43.61925" lon="6.30076">
        <ele>833.9</ele>
        <time>2021-11-28T11:43:55.000Z</time>
      </trkpt>
      <trkpt lat="43.61922" lon="6.30089">
        <ele>835</ele>
        <time>2021-11-28T11:44:04.000Z</time>
      </trkpt>
      <trkpt lat="43.61929" lon="6.30098">
        <ele>836</ele>
        <time>2021-11-28T11:44:13.000Z</time>
      </trkpt>
      <trkpt lat="43.6193" lon="6.30111">
        <ele>836.6</ele>
        <time>2021-11-28T11:44:22.000Z</time>
      </trkpt>
      <trkpt lat="43.61932" lon="6.30124">
        <ele>836.6</ele>
        <time>2021-11-28T11:44:31.000Z</time>
      </trkpt>
      <trkpt lat="43.61936" lon="6.30135">
        <ele>836.5</ele>
        <time>2021-11-28T11:44:39.000Z</time>
      </trkpt>
      <trkpt lat="43.61936" lon="6.30148">
        <ele>836.3</ele>
        <time>2021-11-28T11:44:48.000Z</time>
      </trkpt>
      <trkpt lat="43.61937" lon="6.3016">
        <ele>835.8</ele>
        <time>2021-11-28T11:44:56.000Z</time>
      </trkpt>
      <trkpt lat="43.61937" lon="6.30173">
        <ele>835.2</ele>
        <time>2021-11-28T11:45:04.000Z</time>
      </trkpt>
      <trkpt lat="43.61938" lon="6.30186">
        <ele>835</ele>
        <time>2021-11-28T11:45:11.000Z</time>
      </trkpt>
      <trkpt lat="43.6194" lon="6.30199">
        <ele>834.4</ele>
        <time>2021-11-28T11:45:19.000Z</time>
      </trkpt>
      <trkpt lat="43.61942" lon="6.30212">
        <ele>834.3</ele>
        <time>2021-11-28T11:45:27.000Z</time>
      </trkpt>
      <trkpt lat="43.61937" lon="6.30224">
        <ele>833.7</ele>
        <time>2021-11-28T11:45:35.000Z</time>
      </trkpt>
      <trkpt lat="43.61937" lon="6.30238">
        <ele>833</ele>
        <time>2021-11-28T11:45:45.000Z</time>
      </trkpt>
      <trkpt lat="43.61931" lon="6.30248">
        <ele>831.9</ele>
        <time>2021-11-28T11:45:54.000Z</time>
      </trkpt>
      <trkpt lat="43.61926" lon="6.30259">
        <ele>834.4</ele>
        <time>2021-11-28T11:46:02.000Z</time>
      </trkpt>
      <trkpt lat="43.6192" lon="6.30269">
        <ele>835.3</ele>
        <time>2021-11-28T11:46:10.000Z</time>
      </trkpt>
      <trkpt lat="43.61917" lon="6.30281">
        <ele>835.3</ele>
        <time>2021-11-28T11:46:18.000Z</time>
      </trkpt>
      <trkpt lat="43.61912" lon="6.30293">
        <ele>835.2</ele>
        <time>2021-11-28T11:46:24.000Z</time>
      </trkpt>
      <trkpt lat="43.61909" lon="6.30304">
        <ele>834.3</ele>
        <time>2021-11-28T11:46:31.000Z</time>
      </trkpt>
      <trkpt lat="43.61907" lon="6.30317">
        <ele>833.3</ele>
        <time>2021-11-28T11:46:40.000Z</time>
      </trkpt>
      <trkpt lat="43.61906" lon="6.30331">
        <ele>832.4</ele>
        <time>2021-11-28T11:46:48.000Z</time>
      </trkpt>
      <trkpt lat="43.61904" lon="6.30344">
        <ele>831.1</ele>
        <time>2021-11-28T11:46:56.000Z</time>
      </trkpt>
      <trkpt lat="43.61905" lon="6.30357">
        <ele>830.4</ele>
        <time>2021-11-28T11:47:06.000Z</time>
      </trkpt>
      <trkpt lat="43.61912" lon="6.30366">
        <ele>829.9</ele>
        <time>2021-11-28T11:47:14.000Z</time>
      </trkpt>
      <trkpt lat="43.61921" lon="6.30373">
        <ele>830.4</ele>
        <time>2021-11-28T11:47:22.000Z</time>
      </trkpt>
      <trkpt lat="43.61929" lon="6.30381">
        <ele>830.5</ele>
        <time>2021-11-28T11:47:31.000Z</time>
      </trkpt>
      <trkpt lat="43.61931" lon="6.30394">
        <ele>830.7</ele>
        <time>2021-11-28T11:47:38.000Z</time>
      </trkpt>
      <trkpt lat="43.61933" lon="6.30406">
        <ele>830.7</ele>
        <time>2021-11-28T11:47:45.000Z</time>
      </trkpt>
      <trkpt lat="43.61935" lon="6.30419">
        <ele>830.1</ele>
        <time>2021-11-28T11:47:54.000Z</time>
      </trkpt>
      <trkpt lat="43.61936" lon="6.30433">
        <ele>830</ele>
        <time>2021-11-28T11:48:03.000Z</time>
      </trkpt>
      <trkpt lat="43.61938" lon="6.30446">
        <ele>830.4</ele>
        <time>2021-11-28T11:48:11.000Z</time>
      </trkpt>
      <trkpt lat="43.61939" lon="6.30459">
        <ele>830.9</ele>
        <time>2021-11-28T11:48:19.000Z</time>
      </trkpt>
      <trkpt lat="43.61939" lon="6.30472">
        <ele>832.3</ele>
        <time>2021-11-28T11:48:28.000Z</time>
      </trkpt>
      <trkpt lat="43.61938" lon="6.30486">
        <ele>833.1</ele>
        <time>2021-11-28T11:48:38.000Z</time>
      </trkpt>
      <trkpt lat="43.61937" lon="6.30498">
        <ele>833.6</ele>
        <time>2021-11-28T11:48:47.000Z</time>
      </trkpt>
      <trkpt lat="43.61936" lon="6.30511">
        <ele>834.4</ele>
        <time>2021-11-28T11:48:57.000Z</time>
      </trkpt>
      <trkpt lat="43.61934" lon="6.30524">
        <ele>835.4</ele>
        <time>2021-11-28T11:49:06.000Z</time>
      </trkpt>
      <trkpt lat="43.61931" lon="6.30537">
        <ele>835.6</ele>
        <time>2021-11-28T11:49:15.000Z</time>
      </trkpt>
      <trkpt lat="43.61932" lon="6.30549">
        <ele>835.7</ele>
        <time>2021-11-28T11:49:22.000Z</time>
      </trkpt>
      <trkpt lat="43.61932" lon="6.30562">
        <ele>835.5</ele>
        <time>2021-11-28T11:49:32.000Z</time>
      </trkpt>
      <trkpt lat="43.61933" lon="6.30575">
        <ele>834.8</ele>
        <time>2021-11-28T11:49:43.000Z</time>
      </trkpt>
      <trkpt lat="43.61936" lon="6.30588">
        <ele>834.7</ele>
        <time>2021-11-28T11:49:54.000Z</time>
      </trkpt>
      <trkpt lat="43.61939" lon="6.306">
        <ele>834.4</ele>
        <time>2021-11-28T11:50:03.000Z</time>
      </trkpt>
      <trkpt lat="43.61944" lon="6.30612">
        <ele>834.3</ele>
        <time>2021-11-28T11:50:11.000Z</time>
      </trkpt>
      <trkpt lat="43.61949" lon="6.30623">
        <ele>833.6</ele>
        <time>2021-11-28T11:50:18.000Z</time>
      </trkpt>
      <trkpt lat="43.61954" lon="6.30634">
        <ele>833.8</ele>
        <time>2021-11-28T11:50:25.000Z</time>
      </trkpt>
      <trkpt lat="43.61952" lon="6.30647">
        <ele>833.7</ele>
        <time>2021-11-28T11:50:31.000Z</time>
      </trkpt>
      <trkpt lat="43.61956" lon="6.30659">
        <ele>833.8</ele>
        <time>2021-11-28T11:50:38.000Z</time>
      </trkpt>
      <trkpt lat="43.61957" lon="6.30673">
        <ele>833.4</ele>
        <time>2021-11-28T11:50:47.000Z</time>
      </trkpt>
      <trkpt lat="43.61962" lon="6.30684">
        <ele>834</ele>
        <time>2021-11-28T11:50:59.000Z</time>
      </trkpt>
      <trkpt lat="43.61967" lon="6.30696">
        <ele>833.9</ele>
        <time>2021-11-28T11:51:09.000Z</time>
      </trkpt>
      <trkpt lat="43.6197" lon="6.30709">
        <ele>833.7</ele>
        <time>2021-11-28T11:51:17.000Z</time>
      </trkpt>
      <trkpt lat="43.61974" lon="6.30721">
        <ele>833.8</ele>
        <time>2021-11-28T11:51:24.000Z</time>
      </trkpt>
      <trkpt lat="43.61982" lon="6.3073">
        <ele>834.5</ele>
        <time>2021-11-28T11:51:32.000Z</time>
      </trkpt>
      <trkpt lat="43.6199" lon="6.30736">
        <ele>835.2</ele>
        <time>2021-11-28T11:51:39.000Z</time>
      </trkpt>
      <trkpt lat="43.61996" lon="6.30746">
        <ele>834.8</ele>
        <time>2021-11-28T11:51:48.000Z</time>
      </trkpt>
      <trkpt lat="43.62002" lon="6.30756">
        <ele>834.4</ele>
        <time>2021-11-28T11:51:56.000Z</time>
      </trkpt>
      <trkpt lat="43.62008" lon="6.30768">
        <ele>833.6</ele>
        <time>2021-11-28T11:52:04.000Z</time>
      </trkpt>
      <trkpt lat="43.62012" lon="6.3078">
        <ele>832.1</ele>
        <time>2021-11-28T11:52:14.000Z</time>
      </trkpt>
      <trkpt lat="43.62016" lon="6.30792">
        <ele>830.9</ele>
        <time>2021-11-28T11:52:24.000Z</time>
      </trkpt>
      <trkpt lat="43.62022" lon="6.30802">
        <ele>829.6</ele>
        <time>2021-11-28T11:52:34.000Z</time>
      </trkpt>
      <trkpt lat="43.62027" lon="6.30813">
        <ele>827.1</ele>
        <time>2021-11-28T11:52:44.000Z</time>
      </trkpt>
      <trkpt lat="43.62034" lon="6.30821">
        <ele>825.2</ele>
        <time>2021-11-28T11:52:53.000Z</time>
      </trkpt>
      <trkpt lat="43.62041" lon="6.30829">
        <ele>824</ele>
        <time>2021-11-28T11:53:02.000Z</time>
      </trkpt>
      <trkpt lat="43.6205" lon="6.30833">
        <ele>821</ele>
        <time>2021-11-28T11:53:16.000Z</time>
      </trkpt>
      <trkpt lat="43.62059" lon="6.30832">
        <ele>818.5</ele>
        <time>2021-11-28T11:53:29.000Z</time>
      </trkpt>
      <trkpt lat="43.62069" lon="6.3083">
        <ele>816.9</ele>
        <time>2021-11-28T11:53:38.000Z</time>
      </trkpt>
      <trkpt lat="43.62077" lon="6.30825">
        <ele>815.7</ele>
        <time>2021-11-28T11:53:46.000Z</time>
      </trkpt>
      <trkpt lat="43.62087" lon="6.3082">
        <ele>814.5</ele>
        <time>2021-11-28T11:53:54.000Z</time>
      </trkpt>
      <trkpt lat="43.62095" lon="6.30813">
        <ele>813.1</ele>
        <time>2021-11-28T11:54:04.000Z</time>
      </trkpt>
      <trkpt lat="43.62104" lon="6.30808">
        <ele>811</ele>
        <time>2021-11-28T11:54:18.000Z</time>
      </trkpt>
      <trkpt lat="43.62112" lon="6.30814">
        <ele>808.9</ele>
        <time>2021-11-28T11:54:29.000Z</time>
      </trkpt>
      <trkpt lat="43.62121" lon="6.30817">
        <ele>807.4</ele>
        <time>2021-11-28T11:54:39.000Z</time>
      </trkpt>
      <trkpt lat="43.6213" lon="6.3082">
        <ele>805.9</ele>
        <time>2021-11-28T11:54:49.000Z</time>
      </trkpt>
      <trkpt lat="43.62139" lon="6.30819">
        <ele>803.3</ele>
        <time>2021-11-28T11:55:05.000Z</time>
      </trkpt>
      <trkpt lat="43.62148" lon="6.30822">
        <ele>801.4</ele>
        <time>2021-11-28T11:55:17.000Z</time>
      </trkpt>
      <trkpt lat="43.62158" lon="6.30824">
        <ele>799</ele>
        <time>2021-11-28T11:55:29.000Z</time>
      </trkpt>
      <trkpt lat="43.62167" lon="6.30831">
        <ele>797.3</ele>
        <time>2021-11-28T11:55:37.000Z</time>
      </trkpt>
      <trkpt lat="43.62175" lon="6.30838">
        <ele>795.7</ele>
        <time>2021-11-28T11:55:49.000Z</time>
      </trkpt>
      <trkpt lat="43.62182" lon="6.30846">
        <ele>792.4</ele>
        <time>2021-11-28T11:56:04.000Z</time>
      </trkpt>
      <trkpt lat="43.62189" lon="6.30853">
        <ele>790.3</ele>
        <time>2021-11-28T11:56:15.000Z</time>
      </trkpt>
      <trkpt lat="43.62198" lon="6.30858">
        <ele>788.6</ele>
        <time>2021-11-28T11:56:26.000Z</time>
      </trkpt>
      <trkpt lat="43.62206" lon="6.30864">
        <ele>785.8</ele>
        <time>2021-11-28T11:56:38.000Z</time>
      </trkpt>
      <trkpt lat="43.62215" lon="6.3087">
        <ele>782.2</ele>
        <time>2021-11-28T11:56:54.000Z</time>
      </trkpt>
      <trkpt lat="43.62224" lon="6.30874">
        <ele>779.1</ele>
        <time>2021-11-28T11:57:10.000Z</time>
      </trkpt>
      <trkpt lat="43.62233" lon="6.30875">
        <ele>776.5</ele>
        <time>2021-11-28T11:57:25.000Z</time>
      </trkpt>
      <trkpt lat="43.62242" lon="6.30874">
        <ele>774.3</ele>
        <time>2021-11-28T11:57:38.000Z</time>
      </trkpt>
      <trkpt lat="43.62251" lon="6.30879">
        <ele>771.6</ele>
        <time>2021-11-28T11:57:55.000Z</time>
      </trkpt>
      <trkpt lat="43.62259" lon="6.30887">
        <ele>769.9</ele>
        <time>2021-11-28T11:58:10.000Z</time>
      </trkpt>
      <trkpt lat="43.62264" lon="6.30897">
        <ele>767.4</ele>
        <time>2021-11-28T11:58:26.000Z</time>
      </trkpt>
      <trkpt lat="43.62271" lon="6.30905">
        <ele>765.3</ele>
        <time>2021-11-28T11:58:38.000Z</time>
      </trkpt>
      <trkpt lat="43.6228" lon="6.30913">
        <ele>762.8</ele>
        <time>2021-11-28T11:58:51.000Z</time>
      </trkpt>
      <trkpt lat="43.62289" lon="6.30919">
        <ele>760.4</ele>
        <time>2021-11-28T11:59:04.000Z</time>
      </trkpt>
      <trkpt lat="43.62297" lon="6.30925">
        <ele>757.9</ele>
        <time>2021-11-28T11:59:19.000Z</time>
      </trkpt>
      <trkpt lat="43.62306" lon="6.3093">
        <ele>755.9</ele>
        <time>2021-11-28T11:59:32.000Z</time>
      </trkpt>
      <trkpt lat="43.62314" lon="6.30936">
        <ele>754.3</ele>
        <time>2021-11-28T11:59:43.000Z</time>
      </trkpt>
      <trkpt lat="43.62322" lon="6.30943">
        <ele>752.3</ele>
        <time>2021-11-28T11:59:55.000Z</time>
      </trkpt>
      <trkpt lat="43.62332" lon="6.30946">
        <ele>750.1</ele>
        <time>2021-11-28T12:00:08.000Z</time>
      </trkpt>
      <trkpt lat="43.62341" lon="6.30945">
        <ele>748.8</ele>
        <time>2021-11-28T12:00:18.000Z</time>
      </trkpt>
      <trkpt lat="43.6235" lon="6.30944">
        <ele>748.8</ele>
        <time>2021-11-28T12:00:35.000Z</time>
      </trkpt>
      <trkpt lat="43.62359" lon="6.30949">
        <ele>748.9</ele>
        <time>2021-11-28T12:00:48.000Z</time>
      </trkpt>
      <trkpt lat="43.62365" lon="6.30958">
        <ele>748.4</ele>
        <time>2021-11-28T12:01:01.000Z</time>
      </trkpt>
      <trkpt lat="43.62373" lon="6.30964">
        <ele>747.8</ele>
        <time>2021-11-28T12:01:10.000Z</time>
      </trkpt>
      <trkpt lat="43.62381" lon="6.3097">
        <ele>746.6</ele>
        <time>2021-11-28T12:01:20.000Z</time>
      </trkpt>
      <trkpt lat="43.62389" lon="6.30977">
        <ele>752.8</ele>
        <time>2021-11-28T12:02:01.000Z</time>
      </trkpt>
      <trkpt lat="43.62396" lon="6.30986">
        <ele>746.8</ele>
        <time>2021-11-28T12:02:18.000Z</time>
      </trkpt>
      <trkpt lat="43.62402" lon="6.30995">
        <ele>744.9</ele>
        <time>2021-11-28T12:02:42.000Z</time>
      </trkpt>
      <trkpt lat="43.62401" lon="6.31008">
        <ele>744.8</ele>
        <time>2021-11-28T12:03:36.000Z</time>
      </trkpt>
      <trkpt lat="43.62404" lon="6.31021">
        <ele>744.2</ele>
        <time>2021-11-28T12:03:49.000Z</time>
      </trkpt>
      <trkpt lat="43.62404" lon="6.31034">
        <ele>742.9</ele>
        <time>2021-11-28T12:03:58.000Z</time>
      </trkpt>
      <trkpt lat="43.62403" lon="6.31048">
        <ele>742.8</ele>
        <time>2021-11-28T12:04:06.000Z</time>
      </trkpt>
      <trkpt lat="43.62402" lon="6.31061">
        <ele>741.8</ele>
        <time>2021-11-28T12:04:14.000Z</time>
      </trkpt>
      <trkpt lat="43.62405" lon="6.31074">
        <ele>741.2</ele>
        <time>2021-11-28T12:04:21.000Z</time>
      </trkpt>
      <trkpt lat="43.6241" lon="6.31085">
        <ele>740.5</ele>
        <time>2021-11-28T12:04:28.000Z</time>
      </trkpt>
      <trkpt lat="43.62415" lon="6.31096">
        <ele>739.2</ele>
        <time>2021-11-28T12:04:37.000Z</time>
      </trkpt>
      <trkpt lat="43.6242" lon="6.31107">
        <ele>738.5</ele>
        <time>2021-11-28T12:04:48.000Z</time>
      </trkpt>
      <trkpt lat="43.62427" lon="6.31115">
        <ele>737.6</ele>
        <time>2021-11-28T12:04:59.000Z</time>
      </trkpt>
      <trkpt lat="43.62432" lon="6.31127">
        <ele>736.5</ele>
        <time>2021-11-28T12:05:09.000Z</time>
      </trkpt>
      <trkpt lat="43.62436" lon="6.31139">
        <ele>736.8</ele>
        <time>2021-11-28T12:05:18.000Z</time>
      </trkpt>
      <trkpt lat="43.62434" lon="6.31151">
        <ele>736.6</ele>
        <time>2021-11-28T12:05:27.000Z</time>
      </trkpt>
      <trkpt lat="43.62428" lon="6.31162">
        <ele>735.9</ele>
        <time>2021-11-28T12:05:37.000Z</time>
      </trkpt>
      <trkpt lat="43.62424" lon="6.31174">
        <ele>735.8</ele>
        <time>2021-11-28T12:05:47.000Z</time>
      </trkpt>
      <trkpt lat="43.62419" lon="6.31187">
        <ele>735.7</ele>
        <time>2021-11-28T12:05:56.000Z</time>
      </trkpt>
      <trkpt lat="43.62415" lon="6.312">
        <ele>736</ele>
        <time>2021-11-28T12:06:04.000Z</time>
      </trkpt>
      <trkpt lat="43.62411" lon="6.31211">
        <ele>735.8</ele>
        <time>2021-11-28T12:06:12.000Z</time>
      </trkpt>
      <trkpt lat="43.62403" lon="6.3122">
        <ele>735.4</ele>
        <time>2021-11-28T12:06:22.000Z</time>
      </trkpt>
      <trkpt lat="43.62396" lon="6.31229">
        <ele>734.7</ele>
        <time>2021-11-28T12:06:31.000Z</time>
      </trkpt>
      <trkpt lat="43.62394" lon="6.31241">
        <ele>736.1</ele>
        <time>2021-11-28T12:07:04.000Z</time>
      </trkpt>
      <trkpt lat="43.62384" lon="6.31245">
        <ele>736</ele>
        <time>2021-11-28T12:07:12.000Z</time>
      </trkpt>
      <trkpt lat="43.62376" lon="6.31252">
        <ele>734.3</ele>
        <time>2021-11-28T12:07:22.000Z</time>
      </trkpt>
      <trkpt lat="43.62369" lon="6.31261">
        <ele>734.3</ele>
        <time>2021-11-28T12:07:33.000Z</time>
      </trkpt>
      <trkpt lat="43.62362" lon="6.31271">
        <ele>733.9</ele>
        <time>2021-11-28T12:07:45.000Z</time>
      </trkpt>
      <trkpt lat="43.62358" lon="6.31283">
        <ele>734</ele>
        <time>2021-11-28T12:07:56.000Z</time>
      </trkpt>
      <trkpt lat="43.62356" lon="6.31295">
        <ele>734.1</ele>
        <time>2021-11-28T12:08:04.000Z</time>
      </trkpt>
      <trkpt lat="43.6235" lon="6.31306">
        <ele>734</ele>
        <time>2021-11-28T12:08:10.000Z</time>
      </trkpt>
      <trkpt lat="43.62343" lon="6.31317">
        <ele>734.9</ele>
        <time>2021-11-28T12:08:19.000Z</time>
      </trkpt>
      <trkpt lat="43.62336" lon="6.31327">
        <ele>735.2</ele>
        <time>2021-11-28T12:08:27.000Z</time>
      </trkpt>
      <trkpt lat="43.62329" lon="6.31336">
        <ele>736</ele>
        <time>2021-11-28T12:08:37.000Z</time>
      </trkpt>
      <trkpt lat="43.62324" lon="6.31348">
        <ele>736.6</ele>
        <time>2021-11-28T12:08:45.000Z</time>
      </trkpt>
      <trkpt lat="43.62317" lon="6.31358">
        <ele>736.4</ele>
        <time>2021-11-28T12:08:53.000Z</time>
      </trkpt>
      <trkpt lat="43.6231" lon="6.31367">
        <ele>737.2</ele>
        <time>2021-11-28T12:09:01.000Z</time>
      </trkpt>
      <trkpt lat="43.62303" lon="6.31375">
        <ele>738.1</ele>
        <time>2021-11-28T12:09:09.000Z</time>
      </trkpt>
      <trkpt lat="43.62295" lon="6.31382">
        <ele>738.2</ele>
        <time>2021-11-28T12:09:17.000Z</time>
      </trkpt>
      <trkpt lat="43.62287" lon="6.3139">
        <ele>739.1</ele>
        <time>2021-11-28T12:09:25.000Z</time>
      </trkpt>
      <trkpt lat="43.62278" lon="6.31397">
        <ele>739.3</ele>
        <time>2021-11-28T12:09:33.000Z</time>
      </trkpt>
      <trkpt lat="43.6227" lon="6.31406">
        <ele>739.3</ele>
        <time>2021-11-28T12:09:40.000Z</time>
      </trkpt>
      <trkpt lat="43.62262" lon="6.31414">
        <ele>739.1</ele>
        <time>2021-11-28T12:09:48.000Z</time>
      </trkpt>
      <trkpt lat="43.62254" lon="6.31421">
        <ele>739</ele>
        <time>2021-11-28T12:09:56.000Z</time>
      </trkpt>
      <trkpt lat="43.62245" lon="6.31425">
        <ele>738.5</ele>
        <time>2021-11-28T12:10:05.000Z</time>
      </trkpt>
      <trkpt lat="43.62237" lon="6.31433">
        <ele>738.5</ele>
        <time>2021-11-28T12:10:13.000Z</time>
      </trkpt>
      <trkpt lat="43.62227" lon="6.31439">
        <ele>737.8</ele>
        <time>2021-11-28T12:10:21.000Z</time>
      </trkpt>
      <trkpt lat="43.62221" lon="6.31449">
        <ele>737.7</ele>
        <time>2021-11-28T12:10:28.000Z</time>
      </trkpt>
      <trkpt lat="43.62214" lon="6.31459">
        <ele>737</ele>
        <time>2021-11-28T12:10:35.000Z</time>
      </trkpt>
      <trkpt lat="43.62208" lon="6.31468">
        <ele>737.1</ele>
        <time>2021-11-28T12:10:41.000Z</time>
      </trkpt>
      <trkpt lat="43.62201" lon="6.31476">
        <ele>737.5</ele>
        <time>2021-11-28T12:10:47.000Z</time>
      </trkpt>
      <trkpt lat="43.62192" lon="6.31484">
        <ele>737.2</ele>
        <time>2021-11-28T12:10:54.000Z</time>
      </trkpt>
      <trkpt lat="43.62184" lon="6.31492">
        <ele>737.5</ele>
        <time>2021-11-28T12:11:02.000Z</time>
      </trkpt>
      <trkpt lat="43.62175" lon="6.31499">
        <ele>737.5</ele>
        <time>2021-11-28T12:11:10.000Z</time>
      </trkpt>
      <trkpt lat="43.62167" lon="6.31508">
        <ele>738</ele>
        <time>2021-11-28T12:11:18.000Z</time>
      </trkpt>
      <trkpt lat="43.62158" lon="6.31517">
        <ele>738.6</ele>
        <time>2021-11-28T12:11:26.000Z</time>
      </trkpt>
      <trkpt lat="43.62153" lon="6.31527">
        <ele>737.9</ele>
        <time>2021-11-28T12:11:33.000Z</time>
      </trkpt>
      <trkpt lat="43.62146" lon="6.31536">
        <ele>738.4</ele>
        <time>2021-11-28T12:11:40.000Z</time>
      </trkpt>
      <trkpt lat="43.6214" lon="6.31546">
        <ele>737.8</ele>
        <time>2021-11-28T12:11:48.000Z</time>
      </trkpt>
      <trkpt lat="43.62133" lon="6.31553">
        <ele>738.8</ele>
        <time>2021-11-28T12:11:56.000Z</time>
      </trkpt>
      <trkpt lat="43.62124" lon="6.3156">
        <ele>739.2</ele>
        <time>2021-11-28T12:12:04.000Z</time>
      </trkpt>
      <trkpt lat="43.62115" lon="6.31568">
        <ele>740</ele>
        <time>2021-11-28T12:12:12.000Z</time>
      </trkpt>
      <trkpt lat="43.62107" lon="6.31574">
        <ele>740.5</ele>
        <time>2021-11-28T12:12:19.000Z</time>
      </trkpt>
      <trkpt lat="43.62098" lon="6.31582">
        <ele>740.9</ele>
        <time>2021-11-28T12:12:28.000Z</time>
      </trkpt>
      <trkpt lat="43.6209" lon="6.31589">
        <ele>741</ele>
        <time>2021-11-28T12:12:35.000Z</time>
      </trkpt>
      <trkpt lat="43.62082" lon="6.31598">
        <ele>741.2</ele>
        <time>2021-11-28T12:12:44.000Z</time>
      </trkpt>
      <trkpt lat="43.62075" lon="6.31607">
        <ele>741.7</ele>
        <time>2021-11-28T12:12:51.000Z</time>
      </trkpt>
      <trkpt lat="43.62067" lon="6.31616">
        <ele>742.2</ele>
        <time>2021-11-28T12:12:59.000Z</time>
      </trkpt>
      <trkpt lat="43.62059" lon="6.31624">
        <ele>742.3</ele>
        <time>2021-11-28T12:13:06.000Z</time>
      </trkpt>
      <trkpt lat="43.62052" lon="6.31635">
        <ele>742.4</ele>
        <time>2021-11-28T12:13:13.000Z</time>
      </trkpt>
      <trkpt lat="43.62044" lon="6.31642">
        <ele>742.3</ele>
        <time>2021-11-28T12:13:20.000Z</time>
      </trkpt>
      <trkpt lat="43.62037" lon="6.31652">
        <ele>741.7</ele>
        <time>2021-11-28T12:13:27.000Z</time>
      </trkpt>
      <trkpt lat="43.62029" lon="6.31661">
        <ele>741.9</ele>
        <time>2021-11-28T12:13:34.000Z</time>
      </trkpt>
      <trkpt lat="43.62023" lon="6.31671">
        <ele>741.5</ele>
        <time>2021-11-28T12:13:41.000Z</time>
      </trkpt>
      <trkpt lat="43.62016" lon="6.31679">
        <ele>741.4</ele>
        <time>2021-11-28T12:13:50.000Z</time>
      </trkpt>
      <trkpt lat="43.62008" lon="6.31687">
        <ele>741.4</ele>
        <time>2021-11-28T12:14:00.000Z</time>
      </trkpt>
      <trkpt lat="43.62002" lon="6.31697">
        <ele>741.2</ele>
        <time>2021-11-28T12:14:12.000Z</time>
      </trkpt>
      <trkpt lat="43.61995" lon="6.31705">
        <ele>741.2</ele>
        <time>2021-11-28T12:14:25.000Z</time>
      </trkpt>
      <trkpt lat="43.61986" lon="6.31711">
        <ele>741</ele>
        <time>2021-11-28T12:14:36.000Z</time>
      </trkpt>
      <trkpt lat="43.61978" lon="6.31718">
        <ele>740.6</ele>
        <time>2021-11-28T12:14:45.000Z</time>
      </trkpt>
      <trkpt lat="43.6197" lon="6.31726">
        <ele>741</ele>
        <time>2021-11-28T12:14:54.000Z</time>
      </trkpt>
      <trkpt lat="43.61962" lon="6.31734">
        <ele>741.9</ele>
        <time>2021-11-28T12:15:01.000Z</time>
      </trkpt>
      <trkpt lat="43.61954" lon="6.31741">
        <ele>742.1</ele>
        <time>2021-11-28T12:15:09.000Z</time>
      </trkpt>
      <trkpt lat="43.61946" lon="6.31749">
        <ele>741.6</ele>
        <time>2021-11-28T12:15:17.000Z</time>
      </trkpt>
      <trkpt lat="43.61938" lon="6.31754">
        <ele>741.4</ele>
        <time>2021-11-28T12:15:25.000Z</time>
      </trkpt>
      <trkpt lat="43.6193" lon="6.3176">
        <ele>742.4</ele>
        <time>2021-11-28T12:15:34.000Z</time>
      </trkpt>
      <trkpt lat="43.61922" lon="6.31768">
        <ele>743.2</ele>
        <time>2021-11-28T12:15:42.000Z</time>
      </trkpt>
      <trkpt lat="43.61914" lon="6.31776">
        <ele>743.8</ele>
        <time>2021-11-28T12:15:51.000Z</time>
      </trkpt>
      <trkpt lat="43.61907" lon="6.31784">
        <ele>743.8</ele>
        <time>2021-11-28T12:15:59.000Z</time>
      </trkpt>
      <trkpt lat="43.61902" lon="6.31794">
        <ele>744.1</ele>
        <time>2021-11-28T12:16:07.000Z</time>
      </trkpt>
      <trkpt lat="43.61894" lon="6.31802">
        <ele>744.5</ele>
        <time>2021-11-28T12:16:14.000Z</time>
      </trkpt>
      <trkpt lat="43.61888" lon="6.31812">
        <ele>744.3</ele>
        <time>2021-11-28T12:16:21.000Z</time>
      </trkpt>
      <trkpt lat="43.6188" lon="6.31819">
        <ele>744.1</ele>
        <time>2021-11-28T12:16:29.000Z</time>
      </trkpt>
      <trkpt lat="43.61874" lon="6.31829">
        <ele>744.3</ele>
        <time>2021-11-28T12:16:38.000Z</time>
      </trkpt>
      <trkpt lat="43.61866" lon="6.31838">
        <ele>744.5</ele>
        <time>2021-11-28T12:16:46.000Z</time>
      </trkpt>
      <trkpt lat="43.61858" lon="6.31845">
        <ele>744.6</ele>
        <time>2021-11-28T12:16:54.000Z</time>
      </trkpt>
      <trkpt lat="43.6185" lon="6.31853">
        <ele>744.2</ele>
        <time>2021-11-28T12:17:01.000Z</time>
      </trkpt>
      <trkpt lat="43.61843" lon="6.31863">
        <ele>745</ele>
        <time>2021-11-28T12:17:09.000Z</time>
      </trkpt>
      <trkpt lat="43.61838" lon="6.31874">
        <ele>744.7</ele>
        <time>2021-11-28T12:17:17.000Z</time>
      </trkpt>
      <trkpt lat="43.61832" lon="6.31883">
        <ele>744.6</ele>
        <time>2021-11-28T12:17:25.000Z</time>
      </trkpt>
      <trkpt lat="43.61823" lon="6.3189">
        <ele>744.4</ele>
        <time>2021-11-28T12:17:33.000Z</time>
      </trkpt>
      <trkpt lat="43.61815" lon="6.31899">
        <ele>744.3</ele>
        <time>2021-11-28T12:17:41.000Z</time>
      </trkpt>
      <trkpt lat="43.61809" lon="6.31908">
        <ele>744.7</ele>
        <time>2021-11-28T12:17:49.000Z</time>
      </trkpt>
      <trkpt lat="43.61802" lon="6.31918">
        <ele>744.1</ele>
        <time>2021-11-28T12:17:57.000Z</time>
      </trkpt>
      <trkpt lat="43.61795" lon="6.31926">
        <ele>744.4</ele>
        <time>2021-11-28T12:18:05.000Z</time>
      </trkpt>
      <trkpt lat="43.61787" lon="6.31933">
        <ele>745</ele>
        <time>2021-11-28T12:18:14.000Z</time>
      </trkpt>
      <trkpt lat="43.61782" lon="6.31943">
        <ele>744.5</ele>
        <time>2021-11-28T12:18:21.000Z</time>
      </trkpt>
      <trkpt lat="43.61777" lon="6.31956">
        <ele>744.4</ele>
        <time>2021-11-28T12:18:29.000Z</time>
      </trkpt>
      <trkpt lat="43.61773" lon="6.31968">
        <ele>745</ele>
        <time>2021-11-28T12:18:40.000Z</time>
      </trkpt>
      <trkpt lat="43.61765" lon="6.31977">
        <ele>745.2</ele>
        <time>2021-11-28T12:18:49.000Z</time>
      </trkpt>
      <trkpt lat="43.61759" lon="6.31987">
        <ele>745.2</ele>
        <time>2021-11-28T12:18:55.000Z</time>
      </trkpt>
      <trkpt lat="43.61751" lon="6.31994">
        <ele>746.1</ele>
        <time>2021-11-28T12:19:03.000Z</time>
      </trkpt>
      <trkpt lat="43.61744" lon="6.32003">
        <ele>746.9</ele>
        <time>2021-11-28T12:19:13.000Z</time>
      </trkpt>
      <trkpt lat="43.61738" lon="6.32014">
        <ele>747.4</ele>
        <time>2021-11-28T12:19:24.000Z</time>
      </trkpt>
      <trkpt lat="43.61731" lon="6.32025">
        <ele>747.8</ele>
        <time>2021-11-28T12:19:31.000Z</time>
      </trkpt>
      <trkpt lat="43.61725" lon="6.32034">
        <ele>747.5</ele>
        <time>2021-11-28T12:19:37.000Z</time>
      </trkpt>
      <trkpt lat="43.61717" lon="6.32041">
        <ele>747.9</ele>
        <time>2021-11-28T12:19:44.000Z</time>
      </trkpt>
      <trkpt lat="43.61712" lon="6.32052">
        <ele>747.3</ele>
        <time>2021-11-28T12:19:50.000Z</time>
      </trkpt>
      <trkpt lat="43.61707" lon="6.32063">
        <ele>747.8</ele>
        <time>2021-11-28T12:19:57.000Z</time>
      </trkpt>
      <trkpt lat="43.617" lon="6.32071">
        <ele>747.4</ele>
        <time>2021-11-28T12:20:05.000Z</time>
      </trkpt>
      <trkpt lat="43.61692" lon="6.32077">
        <ele>748.7</ele>
        <time>2021-11-28T12:20:14.000Z</time>
      </trkpt>
      <trkpt lat="43.61684" lon="6.32083">
        <ele>749.5</ele>
        <time>2021-11-28T12:20:22.000Z</time>
      </trkpt>
      <trkpt lat="43.61674" lon="6.32088">
        <ele>750.4</ele>
        <time>2021-11-28T12:20:30.000Z</time>
      </trkpt>
      <trkpt lat="43.61665" lon="6.32092">
        <ele>750.8</ele>
        <time>2021-11-28T12:20:38.000Z</time>
      </trkpt>
      <trkpt lat="43.61656" lon="6.32097">
        <ele>751.5</ele>
        <time>2021-11-28T12:20:47.000Z</time>
      </trkpt>
      <trkpt lat="43.61648" lon="6.32103">
        <ele>752.3</ele>
        <time>2021-11-28T12:20:57.000Z</time>
      </trkpt>
      <trkpt lat="43.61639" lon="6.32106">
        <ele>752.4</ele>
        <time>2021-11-28T12:21:04.000Z</time>
      </trkpt>
      <trkpt lat="43.61629" lon="6.32108">
        <ele>752.9</ele>
        <time>2021-11-28T12:21:14.000Z</time>
      </trkpt>
      <trkpt lat="43.61619" lon="6.32109">
        <ele>753.3</ele>
        <time>2021-11-28T12:21:21.000Z</time>
      </trkpt>
      <trkpt lat="43.6161" lon="6.32111">
        <ele>753.5</ele>
        <time>2021-11-28T12:21:28.000Z</time>
      </trkpt>
      <trkpt lat="43.61601" lon="6.32112">
        <ele>753.3</ele>
        <time>2021-11-28T12:21:38.000Z</time>
      </trkpt>
      <trkpt lat="43.61592" lon="6.32113">
        <ele>752.3</ele>
        <time>2021-11-28T12:21:51.000Z</time>
      </trkpt>
      <trkpt lat="43.61582" lon="6.32115">
        <ele>752.9</ele>
        <time>2021-11-28T12:22:00.000Z</time>
      </trkpt>
      <trkpt lat="43.61574" lon="6.32121">
        <ele>753</ele>
        <time>2021-11-28T12:22:08.000Z</time>
      </trkpt>
      <trkpt lat="43.61566" lon="6.32128">
        <ele>753.3</ele>
        <time>2021-11-28T12:22:17.000Z</time>
      </trkpt>
      <trkpt lat="43.61556" lon="6.32133">
        <ele>752.9</ele>
        <time>2021-11-28T12:22:26.000Z</time>
      </trkpt>
      <trkpt lat="43.61547" lon="6.32135">
        <ele>753.4</ele>
        <time>2021-11-28T12:22:35.000Z</time>
      </trkpt>
      <trkpt lat="43.61537" lon="6.32134">
        <ele>754.2</ele>
        <time>2021-11-28T12:22:43.000Z</time>
      </trkpt>
      <trkpt lat="43.61529" lon="6.32139">
        <ele>754.8</ele>
        <time>2021-11-28T12:22:51.000Z</time>
      </trkpt>
      <trkpt lat="43.6152" lon="6.32141">
        <ele>755.1</ele>
        <time>2021-11-28T12:22:59.000Z</time>
      </trkpt>
      <trkpt lat="43.6151" lon="6.32146">
        <ele>755.3</ele>
        <time>2021-11-28T12:23:08.000Z</time>
      </trkpt>
      <trkpt lat="43.61503" lon="6.32155">
        <ele>753.9</ele>
        <time>2021-11-28T12:23:16.000Z</time>
      </trkpt>
      <trkpt lat="43.61495" lon="6.32162">
        <ele>755.6</ele>
        <time>2021-11-28T12:23:23.000Z</time>
      </trkpt>
      <trkpt lat="43.61488" lon="6.32171">
        <ele>756</ele>
        <time>2021-11-28T12:23:32.000Z</time>
      </trkpt>
      <trkpt lat="43.61482" lon="6.32182">
        <ele>756.1</ele>
        <time>2021-11-28T12:23:41.000Z</time>
      </trkpt>
      <trkpt lat="43.61478" lon="6.32194">
        <ele>756.1</ele>
        <time>2021-11-28T12:23:49.000Z</time>
      </trkpt>
      <trkpt lat="43.61475" lon="6.32207">
        <ele>756.7</ele>
        <time>2021-11-28T12:23:58.000Z</time>
      </trkpt>
      <trkpt lat="43.61473" lon="6.32219">
        <ele>756.4</ele>
        <time>2021-11-28T12:24:07.000Z</time>
      </trkpt>
      <trkpt lat="43.61474" lon="6.32232">
        <ele>756.5</ele>
        <time>2021-11-28T12:24:20.000Z</time>
      </trkpt>
      <trkpt lat="43.61472" lon="6.32244">
        <ele>756.8</ele>
        <time>2021-11-28T12:24:28.000Z</time>
      </trkpt>
      <trkpt lat="43.6147" lon="6.32256">
        <ele>757.6</ele>
        <time>2021-11-28T12:24:37.000Z</time>
      </trkpt>
      <trkpt lat="43.61468" lon="6.32269">
        <ele>757.2</ele>
        <time>2021-11-28T12:26:17.000Z</time>
      </trkpt>
      <trkpt lat="43.61459" lon="6.32273">
        <ele>757.2</ele>
        <time>2021-11-28T12:27:01.000Z</time>
      </trkpt>
      <trkpt lat="43.61468" lon="6.32269">
        <ele>757.4</ele>
        <time>2021-11-28T12:29:23.000Z</time>
      </trkpt>
      <trkpt lat="43.61464" lon="6.32281">
        <ele>756.8</ele>
        <time>2021-11-28T12:29:46.000Z</time>
      </trkpt>
      <trkpt lat="43.61461" lon="6.32292">
        <ele>757.2</ele>
        <time>2021-11-28T12:29:59.000Z</time>
      </trkpt>
      <trkpt lat="43.61455" lon="6.32302">
        <ele>757.4</ele>
        <time>2021-11-28T12:30:10.000Z</time>
      </trkpt>
      <trkpt lat="43.61449" lon="6.32312">
        <ele>757.7</ele>
        <time>2021-11-28T12:30:17.000Z</time>
      </trkpt>
      <trkpt lat="43.61443" lon="6.32321">
        <ele>758.6</ele>
        <time>2021-11-28T12:30:27.000Z</time>
      </trkpt>
      <trkpt lat="43.61436" lon="6.3233">
        <ele>759.3</ele>
        <time>2021-11-28T12:30:36.000Z</time>
      </trkpt>
      <trkpt lat="43.61428" lon="6.32339">
        <ele>759.9</ele>
        <time>2021-11-28T12:30:45.000Z</time>
      </trkpt>
      <trkpt lat="43.61422" lon="6.32348">
        <ele>759.9</ele>
        <time>2021-11-28T12:30:55.000Z</time>
      </trkpt>
      <trkpt lat="43.61415" lon="6.32356">
        <ele>760</ele>
        <time>2021-11-28T12:31:04.000Z</time>
      </trkpt>
      <trkpt lat="43.61408" lon="6.32364">
        <ele>760.1</ele>
        <time>2021-11-28T12:31:11.000Z</time>
      </trkpt>
      <trkpt lat="43.61401" lon="6.32374">
        <ele>760.4</ele>
        <time>2021-11-28T12:31:19.000Z</time>
      </trkpt>
      <trkpt lat="43.61394" lon="6.32382">
        <ele>760.5</ele>
        <time>2021-11-28T12:31:27.000Z</time>
      </trkpt>
      <trkpt lat="43.61385" lon="6.32388">
        <ele>761.5</ele>
        <time>2021-11-28T12:31:35.000Z</time>
      </trkpt>
      <trkpt lat="43.61377" lon="6.32395">
        <ele>761.8</ele>
        <time>2021-11-28T12:31:43.000Z</time>
      </trkpt>
      <trkpt lat="43.61371" lon="6.32406">
        <ele>763</ele>
        <time>2021-11-28T12:31:52.000Z</time>
      </trkpt>
      <trkpt lat="43.61362" lon="6.32411">
        <ele>763.9</ele>
        <time>2021-11-28T12:32:01.000Z</time>
      </trkpt>
      <trkpt lat="43.61353" lon="6.32414">
        <ele>765</ele>
        <time>2021-11-28T12:32:10.000Z</time>
      </trkpt>
      <trkpt lat="43.61344" lon="6.32418">
        <ele>765.1</ele>
        <time>2021-11-28T12:32:20.000Z</time>
      </trkpt>
      <trkpt lat="43.61336" lon="6.32423">
        <ele>764.7</ele>
        <time>2021-11-28T12:32:28.000Z</time>
      </trkpt>
      <trkpt lat="43.61326" lon="6.32426">
        <ele>765.6</ele>
        <time>2021-11-28T12:32:36.000Z</time>
      </trkpt>
      <trkpt lat="43.61316" lon="6.32426">
        <ele>766.1</ele>
        <time>2021-11-28T12:32:45.000Z</time>
      </trkpt>
      <trkpt lat="43.61307" lon="6.32428">
        <ele>767.1</ele>
        <time>2021-11-28T12:32:53.000Z</time>
      </trkpt>
      <trkpt lat="43.61298" lon="6.32428">
        <ele>767.6</ele>
        <time>2021-11-28T12:33:01.000Z</time>
      </trkpt>
      <trkpt lat="43.61288" lon="6.32427">
        <ele>767.2</ele>
        <time>2021-11-28T12:33:10.000Z</time>
      </trkpt>
      <trkpt lat="43.61279" lon="6.32425">
        <ele>766.6</ele>
        <time>2021-11-28T12:33:18.000Z</time>
      </trkpt>
      <trkpt lat="43.6127" lon="6.32422">
        <ele>766.4</ele>
        <time>2021-11-28T12:33:25.000Z</time>
      </trkpt>
      <trkpt lat="43.61261" lon="6.32417">
        <ele>765.4</ele>
        <time>2021-11-28T12:33:33.000Z</time>
      </trkpt>
      <trkpt lat="43.61254" lon="6.3241">
        <ele>764.2</ele>
        <time>2021-11-28T12:33:42.000Z</time>
      </trkpt>
      <trkpt lat="43.61245" lon="6.32403">
        <ele>763.4</ele>
        <time>2021-11-28T12:33:49.000Z</time>
      </trkpt>
      <trkpt lat="43.61237" lon="6.32395">
        <ele>762.5</ele>
        <time>2021-11-28T12:33:57.000Z</time>
      </trkpt>
      <trkpt lat="43.6123" lon="6.32388">
        <ele>761</ele>
        <time>2021-11-28T12:34:05.000Z</time>
      </trkpt>
      <trkpt lat="43.61222" lon="6.32381">
        <ele>762.3</ele>
        <time>2021-11-28T12:34:13.000Z</time>
      </trkpt>
      <trkpt lat="43.61213" lon="6.32374">
        <ele>761</ele>
        <time>2021-11-28T12:34:21.000Z</time>
      </trkpt>
      <trkpt lat="43.61205" lon="6.32366">
        <ele>759.7</ele>
        <time>2021-11-28T12:34:29.000Z</time>
      </trkpt>
      <trkpt lat="43.61197" lon="6.32359">
        <ele>758.5</ele>
        <time>2021-11-28T12:34:37.000Z</time>
      </trkpt>
      <trkpt lat="43.61189" lon="6.32352">
        <ele>757.1</ele>
        <time>2021-11-28T12:34:45.000Z</time>
      </trkpt>
      <trkpt lat="43.61182" lon="6.32344">
        <ele>756.4</ele>
        <time>2021-11-28T12:34:53.000Z</time>
      </trkpt>
      <trkpt lat="43.61174" lon="6.32335">
        <ele>755.4</ele>
        <time>2021-11-28T12:35:01.000Z</time>
      </trkpt>
      <trkpt lat="43.61165" lon="6.32326">
        <ele>754.9</ele>
        <time>2021-11-28T12:35:09.000Z</time>
      </trkpt>
      <trkpt lat="43.61157" lon="6.32319">
        <ele>754.2</ele>
        <time>2021-11-28T12:35:17.000Z</time>
      </trkpt>
      <trkpt lat="43.61149" lon="6.32313">
        <ele>754.1</ele>
        <time>2021-11-28T12:35:25.000Z</time>
      </trkpt>
      <trkpt lat="43.6114" lon="6.32307">
        <ele>753</ele>
        <time>2021-11-28T12:35:33.000Z</time>
      </trkpt>
      <trkpt lat="43.61132" lon="6.32301">
        <ele>752.8</ele>
        <time>2021-11-28T12:35:42.000Z</time>
      </trkpt>
      <trkpt lat="43.61123" lon="6.32294">
        <ele>752.1</ele>
        <time>2021-11-28T12:35:50.000Z</time>
      </trkpt>
      <trkpt lat="43.61116" lon="6.32285">
        <ele>751.5</ele>
        <time>2021-11-28T12:35:57.000Z</time>
      </trkpt>
      <trkpt lat="43.61108" lon="6.32279">
        <ele>750.5</ele>
        <time>2021-11-28T12:36:06.000Z</time>
      </trkpt>
      <trkpt lat="43.611" lon="6.32273">
        <ele>750.1</ele>
        <time>2021-11-28T12:36:14.000Z</time>
      </trkpt>
      <trkpt lat="43.61092" lon="6.32267">
        <ele>749.7</ele>
        <time>2021-11-28T12:36:20.000Z</time>
      </trkpt>
      <trkpt lat="43.61084" lon="6.3226">
        <ele>748.6</ele>
        <time>2021-11-28T12:36:28.000Z</time>
      </trkpt>
      <trkpt lat="43.61076" lon="6.32251">
        <ele>748.7</ele>
        <time>2021-11-28T12:36:36.000Z</time>
      </trkpt>
      <trkpt lat="43.61068" lon="6.32244">
        <ele>747.9</ele>
        <time>2021-11-28T12:36:43.000Z</time>
      </trkpt>
      <trkpt lat="43.6106" lon="6.32234">
        <ele>747.5</ele>
        <time>2021-11-28T12:36:52.000Z</time>
      </trkpt>
      <trkpt lat="43.61051" lon="6.32227">
        <ele>746.8</ele>
        <time>2021-11-28T12:37:00.000Z</time>
      </trkpt>
      <trkpt lat="43.61042" lon="6.32223">
        <ele>746</ele>
        <time>2021-11-28T12:37:08.000Z</time>
      </trkpt>
      <trkpt lat="43.61033" lon="6.32219">
        <ele>746</ele>
        <time>2021-11-28T12:37:16.000Z</time>
      </trkpt>
      <trkpt lat="43.61024" lon="6.32215">
        <ele>745.7</ele>
        <time>2021-11-28T12:37:23.000Z</time>
      </trkpt>
      <trkpt lat="43.61015" lon="6.32211">
        <ele>745.6</ele>
        <time>2021-11-28T12:37:30.000Z</time>
      </trkpt>
      <trkpt lat="43.61006" lon="6.32207">
        <ele>745.7</ele>
        <time>2021-11-28T12:37:37.000Z</time>
      </trkpt>
      <trkpt lat="43.60997" lon="6.32202">
        <ele>745</ele>
        <time>2021-11-28T12:37:44.000Z</time>
      </trkpt>
      <trkpt lat="43.60988" lon="6.32199">
        <ele>745</ele>
        <time>2021-11-28T12:37:52.000Z</time>
      </trkpt>
      <trkpt lat="43.60979" lon="6.32193">
        <ele>744.6</ele>
        <time>2021-11-28T12:38:00.000Z</time>
      </trkpt>
      <trkpt lat="43.6097" lon="6.3219">
        <ele>744.1</ele>
        <time>2021-11-28T12:38:07.000Z</time>
      </trkpt>
      <trkpt lat="43.60961" lon="6.32186">
        <ele>744.6</ele>
        <time>2021-11-28T12:38:14.000Z</time>
      </trkpt>
      <trkpt lat="43.60952" lon="6.32181">
        <ele>744</ele>
        <time>2021-11-28T12:38:20.000Z</time>
      </trkpt>
      <trkpt lat="43.60944" lon="6.32174">
        <ele>744.4</ele>
        <time>2021-11-28T12:38:28.000Z</time>
      </trkpt>
      <trkpt lat="43.60936" lon="6.32168">
        <ele>744.1</ele>
        <time>2021-11-28T12:38:34.000Z</time>
      </trkpt>
      <trkpt lat="43.60928" lon="6.32162">
        <ele>743.8</ele>
        <time>2021-11-28T12:38:42.000Z</time>
      </trkpt>
      <trkpt lat="43.60919" lon="6.32157">
        <ele>743.4</ele>
        <time>2021-11-28T12:38:49.000Z</time>
      </trkpt>
      <trkpt lat="43.60911" lon="6.32152">
        <ele>743.1</ele>
        <time>2021-11-28T12:38:57.000Z</time>
      </trkpt>
      <trkpt lat="43.60902" lon="6.32147">
        <ele>742.5</ele>
        <time>2021-11-28T12:39:04.000Z</time>
      </trkpt>
      <trkpt lat="43.60893" lon="6.3214">
        <ele>741.1</ele>
        <time>2021-11-28T12:39:12.000Z</time>
      </trkpt>
      <trkpt lat="43.60884" lon="6.32133">
        <ele>740.9</ele>
        <time>2021-11-28T12:39:20.000Z</time>
      </trkpt>
      <trkpt lat="43.60877" lon="6.32125">
        <ele>740.3</ele>
        <time>2021-11-28T12:39:29.000Z</time>
      </trkpt>
      <trkpt lat="43.60869" lon="6.32118">
        <ele>740.4</ele>
        <time>2021-11-28T12:39:36.000Z</time>
      </trkpt>
      <trkpt lat="43.60863" lon="6.32108">
        <ele>740.2</ele>
        <time>2021-11-28T12:39:46.000Z</time>
      </trkpt>
      <trkpt lat="43.60857" lon="6.32097">
        <ele>739.9</ele>
        <time>2021-11-28T12:39:55.000Z</time>
      </trkpt>
      <trkpt lat="43.6085" lon="6.32086">
        <ele>740.2</ele>
        <time>2021-11-28T12:40:04.000Z</time>
      </trkpt>
      <trkpt lat="43.60844" lon="6.32077">
        <ele>740.3</ele>
        <time>2021-11-28T12:40:12.000Z</time>
      </trkpt>
      <trkpt lat="43.60838" lon="6.32067">
        <ele>741</ele>
        <time>2021-11-28T12:40:29.000Z</time>
      </trkpt>
      <trkpt lat="43.60836" lon="6.3208">
        <ele>740.7</ele>
        <time>2021-11-28T12:42:09.000Z</time>
      </trkpt>
      <trkpt lat="43.6083" lon="6.32091">
        <ele>740.1</ele>
        <time>2021-11-28T12:44:24.000Z</time>
      </trkpt>
      <trkpt lat="43.60821" lon="6.32093">
        <ele>740.1</ele>
        <time>2021-11-28T12:44:35.000Z</time>
      </trkpt>
      <trkpt lat="43.60812" lon="6.32092">
        <ele>739.8</ele>
        <time>2021-11-28T12:44:43.000Z</time>
      </trkpt>
      <trkpt lat="43.60803" lon="6.32091">
        <ele>740</ele>
        <time>2021-11-28T12:44:52.000Z</time>
      </trkpt>
      <trkpt lat="43.60794" lon="6.3209">
        <ele>740.5</ele>
        <time>2021-11-28T12:45:01.000Z</time>
      </trkpt>
      <trkpt lat="43.60785" lon="6.32091">
        <ele>741.4</ele>
        <time>2021-11-28T12:45:10.000Z</time>
      </trkpt>
      <trkpt lat="43.60776" lon="6.32093">
        <ele>742</ele>
        <time>2021-11-28T12:45:19.000Z</time>
      </trkpt>
      <trkpt lat="43.60766" lon="6.32094">
        <ele>741.7</ele>
        <time>2021-11-28T12:45:27.000Z</time>
      </trkpt>
      <trkpt lat="43.60756" lon="6.32091">
        <ele>741.2</ele>
        <time>2021-11-28T12:45:35.000Z</time>
      </trkpt>
      <trkpt lat="43.60747" lon="6.32088">
        <ele>740.8</ele>
        <time>2021-11-28T12:45:43.000Z</time>
      </trkpt>
      <trkpt lat="43.60739" lon="6.32085">
        <ele>740.3</ele>
        <time>2021-11-28T12:45:51.000Z</time>
      </trkpt>
      <trkpt lat="43.60729" lon="6.32083">
        <ele>739.9</ele>
        <time>2021-11-28T12:45:59.000Z</time>
      </trkpt>
      <trkpt lat="43.6072" lon="6.3208">
        <ele>739.7</ele>
        <time>2021-11-28T12:46:07.000Z</time>
      </trkpt>
      <trkpt lat="43.60711" lon="6.32074">
        <ele>739.1</ele>
        <time>2021-11-28T12:46:16.000Z</time>
      </trkpt>
      <trkpt lat="43.60703" lon="6.32071">
        <ele>738.5</ele>
        <time>2021-11-28T12:46:24.000Z</time>
      </trkpt>
      <trkpt lat="43.60693" lon="6.32066">
        <ele>738.4</ele>
        <time>2021-11-28T12:46:33.000Z</time>
      </trkpt>
      <trkpt lat="43.60685" lon="6.32059">
        <ele>738.1</ele>
        <time>2021-11-28T12:46:41.000Z</time>
      </trkpt>
      <trkpt lat="43.60676" lon="6.32052">
        <ele>737.5</ele>
        <time>2021-11-28T12:46:50.000Z</time>
      </trkpt>
      <trkpt lat="43.60666" lon="6.32045">
        <ele>737.5</ele>
        <time>2021-11-28T12:46:58.000Z</time>
      </trkpt>
      <trkpt lat="43.60657" lon="6.32039">
        <ele>736.9</ele>
        <time>2021-11-28T12:47:07.000Z</time>
      </trkpt>
      <trkpt lat="43.60649" lon="6.32032">
        <ele>736</ele>
        <time>2021-11-28T12:47:16.000Z</time>
      </trkpt>
      <trkpt lat="43.60641" lon="6.32027">
        <ele>736.7</ele>
        <time>2021-11-28T12:47:24.000Z</time>
      </trkpt>
      <trkpt lat="43.60631" lon="6.32021">
        <ele>736.5</ele>
        <time>2021-11-28T12:47:33.000Z</time>
      </trkpt>
      <trkpt lat="43.60624" lon="6.32012">
        <ele>735.5</ele>
        <time>2021-11-28T12:47:42.000Z</time>
      </trkpt>
      <trkpt lat="43.60617" lon="6.32005">
        <ele>734.7</ele>
        <time>2021-11-28T12:47:51.000Z</time>
      </trkpt>
      <trkpt lat="43.6061" lon="6.31996">
        <ele>733.5</ele>
        <time>2021-11-28T12:47:59.000Z</time>
      </trkpt>
      <trkpt lat="43.60603" lon="6.31988">
        <ele>732.2</ele>
        <time>2021-11-28T12:48:08.000Z</time>
      </trkpt>
      <trkpt lat="43.60596" lon="6.31979">
        <ele>730.6</ele>
        <time>2021-11-28T12:48:17.000Z</time>
      </trkpt>
      <trkpt lat="43.60592" lon="6.31967">
        <ele>730</ele>
        <time>2021-11-28T12:48:26.000Z</time>
      </trkpt>
      <trkpt lat="43.60587" lon="6.31955">
        <ele>729.2</ele>
        <time>2021-11-28T12:48:34.000Z</time>
      </trkpt>
      <trkpt lat="43.60582" lon="6.31945">
        <ele>728.5</ele>
        <time>2021-11-28T12:48:42.000Z</time>
      </trkpt>
      <trkpt lat="43.60574" lon="6.31937">
        <ele>728.1</ele>
        <time>2021-11-28T12:48:52.000Z</time>
      </trkpt>
      <trkpt lat="43.60567" lon="6.31928">
        <ele>728.1</ele>
        <time>2021-11-28T12:49:04.000Z</time>
      </trkpt>
      <trkpt lat="43.6056" lon="6.31919">
        <ele>727.1</ele>
        <time>2021-11-28T12:49:12.000Z</time>
      </trkpt>
      <trkpt lat="43.60551" lon="6.31914">
        <ele>727.6</ele>
        <time>2021-11-28T12:49:24.000Z</time>
      </trkpt>
      <trkpt lat="43.60542" lon="6.31909">
        <ele>727.6</ele>
        <time>2021-11-28T12:49:32.000Z</time>
      </trkpt>
      <trkpt lat="43.60542" lon="6.31896">
        <ele>727.7</ele>
        <time>2021-11-28T12:49:43.000Z</time>
      </trkpt>
      <trkpt lat="43.60544" lon="6.31883">
        <ele>727.7</ele>
        <time>2021-11-28T12:49:52.000Z</time>
      </trkpt>
      <trkpt lat="43.60549" lon="6.31872">
        <ele>727.5</ele>
        <time>2021-11-28T12:50:03.000Z</time>
      </trkpt>
      <trkpt lat="43.60554" lon="6.31861">
        <ele>727.6</ele>
        <time>2021-11-28T12:50:13.000Z</time>
      </trkpt>
      <trkpt lat="43.6056" lon="6.31851">
        <ele>728.2</ele>
        <time>2021-11-28T12:50:23.000Z</time>
      </trkpt>
      <trkpt lat="43.60564" lon="6.31839">
        <ele>728.1</ele>
        <time>2021-11-28T12:50:32.000Z</time>
      </trkpt>
      <trkpt lat="43.60568" lon="6.31826">
        <ele>728.6</ele>
        <time>2021-11-28T12:50:41.000Z</time>
      </trkpt>
      <trkpt lat="43.60574" lon="6.31815">
        <ele>729.2</ele>
        <time>2021-11-28T12:50:50.000Z</time>
      </trkpt>
      <trkpt lat="43.60578" lon="6.31803">
        <ele>728.9</ele>
        <time>2021-11-28T12:50:59.000Z</time>
      </trkpt>
      <trkpt lat="43.60584" lon="6.31792">
        <ele>728.8</ele>
        <time>2021-11-28T12:51:08.000Z</time>
      </trkpt>
      <trkpt lat="43.60586" lon="6.31777">
        <ele>728.8</ele>
        <time>2021-11-28T12:51:17.000Z</time>
      </trkpt>
      <trkpt lat="43.6059" lon="6.31766">
        <ele>728.6</ele>
        <time>2021-11-28T12:51:25.000Z</time>
      </trkpt>
      <trkpt lat="43.60595" lon="6.31754">
        <ele>728.9</ele>
        <time>2021-11-28T12:51:35.000Z</time>
      </trkpt>
      <trkpt lat="43.60603" lon="6.31745">
        <ele>729.5</ele>
        <time>2021-11-28T12:51:43.000Z</time>
      </trkpt>
      <trkpt lat="43.6061" lon="6.31737">
        <ele>729.7</ele>
        <time>2021-11-28T12:51:50.000Z</time>
      </trkpt>
      <trkpt lat="43.60615" lon="6.31725">
        <ele>729.3</ele>
        <time>2021-11-28T12:51:58.000Z</time>
      </trkpt>
      <trkpt lat="43.6062" lon="6.31714">
        <ele>730.1</ele>
        <time>2021-11-28T12:52:06.000Z</time>
      </trkpt>
      <trkpt lat="43.60624" lon="6.31702">
        <ele>731.5</ele>
        <time>2021-11-28T12:52:15.000Z</time>
      </trkpt>
      <trkpt lat="43.60631" lon="6.31693">
        <ele>731.5</ele>
        <time>2021-11-28T12:52:23.000Z</time>
      </trkpt>
      <trkpt lat="43.60637" lon="6.31681">
        <ele>731.9</ele>
        <time>2021-11-28T12:52:31.000Z</time>
      </trkpt>
      <trkpt lat="43.60641" lon="6.31669">
        <ele>732.5</ele>
        <time>2021-11-28T12:52:40.000Z</time>
      </trkpt>
      <trkpt lat="43.60646" lon="6.31658">
        <ele>732.7</ele>
        <time>2021-11-28T12:52:48.000Z</time>
      </trkpt>
      <trkpt lat="43.60651" lon="6.31647">
        <ele>733.4</ele>
        <time>2021-11-28T12:52:58.000Z</time>
      </trkpt>
      <trkpt lat="43.60656" lon="6.31636">
        <ele>733.8</ele>
        <time>2021-11-28T12:53:07.000Z</time>
      </trkpt>
      <trkpt lat="43.6066" lon="6.31625">
        <ele>734.5</ele>
        <time>2021-11-28T12:53:16.000Z</time>
      </trkpt>
      <trkpt lat="43.60666" lon="6.31614">
        <ele>734.9</ele>
        <time>2021-11-28T12:53:25.000Z</time>
      </trkpt>
      <trkpt lat="43.6067" lon="6.31601">
        <ele>735.8</ele>
        <time>2021-11-28T12:53:35.000Z</time>
      </trkpt>
      <trkpt lat="43.60674" lon="6.31589">
        <ele>735.8</ele>
        <time>2021-11-28T12:53:43.000Z</time>
      </trkpt>
      <trkpt lat="43.60679" lon="6.31579">
        <ele>736.3</ele>
        <time>2021-11-28T12:53:51.000Z</time>
      </trkpt>
      <trkpt lat="43.60685" lon="6.31567">
        <ele>736.3</ele>
        <time>2021-11-28T12:54:00.000Z</time>
      </trkpt>
      <trkpt lat="43.6069" lon="6.31554">
        <ele>736.5</ele>
        <time>2021-11-28T12:54:09.000Z</time>
      </trkpt>
      <trkpt lat="43.60696" lon="6.31544">
        <ele>736.7</ele>
        <time>2021-11-28T12:54:18.000Z</time>
      </trkpt>
      <trkpt lat="43.60702" lon="6.31532">
        <ele>736.6</ele>
        <time>2021-11-28T12:54:27.000Z</time>
      </trkpt>
      <trkpt lat="43.60706" lon="6.31521">
        <ele>737.1</ele>
        <time>2021-11-28T12:54:35.000Z</time>
      </trkpt>
      <trkpt lat="43.60711" lon="6.31509">
        <ele>736.8</ele>
        <time>2021-11-28T12:54:43.000Z</time>
      </trkpt>
      <trkpt lat="43.60714" lon="6.31497">
        <ele>737</ele>
        <time>2021-11-28T12:54:51.000Z</time>
      </trkpt>
      <trkpt lat="43.60715" lon="6.31485">
        <ele>736.8</ele>
        <time>2021-11-28T12:54:59.000Z</time>
      </trkpt>
      <trkpt lat="43.60717" lon="6.31473">
        <ele>736.6</ele>
        <time>2021-11-28T12:55:07.000Z</time>
      </trkpt>
      <trkpt lat="43.60721" lon="6.31461">
        <ele>735.8</ele>
        <time>2021-11-28T12:55:15.000Z</time>
      </trkpt>
      <trkpt lat="43.60726" lon="6.3145">
        <ele>735.3</ele>
        <time>2021-11-28T12:55:23.000Z</time>
      </trkpt>
      <trkpt lat="43.60733" lon="6.3144">
        <ele>735.3</ele>
        <time>2021-11-28T12:55:31.000Z</time>
      </trkpt>
      <trkpt lat="43.6074" lon="6.31431">
        <ele>735</ele>
        <time>2021-11-28T12:55:41.000Z</time>
      </trkpt>
      <trkpt lat="43.60749" lon="6.31425">
        <ele>734.4</ele>
        <time>2021-11-28T12:55:54.000Z</time>
      </trkpt>
      <trkpt lat="43.60759" lon="6.31426">
        <ele>734.8</ele>
        <time>2021-11-28T12:56:01.000Z</time>
      </trkpt>
      <trkpt lat="43.60767" lon="6.3143">
        <ele>735.2</ele>
        <time>2021-11-28T12:56:07.000Z</time>
      </trkpt>
      <trkpt lat="43.60776" lon="6.31435">
        <ele>735.2</ele>
        <time>2021-11-28T12:56:16.000Z</time>
      </trkpt>
      <trkpt lat="43.60786" lon="6.31436">
        <ele>736</ele>
        <time>2021-11-28T12:56:26.000Z</time>
      </trkpt>
      <trkpt lat="43.60796" lon="6.3144">
        <ele>736.8</ele>
        <time>2021-11-28T12:56:34.000Z</time>
      </trkpt>
      <trkpt lat="43.60805" lon="6.31443">
        <ele>736.9</ele>
        <time>2021-11-28T12:56:43.000Z</time>
      </trkpt>
      <trkpt lat="43.60814" lon="6.31444">
        <ele>738.3</ele>
        <time>2021-11-28T12:56:55.000Z</time>
      </trkpt>
      <trkpt lat="43.60824" lon="6.31442">
        <ele>738.8</ele>
        <time>2021-11-28T12:57:03.000Z</time>
      </trkpt>
      <trkpt lat="43.60833" lon="6.31439">
        <ele>739.3</ele>
        <time>2021-11-28T12:57:12.000Z</time>
      </trkpt>
      <trkpt lat="43.6084" lon="6.31431">
        <ele>739.7</ele>
        <time>2021-11-28T12:57:19.000Z</time>
      </trkpt>
      <trkpt lat="43.60846" lon="6.31421">
        <ele>741.4</ele>
        <time>2021-11-28T12:57:28.000Z</time>
      </trkpt>
      <trkpt lat="43.60853" lon="6.31412">
        <ele>742.2</ele>
        <time>2021-11-28T12:57:37.000Z</time>
      </trkpt>
      <trkpt lat="43.60859" lon="6.31403">
        <ele>742.3</ele>
        <time>2021-11-28T12:57:45.000Z</time>
      </trkpt>
      <trkpt lat="43.60864" lon="6.31391">
        <ele>742.7</ele>
        <time>2021-11-28T12:57:54.000Z</time>
      </trkpt>
      <trkpt lat="43.6087" lon="6.31381">
        <ele>743.3</ele>
        <time>2021-11-28T12:58:04.000Z</time>
      </trkpt>
      <trkpt lat="43.60874" lon="6.31369">
        <ele>744.2</ele>
        <time>2021-11-28T12:58:13.000Z</time>
      </trkpt>
      <trkpt lat="43.60881" lon="6.31359">
        <ele>745</ele>
        <time>2021-11-28T12:58:21.000Z</time>
      </trkpt>
      <trkpt lat="43.60883" lon="6.31347">
        <ele>746</ele>
        <time>2021-11-28T12:58:31.000Z</time>
      </trkpt>
      <trkpt lat="43.60885" lon="6.31333">
        <ele>746.1</ele>
        <time>2021-11-28T12:58:40.000Z</time>
      </trkpt>
      <trkpt lat="43.60892" lon="6.31323">
        <ele>746.5</ele>
        <time>2021-11-28T12:58:49.000Z</time>
      </trkpt>
      <trkpt lat="43.60894" lon="6.31311">
        <ele>747.7</ele>
        <time>2021-11-28T12:58:57.000Z</time>
      </trkpt>
      <trkpt lat="43.60899" lon="6.313">
        <ele>748.7</ele>
        <time>2021-11-28T12:59:04.000Z</time>
      </trkpt>
      <trkpt lat="43.60904" lon="6.31288">
        <ele>749.7</ele>
        <time>2021-11-28T12:59:11.000Z</time>
      </trkpt>
      <trkpt lat="43.60907" lon="6.31277">
        <ele>749.8</ele>
        <time>2021-11-28T12:59:19.000Z</time>
      </trkpt>
      <trkpt lat="43.60914" lon="6.31268">
        <ele>750.2</ele>
        <time>2021-11-28T12:59:28.000Z</time>
      </trkpt>
      <trkpt lat="43.60921" lon="6.31261">
        <ele>750.7</ele>
        <time>2021-11-28T12:59:36.000Z</time>
      </trkpt>
      <trkpt lat="43.60928" lon="6.31253">
        <ele>750.9</ele>
        <time>2021-11-28T12:59:46.000Z</time>
      </trkpt>
      <trkpt lat="43.60937" lon="6.31245">
        <ele>750.9</ele>
        <time>2021-11-28T12:59:53.000Z</time>
      </trkpt>
      <trkpt lat="43.60942" lon="6.31234">
        <ele>751.6</ele>
        <time>2021-11-28T13:00:00.000Z</time>
      </trkpt>
      <trkpt lat="43.60948" lon="6.31224">
        <ele>751.4</ele>
        <time>2021-11-28T13:00:08.000Z</time>
      </trkpt>
      <trkpt lat="43.60955" lon="6.31214">
        <ele>751.1</ele>
        <time>2021-11-28T13:00:18.000Z</time>
      </trkpt>
      <trkpt lat="43.60963" lon="6.31205">
        <ele>750.6</ele>
        <time>2021-11-28T13:00:26.000Z</time>
      </trkpt>
      <trkpt lat="43.60965" lon="6.31192">
        <ele>750.9</ele>
        <time>2021-11-28T13:00:33.000Z</time>
      </trkpt>
      <trkpt lat="43.60963" lon="6.31179">
        <ele>751</ele>
        <time>2021-11-28T13:00:42.000Z</time>
      </trkpt>
      <trkpt lat="43.60963" lon="6.31166">
        <ele>750.8</ele>
        <time>2021-11-28T13:00:51.000Z</time>
      </trkpt>
      <trkpt lat="43.60964" lon="6.31153">
        <ele>750.5</ele>
        <time>2021-11-28T13:01:00.000Z</time>
      </trkpt>
      <trkpt lat="43.60967" lon="6.31139">
        <ele>750.7</ele>
        <time>2021-11-28T13:01:09.000Z</time>
      </trkpt>
      <trkpt lat="43.60968" lon="6.31126">
        <ele>750.5</ele>
        <time>2021-11-28T13:01:17.000Z</time>
      </trkpt>
      <trkpt lat="43.60969" lon="6.31112">
        <ele>750.4</ele>
        <time>2021-11-28T13:01:25.000Z</time>
      </trkpt>
      <trkpt lat="43.60971" lon="6.31098">
        <ele>750.1</ele>
        <time>2021-11-28T13:01:32.000Z</time>
      </trkpt>
      <trkpt lat="43.6097" lon="6.31085">
        <ele>749.7</ele>
        <time>2021-11-28T13:01:40.000Z</time>
      </trkpt>
      <trkpt lat="43.60968" lon="6.31073">
        <ele>750</ele>
        <time>2021-11-28T13:01:52.000Z</time>
      </trkpt>
      <trkpt lat="43.60966" lon="6.31061">
        <ele>750.2</ele>
        <time>2021-11-28T13:02:03.000Z</time>
      </trkpt>
      <trkpt lat="43.60967" lon="6.31046">
        <ele>750.2</ele>
        <time>2021-11-28T13:02:11.000Z</time>
      </trkpt>
      <trkpt lat="43.60972" lon="6.31034">
        <ele>749.9</ele>
        <time>2021-11-28T13:02:19.000Z</time>
      </trkpt>
      <trkpt lat="43.60974" lon="6.31021">
        <ele>749.7</ele>
        <time>2021-11-28T13:02:28.000Z</time>
      </trkpt>
      <trkpt lat="43.60979" lon="6.31009">
        <ele>749.4</ele>
        <time>2021-11-28T13:02:36.000Z</time>
      </trkpt>
      <trkpt lat="43.60983" lon="6.30997">
        <ele>748.1</ele>
        <time>2021-11-28T13:02:45.000Z</time>
      </trkpt>
      <trkpt lat="43.60988" lon="6.30987">
        <ele>746.8</ele>
        <time>2021-11-28T13:02:53.000Z</time>
      </trkpt>
      <trkpt lat="43.60993" lon="6.30976">
        <ele>745.5</ele>
        <time>2021-11-28T13:03:04.000Z</time>
      </trkpt>
      <trkpt lat="43.60994" lon="6.30963">
        <ele>744.8</ele>
        <time>2021-11-28T13:03:13.000Z</time>
      </trkpt>
      <trkpt lat="43.60993" lon="6.3095">
        <ele>744</ele>
        <time>2021-11-28T13:03:23.000Z</time>
      </trkpt>
      <trkpt lat="43.60984" lon="6.30947">
        <ele>742.7</ele>
        <time>2021-11-28T13:03:37.000Z</time>
      </trkpt>
      <trkpt lat="43.60993" lon="6.30938">
        <ele>742.5</ele>
        <time>2021-11-28T13:04:31.000Z</time>
      </trkpt>
      <trkpt lat="43.61002" lon="6.30941">
        <ele>742.4</ele>
        <time>2021-11-28T13:05:13.000Z</time>
      </trkpt>
      <trkpt lat="43.60993" lon="6.30944">
        <ele>742.1</ele>
        <time>2021-11-28T13:10:34.000Z</time>
      </trkpt>
      <trkpt lat="43.60986" lon="6.30951">
        <ele>741</ele>
        <time>2021-11-28T13:11:51.000Z</time>
      </trkpt>
      <trkpt lat="43.60977" lon="6.30956">
        <ele>740</ele>
        <time>2021-11-28T13:12:05.000Z</time>
      </trkpt>
      <trkpt lat="43.60969" lon="6.30962">
        <ele>743.7</ele>
        <time>2021-11-28T13:12:20.000Z</time>
      </trkpt>
      <trkpt lat="43.60963" lon="6.30971">
        <ele>746.2</ele>
        <time>2021-11-28T13:12:33.000Z</time>
      </trkpt>
      <trkpt lat="43.6096" lon="6.30984">
        <ele>748.1</ele>
        <time>2021-11-28T13:12:48.000Z</time>
      </trkpt>
      <trkpt lat="43.60956" lon="6.30996">
        <ele>748.9</ele>
        <time>2021-11-28T13:12:56.000Z</time>
      </trkpt>
      <trkpt lat="43.6095" lon="6.31007">
        <ele>748.8</ele>
        <time>2021-11-28T13:13:05.000Z</time>
      </trkpt>
      <trkpt lat="43.60945" lon="6.31018">
        <ele>748.9</ele>
        <time>2021-11-28T13:13:17.000Z</time>
      </trkpt>
      <trkpt lat="43.60936" lon="6.31024">
        <ele>748.3</ele>
        <time>2021-11-28T13:13:31.000Z</time>
      </trkpt>
      <trkpt lat="43.60926" lon="6.31023">
        <ele>747.3</ele>
        <time>2021-11-28T13:13:42.000Z</time>
      </trkpt>
      <trkpt lat="43.60917" lon="6.31022">
        <ele>745.3</ele>
        <time>2021-11-28T13:13:53.000Z</time>
      </trkpt>
      <trkpt lat="43.60908" lon="6.31018">
        <ele>743.5</ele>
        <time>2021-11-28T13:14:06.000Z</time>
      </trkpt>
      <trkpt lat="43.60901" lon="6.3101">
        <ele>742.1</ele>
        <time>2021-11-28T13:14:16.000Z</time>
      </trkpt>
      <trkpt lat="43.60893" lon="6.31001">
        <ele>740.5</ele>
        <time>2021-11-28T13:14:27.000Z</time>
      </trkpt>
      <trkpt lat="43.60886" lon="6.30992">
        <ele>739.5</ele>
        <time>2021-11-28T13:14:38.000Z</time>
      </trkpt>
      <trkpt lat="43.60878" lon="6.30984">
        <ele>740.6</ele>
        <time>2021-11-28T13:14:47.000Z</time>
      </trkpt>
      <trkpt lat="43.6087" lon="6.30979">
        <ele>742.2</ele>
        <time>2021-11-28T13:15:01.000Z</time>
      </trkpt>
      <trkpt lat="43.6086" lon="6.30975">
        <ele>744.6</ele>
        <time>2021-11-28T13:15:19.000Z</time>
      </trkpt>
      <trkpt lat="43.60851" lon="6.30969">
        <ele>747.8</ele>
        <time>2021-11-28T13:15:30.000Z</time>
      </trkpt>
      <trkpt lat="43.60842" lon="6.30966">
        <ele>747.2</ele>
        <time>2021-11-28T13:15:39.000Z</time>
      </trkpt>
      <trkpt lat="43.60833" lon="6.30967">
        <ele>746.3</ele>
        <time>2021-11-28T13:15:51.000Z</time>
      </trkpt>
      <trkpt lat="43.60823" lon="6.3097">
        <ele>745.1</ele>
        <time>2021-11-28T13:16:02.000Z</time>
      </trkpt>
      <trkpt lat="43.60814" lon="6.30973">
        <ele>743.8</ele>
        <time>2021-11-28T13:16:10.000Z</time>
      </trkpt>
      <trkpt lat="43.60805" lon="6.30975">
        <ele>742.5</ele>
        <time>2021-11-28T13:16:19.000Z</time>
      </trkpt>
      <trkpt lat="43.60796" lon="6.30979">
        <ele>741.3</ele>
        <time>2021-11-28T13:16:29.000Z</time>
      </trkpt>
      <trkpt lat="43.60789" lon="6.30988">
        <ele>740.5</ele>
        <time>2021-11-28T13:16:37.000Z</time>
      </trkpt>
      <trkpt lat="43.60786" lon="6.31">
        <ele>739.6</ele>
        <time>2021-11-28T13:16:46.000Z</time>
      </trkpt>
      <trkpt lat="43.60782" lon="6.31011">
        <ele>739.8</ele>
        <time>2021-11-28T13:16:54.000Z</time>
      </trkpt>
      <trkpt lat="43.60776" lon="6.31023">
        <ele>739.4</ele>
        <time>2021-11-28T13:17:04.000Z</time>
      </trkpt>
      <trkpt lat="43.6077" lon="6.31032">
        <ele>739.3</ele>
        <time>2021-11-28T13:17:12.000Z</time>
      </trkpt>
      <trkpt lat="43.60766" lon="6.31044">
        <ele>738.7</ele>
        <time>2021-11-28T13:17:22.000Z</time>
      </trkpt>
      <trkpt lat="43.60759" lon="6.31052">
        <ele>737.8</ele>
        <time>2021-11-28T13:17:32.000Z</time>
      </trkpt>
      <trkpt lat="43.60752" lon="6.3106">
        <ele>736.9</ele>
        <time>2021-11-28T13:17:40.000Z</time>
      </trkpt>
      <trkpt lat="43.60745" lon="6.31069">
        <ele>735.9</ele>
        <time>2021-11-28T13:17:47.000Z</time>
      </trkpt>
      <trkpt lat="43.6074" lon="6.31081">
        <ele>734.7</ele>
        <time>2021-11-28T13:17:57.000Z</time>
      </trkpt>
      <trkpt lat="43.60733" lon="6.31088">
        <ele>733</ele>
        <time>2021-11-28T13:18:06.000Z</time>
      </trkpt>
      <trkpt lat="43.60724" lon="6.31093">
        <ele>732</ele>
        <time>2021-11-28T13:18:12.000Z</time>
      </trkpt>
      <trkpt lat="43.60715" lon="6.31092">
        <ele>731.4</ele>
        <time>2021-11-28T13:18:23.000Z</time>
      </trkpt>
      <trkpt lat="43.60706" lon="6.31087">
        <ele>730</ele>
        <time>2021-11-28T13:18:35.000Z</time>
      </trkpt>
      <trkpt lat="43.60697" lon="6.31083">
        <ele>728.8</ele>
        <time>2021-11-28T13:18:44.000Z</time>
      </trkpt>
      <trkpt lat="43.60688" lon="6.31075">
        <ele>727.4</ele>
        <time>2021-11-28T13:18:56.000Z</time>
      </trkpt>
      <trkpt lat="43.60681" lon="6.31067">
        <ele>726.8</ele>
        <time>2021-11-28T13:19:05.000Z</time>
      </trkpt>
      <trkpt lat="43.60675" lon="6.31058">
        <ele>726</ele>
        <time>2021-11-28T13:19:14.000Z</time>
      </trkpt>
      <trkpt lat="43.60669" lon="6.31048">
        <ele>725.1</ele>
        <time>2021-11-28T13:19:24.000Z</time>
      </trkpt>
      <trkpt lat="43.60662" lon="6.31039">
        <ele>723.4</ele>
        <time>2021-11-28T13:19:32.000Z</time>
      </trkpt>
      <trkpt lat="43.60654" lon="6.31031">
        <ele>722.1</ele>
        <time>2021-11-28T13:19:42.000Z</time>
      </trkpt>
      <trkpt lat="43.60646" lon="6.31022">
        <ele>721.1</ele>
        <time>2021-11-28T13:19:50.000Z</time>
      </trkpt>
      <trkpt lat="43.60639" lon="6.31014">
        <ele>720.1</ele>
        <time>2021-11-28T13:19:59.000Z</time>
      </trkpt>
      <trkpt lat="43.6063" lon="6.31009">
        <ele>719.6</ele>
        <time>2021-11-28T13:20:07.000Z</time>
      </trkpt>
      <trkpt lat="43.60621" lon="6.31003">
        <ele>719</ele>
        <time>2021-11-28T13:20:16.000Z</time>
      </trkpt>
      <trkpt lat="43.60611" lon="6.30999">
        <ele>718.4</ele>
        <time>2021-11-28T13:20:26.000Z</time>
      </trkpt>
      <trkpt lat="43.60605" lon="6.30988">
        <ele>717.9</ele>
        <time>2021-11-28T13:20:36.000Z</time>
      </trkpt>
      <trkpt lat="43.60602" lon="6.30976">
        <ele>716.9</ele>
        <time>2021-11-28T13:20:44.000Z</time>
      </trkpt>
      <trkpt lat="43.60607" lon="6.30964">
        <ele>716.7</ele>
        <time>2021-11-28T13:20:53.000Z</time>
      </trkpt>
      <trkpt lat="43.60608" lon="6.30952">
        <ele>716.2</ele>
        <time>2021-11-28T13:21:01.000Z</time>
      </trkpt>
      <trkpt lat="43.60615" lon="6.30941">
        <ele>716.6</ele>
        <time>2021-11-28T13:21:10.000Z</time>
      </trkpt>
      <trkpt lat="43.6062" lon="6.30931">
        <ele>717.1</ele>
        <time>2021-11-28T13:21:19.000Z</time>
      </trkpt>
      <trkpt lat="43.60623" lon="6.30917">
        <ele>716.9</ele>
        <time>2021-11-28T13:21:28.000Z</time>
      </trkpt>
      <trkpt lat="43.6062" lon="6.30905">
        <ele>716.6</ele>
        <time>2021-11-28T13:21:39.000Z</time>
      </trkpt>
      <trkpt lat="43.60614" lon="6.30894">
        <ele>715.4</ele>
        <time>2021-11-28T13:21:49.000Z</time>
      </trkpt>
      <trkpt lat="43.60609" lon="6.30884">
        <ele>714.1</ele>
        <time>2021-11-28T13:21:58.000Z</time>
      </trkpt>
      <trkpt lat="43.60604" lon="6.30873">
        <ele>712.9</ele>
        <time>2021-11-28T13:22:06.000Z</time>
      </trkpt>
      <trkpt lat="43.60598" lon="6.30863">
        <ele>712.2</ele>
        <time>2021-11-28T13:22:15.000Z</time>
      </trkpt>
      <trkpt lat="43.60593" lon="6.30853">
        <ele>711.2</ele>
        <time>2021-11-28T13:22:24.000Z</time>
      </trkpt>
      <trkpt lat="43.60586" lon="6.30846">
        <ele>710.6</ele>
        <time>2021-11-28T13:22:33.000Z</time>
      </trkpt>
      <trkpt lat="43.60577" lon="6.30845">
        <ele>710</ele>
        <time>2021-11-28T13:22:45.000Z</time>
      </trkpt>
      <trkpt lat="43.60568" lon="6.3085">
        <ele>710.1</ele>
        <time>2021-11-28T13:22:58.000Z</time>
      </trkpt>
      <trkpt lat="43.6056" lon="6.30857">
        <ele>710.4</ele>
        <time>2021-11-28T13:23:07.000Z</time>
      </trkpt>
      <trkpt lat="43.60551" lon="6.30862">
        <ele>710.4</ele>
        <time>2021-11-28T13:23:17.000Z</time>
      </trkpt>
      <trkpt lat="43.60543" lon="6.30868">
        <ele>710.6</ele>
        <time>2021-11-28T13:23:26.000Z</time>
      </trkpt>
      <trkpt lat="43.60535" lon="6.30872">
        <ele>710.6</ele>
        <time>2021-11-28T13:23:35.000Z</time>
      </trkpt>
      <trkpt lat="43.60527" lon="6.30879">
        <ele>710.1</ele>
        <time>2021-11-28T13:23:42.000Z</time>
      </trkpt>
      <trkpt lat="43.6052" lon="6.30888">
        <ele>709.9</ele>
        <time>2021-11-28T13:23:50.000Z</time>
      </trkpt>
      <trkpt lat="43.60514" lon="6.30899">
        <ele>709.6</ele>
        <time>2021-11-28T13:23:57.000Z</time>
      </trkpt>
      <trkpt lat="43.60505" lon="6.30904">
        <ele>709.7</ele>
        <time>2021-11-28T13:24:06.000Z</time>
      </trkpt>
      <trkpt lat="43.60496" lon="6.3091">
        <ele>710.2</ele>
        <time>2021-11-28T13:24:14.000Z</time>
      </trkpt>
      <trkpt lat="43.60487" lon="6.30908">
        <ele>710.1</ele>
        <time>2021-11-28T13:24:24.000Z</time>
      </trkpt>
      <trkpt lat="43.60478" lon="6.30901">
        <ele>710.8</ele>
        <time>2021-11-28T13:24:33.000Z</time>
      </trkpt>
      <trkpt lat="43.60471" lon="6.30892">
        <ele>711.9</ele>
        <time>2021-11-28T13:24:44.000Z</time>
      </trkpt>
      <trkpt lat="43.60467" lon="6.30881">
        <ele>713.6</ele>
        <time>2021-11-28T13:24:55.000Z</time>
      </trkpt>
      <trkpt lat="43.60463" lon="6.30869">
        <ele>714.3</ele>
        <time>2021-11-28T13:25:05.000Z</time>
      </trkpt>
      <trkpt lat="43.60461" lon="6.30857">
        <ele>715.1</ele>
        <time>2021-11-28T13:25:16.000Z</time>
      </trkpt>
      <trkpt lat="43.60457" lon="6.30845">
        <ele>716.1</ele>
        <time>2021-11-28T13:25:26.000Z</time>
      </trkpt>
      <trkpt lat="43.60451" lon="6.30835">
        <ele>716.8</ele>
        <time>2021-11-28T13:25:37.000Z</time>
      </trkpt>
      <trkpt lat="43.60448" lon="6.30822">
        <ele>717.3</ele>
        <time>2021-11-28T13:25:48.000Z</time>
      </trkpt>
      <trkpt lat="43.60443" lon="6.30811">
        <ele>717.9</ele>
        <time>2021-11-28T13:25:57.000Z</time>
      </trkpt>
      <trkpt lat="43.60438" lon="6.308">
        <ele>717.8</ele>
        <time>2021-11-28T13:26:05.000Z</time>
      </trkpt>
      <trkpt lat="43.60434" lon="6.30787">
        <ele>717.8</ele>
        <time>2021-11-28T13:26:15.000Z</time>
      </trkpt>
      <trkpt lat="43.60429" lon="6.30775">
        <ele>718.8</ele>
        <time>2021-11-28T13:26:27.000Z</time>
      </trkpt>
      <trkpt lat="43.60425" lon="6.30764">
        <ele>718.8</ele>
        <time>2021-11-28T13:26:38.000Z</time>
      </trkpt>
      <trkpt lat="43.60421" lon="6.30753">
        <ele>717.7</ele>
        <time>2021-11-28T13:27:39.000Z</time>
      </trkpt>
      <trkpt lat="43.60426" lon="6.30742">
        <ele>717.4</ele>
        <time>2021-11-28T13:28:10.000Z</time>
      </trkpt>
      <trkpt lat="43.60434" lon="6.30735">
        <ele>716.6</ele>
        <time>2021-11-28T13:28:22.000Z</time>
      </trkpt>
      <trkpt lat="43.60435" lon="6.30723">
        <ele>717.9</ele>
        <time>2021-11-28T13:28:41.000Z</time>
      </trkpt>
      <trkpt lat="43.60428" lon="6.30716">
        <ele>707.2</ele>
        <time>2021-11-28T13:28:52.000Z</time>
      </trkpt>
      <trkpt lat="43.60418" lon="6.30712">
        <ele>720.6</ele>
        <time>2021-11-28T13:29:04.000Z</time>
      </trkpt>
      <trkpt lat="43.6041" lon="6.30706">
        <ele>722</ele>
        <time>2021-11-28T13:29:13.000Z</time>
      </trkpt>
      <trkpt lat="43.60402" lon="6.30697">
        <ele>721.7</ele>
        <time>2021-11-28T13:29:22.000Z</time>
      </trkpt>
      <trkpt lat="43.60395" lon="6.30689">
        <ele>721.4</ele>
        <time>2021-11-28T13:29:32.000Z</time>
      </trkpt>
      <trkpt lat="43.60389" lon="6.30679">
        <ele>722.1</ele>
        <time>2021-11-28T13:29:41.000Z</time>
      </trkpt>
      <trkpt lat="43.60382" lon="6.30668">
        <ele>723.2</ele>
        <time>2021-11-28T13:29:51.000Z</time>
      </trkpt>
      <trkpt lat="43.60376" lon="6.30658">
        <ele>723.8</ele>
        <time>2021-11-28T13:29:58.000Z</time>
      </trkpt>
      <trkpt lat="43.60371" lon="6.30647">
        <ele>723.9</ele>
        <time>2021-11-28T13:30:08.000Z</time>
      </trkpt>
      <trkpt lat="43.6037" lon="6.30634">
        <ele>724.2</ele>
        <time>2021-11-28T13:30:18.000Z</time>
      </trkpt>
      <trkpt lat="43.60364" lon="6.30625">
        <ele>725.5</ele>
        <time>2021-11-28T13:30:30.000Z</time>
      </trkpt>
      <trkpt lat="43.60365" lon="6.30612">
        <ele>726.4</ele>
        <time>2021-11-28T13:30:43.000Z</time>
      </trkpt>
      <trkpt lat="43.60361" lon="6.306">
        <ele>726.7</ele>
        <time>2021-11-28T13:30:57.000Z</time>
      </trkpt>
      <trkpt lat="43.60353" lon="6.30592">
        <ele>727.6</ele>
        <time>2021-11-28T13:31:08.000Z</time>
      </trkpt>
      <trkpt lat="43.60347" lon="6.30582">
        <ele>728.4</ele>
        <time>2021-11-28T13:31:24.000Z</time>
      </trkpt>
      <trkpt lat="43.6034" lon="6.30574">
        <ele>728.4</ele>
        <time>2021-11-28T13:31:35.000Z</time>
      </trkpt>
      <trkpt lat="43.60336" lon="6.30562">
        <ele>729.8</ele>
        <time>2021-11-28T13:31:51.000Z</time>
      </trkpt>
      <trkpt lat="43.6033" lon="6.30552">
        <ele>729.4</ele>
        <time>2021-11-28T13:32:02.000Z</time>
      </trkpt>
      <trkpt lat="43.60323" lon="6.30545">
        <ele>730.6</ele>
        <time>2021-11-28T13:33:09.000Z</time>
      </trkpt>
      <trkpt lat="43.60318" lon="6.30533">
        <ele>730.4</ele>
        <time>2021-11-28T13:33:52.000Z</time>
      </trkpt>
      <trkpt lat="43.60311" lon="6.30523">
        <ele>729.9</ele>
        <time>2021-11-28T13:34:55.000Z</time>
      </trkpt>
      <trkpt lat="43.60303" lon="6.30518">
        <ele>728.4</ele>
        <time>2021-11-28T13:35:10.000Z</time>
      </trkpt>
      <trkpt lat="43.60295" lon="6.30512">
        <ele>726.2</ele>
        <time>2021-11-28T13:35:26.000Z</time>
      </trkpt>
      <trkpt lat="43.60287" lon="6.30506">
        <ele>724.5</ele>
        <time>2021-11-28T13:35:44.000Z</time>
      </trkpt>
      <trkpt lat="43.60279" lon="6.30499">
        <ele>723.7</ele>
        <time>2021-11-28T13:35:59.000Z</time>
      </trkpt>
      <trkpt lat="43.60271" lon="6.30492">
        <ele>722.3</ele>
        <time>2021-11-28T13:36:11.000Z</time>
      </trkpt>
      <trkpt lat="43.60262" lon="6.30486">
        <ele>720.6</ele>
        <time>2021-11-28T13:36:25.000Z</time>
      </trkpt>
      <trkpt lat="43.60253" lon="6.30488">
        <ele>719.9</ele>
        <time>2021-11-28T13:36:39.000Z</time>
      </trkpt>
      <trkpt lat="43.60244" lon="6.30488">
        <ele>719.2</ele>
        <time>2021-11-28T13:36:48.000Z</time>
      </trkpt>
      <trkpt lat="43.60235" lon="6.30489">
        <ele>718.2</ele>
        <time>2021-11-28T13:36:57.000Z</time>
      </trkpt>
      <trkpt lat="43.60225" lon="6.30492">
        <ele>716.8</ele>
        <time>2021-11-28T13:37:06.000Z</time>
      </trkpt>
      <trkpt lat="43.60215" lon="6.30491">
        <ele>716.6</ele>
        <time>2021-11-28T13:37:15.000Z</time>
      </trkpt>
      <trkpt lat="43.60206" lon="6.30489">
        <ele>716</ele>
        <time>2021-11-28T13:37:23.000Z</time>
      </trkpt>
      <trkpt lat="43.60197" lon="6.30484">
        <ele>715.7</ele>
        <time>2021-11-28T13:37:30.000Z</time>
      </trkpt>
      <trkpt lat="43.60188" lon="6.30483">
        <ele>715.7</ele>
        <time>2021-11-28T13:37:37.000Z</time>
      </trkpt>
      <trkpt lat="43.60179" lon="6.30481">
        <ele>715.2</ele>
        <time>2021-11-28T13:37:45.000Z</time>
      </trkpt>
      <trkpt lat="43.6017" lon="6.30483">
        <ele>714.1</ele>
        <time>2021-11-28T13:38:01.000Z</time>
      </trkpt>
      <trkpt lat="43.60163" lon="6.30492">
        <ele>713</ele>
        <time>2021-11-28T13:38:08.000Z</time>
      </trkpt>
      <trkpt lat="43.60156" lon="6.30501">
        <ele>713.7</ele>
        <time>2021-11-28T13:38:23.000Z</time>
      </trkpt>
      <trkpt lat="43.60147" lon="6.30509">
        <ele>713.8</ele>
        <time>2021-11-28T13:38:34.000Z</time>
      </trkpt>
      <trkpt lat="43.60144" lon="6.30521">
        <ele>713.8</ele>
        <time>2021-11-28T13:38:47.000Z</time>
      </trkpt>
      <trkpt lat="43.60135" lon="6.30515">
        <ele>714</ele>
        <time>2021-11-28T13:39:31.000Z</time>
      </trkpt>
      <trkpt lat="43.60133" lon="6.30502">
        <ele>713.6</ele>
        <time>2021-11-28T13:39:46.000Z</time>
      </trkpt>
      <trkpt lat="43.60131" lon="6.30489">
        <ele>713.7</ele>
        <time>2021-11-28T13:39:56.000Z</time>
      </trkpt>
      <trkpt lat="43.6013" lon="6.30476">
        <ele>713.4</ele>
        <time>2021-11-28T13:40:07.000Z</time>
      </trkpt>
      <trkpt lat="43.60126" lon="6.30464">
        <ele>713.9</ele>
        <time>2021-11-28T13:40:15.000Z</time>
      </trkpt>
      <trkpt lat="43.60119" lon="6.30455">
        <ele>714.5</ele>
        <time>2021-11-28T13:40:23.000Z</time>
      </trkpt>
      <trkpt lat="43.60111" lon="6.30448">
        <ele>714.6</ele>
        <time>2021-11-28T13:40:30.000Z</time>
      </trkpt>
      <trkpt lat="43.60103" lon="6.30442">
        <ele>714.7</ele>
        <time>2021-11-28T13:40:37.000Z</time>
      </trkpt>
      <trkpt lat="43.60105" lon="6.30428">
        <ele>714.3</ele>
        <time>2021-11-28T13:40:46.000Z</time>
      </trkpt>
      <trkpt lat="43.6011" lon="6.30417">
        <ele>714</ele>
        <time>2021-11-28T13:40:54.000Z</time>
      </trkpt>
      <trkpt lat="43.60117" lon="6.30409">
        <ele>712.9</ele>
        <time>2021-11-28T13:41:02.000Z</time>
      </trkpt>
      <trkpt lat="43.6012" lon="6.30397">
        <ele>713.1</ele>
        <time>2021-11-28T13:41:21.000Z</time>
      </trkpt>
      <trkpt lat="43.60122" lon="6.30384">
        <ele>713.5</ele>
        <time>2021-11-28T13:41:31.000Z</time>
      </trkpt>
      <trkpt lat="43.60125" lon="6.30372">
        <ele>713.9</ele>
        <time>2021-11-28T13:41:39.000Z</time>
      </trkpt>
      <trkpt lat="43.60127" lon="6.30359">
        <ele>713.2</ele>
        <time>2021-11-28T13:41:48.000Z</time>
      </trkpt>
      <trkpt lat="43.60128" lon="6.30345">
        <ele>712.5</ele>
        <time>2021-11-28T13:41:57.000Z</time>
      </trkpt>
      <trkpt lat="43.6013" lon="6.30333">
        <ele>711.4</ele>
        <time>2021-11-28T13:42:06.000Z</time>
      </trkpt>
      <trkpt lat="43.6013" lon="6.3032">
        <ele>710.4</ele>
        <time>2021-11-28T13:42:14.000Z</time>
      </trkpt>
      <trkpt lat="43.60129" lon="6.30307">
        <ele>710.2</ele>
        <time>2021-11-28T13:42:22.000Z</time>
      </trkpt>
      <trkpt lat="43.6013" lon="6.30294">
        <ele>709.9</ele>
        <time>2021-11-28T13:42:31.000Z</time>
      </trkpt>
      <trkpt lat="43.60131" lon="6.30281">
        <ele>709.7</ele>
        <time>2021-11-28T13:42:40.000Z</time>
      </trkpt>
      <trkpt lat="43.60131" lon="6.30267">
        <ele>708.5</ele>
        <time>2021-11-28T13:42:48.000Z</time>
      </trkpt>
      <trkpt lat="43.60129" lon="6.30254">
        <ele>707.8</ele>
        <time>2021-11-28T13:42:57.000Z</time>
      </trkpt>
      <trkpt lat="43.60125" lon="6.30242">
        <ele>707.2</ele>
        <time>2021-11-28T13:43:06.000Z</time>
      </trkpt>
      <trkpt lat="43.60122" lon="6.3023">
        <ele>706.5</ele>
        <time>2021-11-28T13:43:16.000Z</time>
      </trkpt>
      <trkpt lat="43.60125" lon="6.30216">
        <ele>705.2</ele>
        <time>2021-11-28T13:43:25.000Z</time>
      </trkpt>
      <trkpt lat="43.60129" lon="6.30203">
        <ele>705.1</ele>
        <time>2021-11-28T13:43:32.000Z</time>
      </trkpt>
      <trkpt lat="43.60132" lon="6.3019">
        <ele>705.6</ele>
        <time>2021-11-28T13:43:40.000Z</time>
      </trkpt>
      <trkpt lat="43.60137" lon="6.30178">
        <ele>706</ele>
        <time>2021-11-28T13:43:48.000Z</time>
      </trkpt>
      <trkpt lat="43.6014" lon="6.30166">
        <ele>705.5</ele>
        <time>2021-11-28T13:43:56.000Z</time>
      </trkpt>
      <trkpt lat="43.60145" lon="6.30156">
        <ele>704.7</ele>
        <time>2021-11-28T13:44:05.000Z</time>
      </trkpt>
      <trkpt lat="43.60149" lon="6.30143">
        <ele>703.7</ele>
        <time>2021-11-28T13:44:13.000Z</time>
      </trkpt>
      <trkpt lat="43.60153" lon="6.30131">
        <ele>703.2</ele>
        <time>2021-11-28T13:44:22.000Z</time>
      </trkpt>
      <trkpt lat="43.60157" lon="6.3012">
        <ele>702</ele>
        <time>2021-11-28T13:44:31.000Z</time>
      </trkpt>
      <trkpt lat="43.60164" lon="6.3011">
        <ele>700.8</ele>
        <time>2021-11-28T13:44:39.000Z</time>
      </trkpt>
      <trkpt lat="43.60172" lon="6.30103">
        <ele>700.2</ele>
        <time>2021-11-28T13:44:47.000Z</time>
      </trkpt>
      <trkpt lat="43.60178" lon="6.30093">
        <ele>698.7</ele>
        <time>2021-11-28T13:44:58.000Z</time>
      </trkpt>
      <trkpt lat="43.60187" lon="6.30094">
        <ele>703.5</ele>
        <time>2021-11-28T13:45:28.000Z</time>
      </trkpt>
      <trkpt lat="43.60192" lon="6.30082">
        <ele>700.8</ele>
        <time>2021-11-28T13:45:45.000Z</time>
      </trkpt>
      <trkpt lat="43.60197" lon="6.30071">
        <ele>699.3</ele>
        <time>2021-11-28T13:45:53.000Z</time>
      </trkpt>
      <trkpt lat="43.60204" lon="6.30063">
        <ele>698.3</ele>
        <time>2021-11-28T13:46:00.000Z</time>
      </trkpt>
      <trkpt lat="43.60211" lon="6.30054">
        <ele>697.1</ele>
        <time>2021-11-28T13:46:07.000Z</time>
      </trkpt>
      <trkpt lat="43.60218" lon="6.30047">
        <ele>696.1</ele>
        <time>2021-11-28T13:46:16.000Z</time>
      </trkpt>
      <trkpt lat="43.60223" lon="6.30036">
        <ele>695</ele>
        <time>2021-11-28T13:46:25.000Z</time>
      </trkpt>
      <trkpt lat="43.60229" lon="6.30025">
        <ele>694.3</ele>
        <time>2021-11-28T13:46:33.000Z</time>
      </trkpt>
      <trkpt lat="43.60234" lon="6.30014">
        <ele>693.3</ele>
        <time>2021-11-28T13:46:41.000Z</time>
      </trkpt>
      <trkpt lat="43.60242" lon="6.30006">
        <ele>692.2</ele>
        <time>2021-11-28T13:46:48.000Z</time>
      </trkpt>
      <trkpt lat="43.6025" lon="6.29999">
        <ele>690.7</ele>
        <time>2021-11-28T13:46:58.000Z</time>
      </trkpt>
      <trkpt lat="43.6026" lon="6.29996">
        <ele>689.2</ele>
        <time>2021-11-28T13:47:07.000Z</time>
      </trkpt>
      <trkpt lat="43.6027" lon="6.29993">
        <ele>687.9</ele>
        <time>2021-11-28T13:47:16.000Z</time>
      </trkpt>
      <trkpt lat="43.60279" lon="6.2999">
        <ele>687.1</ele>
        <time>2021-11-28T13:47:22.000Z</time>
      </trkpt>
      <trkpt lat="43.60286" lon="6.29982">
        <ele>686.1</ele>
        <time>2021-11-28T13:47:29.000Z</time>
      </trkpt>
      <trkpt lat="43.60292" lon="6.29971">
        <ele>685.9</ele>
        <time>2021-11-28T13:47:36.000Z</time>
      </trkpt>
      <trkpt lat="43.60297" lon="6.2996">
        <ele>685.8</ele>
        <time>2021-11-28T13:47:43.000Z</time>
      </trkpt>
      <trkpt lat="43.60302" lon="6.29948">
        <ele>686</ele>
        <time>2021-11-28T13:47:51.000Z</time>
      </trkpt>
      <trkpt lat="43.60308" lon="6.29938">
        <ele>686</ele>
        <time>2021-11-28T13:47:59.000Z</time>
      </trkpt>
      <trkpt lat="43.60314" lon="6.29928">
        <ele>685.4</ele>
        <time>2021-11-28T13:48:06.000Z</time>
      </trkpt>
      <trkpt lat="43.6032" lon="6.29918">
        <ele>685.1</ele>
        <time>2021-11-28T13:48:13.000Z</time>
      </trkpt>
      <trkpt lat="43.60325" lon="6.29907">
        <ele>684.1</ele>
        <time>2021-11-28T13:48:20.000Z</time>
      </trkpt>
      <trkpt lat="43.60327" lon="6.29895">
        <ele>685</ele>
        <time>2021-11-28T13:48:30.000Z</time>
      </trkpt>
      <trkpt lat="43.60328" lon="6.29882">
        <ele>684.8</ele>
        <time>2021-11-28T13:48:37.000Z</time>
      </trkpt>
      <trkpt lat="43.60331" lon="6.29868">
        <ele>686.8</ele>
        <time>2021-11-28T13:48:46.000Z</time>
      </trkpt>
      <trkpt lat="43.60333" lon="6.29855">
        <ele>687.2</ele>
        <time>2021-11-28T13:48:54.000Z</time>
      </trkpt>
      <trkpt lat="43.60335" lon="6.29842">
        <ele>687.8</ele>
        <time>2021-11-28T13:49:03.000Z</time>
      </trkpt>
      <trkpt lat="43.60337" lon="6.2983">
        <ele>688.2</ele>
        <time>2021-11-28T13:49:12.000Z</time>
      </trkpt>
      <trkpt lat="43.60338" lon="6.29818">
        <ele>688.6</ele>
        <time>2021-11-28T13:49:20.000Z</time>
      </trkpt>
      <trkpt lat="43.60338" lon="6.29805">
        <ele>688.2</ele>
        <time>2021-11-28T13:49:27.000Z</time>
      </trkpt>
      <trkpt lat="43.60336" lon="6.29792">
        <ele>688.1</ele>
        <time>2021-11-28T13:49:34.000Z</time>
      </trkpt>
      <trkpt lat="43.60335" lon="6.29779">
        <ele>688</ele>
        <time>2021-11-28T13:49:41.000Z</time>
      </trkpt>
      <trkpt lat="43.60332" lon="6.29766">
        <ele>687.2</ele>
        <time>2021-11-28T13:49:49.000Z</time>
      </trkpt>
      <trkpt lat="43.60327" lon="6.29754">
        <ele>687.7</ele>
        <time>2021-11-28T13:49:58.000Z</time>
      </trkpt>
      <trkpt lat="43.60321" lon="6.29744">
        <ele>687.7</ele>
        <time>2021-11-28T13:50:07.000Z</time>
      </trkpt>
      <trkpt lat="43.60313" lon="6.29737">
        <ele>687.9</ele>
        <time>2021-11-28T13:50:16.000Z</time>
      </trkpt>
      <trkpt lat="43.60304" lon="6.29729">
        <ele>688.2</ele>
        <time>2021-11-28T13:50:25.000Z</time>
      </trkpt>
      <trkpt lat="43.60296" lon="6.29723">
        <ele>688.3</ele>
        <time>2021-11-28T13:50:34.000Z</time>
      </trkpt>
      <trkpt lat="43.60288" lon="6.29717">
        <ele>688.5</ele>
        <time>2021-11-28T13:50:41.000Z</time>
      </trkpt>
      <trkpt lat="43.60281" lon="6.2971">
        <ele>688.7</ele>
        <time>2021-11-28T13:50:50.000Z</time>
      </trkpt>
      <trkpt lat="43.60272" lon="6.29707">
        <ele>687.9</ele>
        <time>2021-11-28T13:51:00.000Z</time>
      </trkpt>
      <trkpt lat="43.60262" lon="6.29708">
        <ele>687.2</ele>
        <time>2021-11-28T13:51:10.000Z</time>
      </trkpt>
      <trkpt lat="43.60253" lon="6.29706">
        <ele>686.4</ele>
        <time>2021-11-28T13:51:20.000Z</time>
      </trkpt>
      <trkpt lat="43.60244" lon="6.29705">
        <ele>684.9</ele>
        <time>2021-11-28T13:51:31.000Z</time>
      </trkpt>
      <trkpt lat="43.60234" lon="6.29704">
        <ele>683.7</ele>
        <time>2021-11-28T13:51:41.000Z</time>
      </trkpt>
      <trkpt lat="43.60225" lon="6.29701">
        <ele>682.7</ele>
        <time>2021-11-28T13:51:50.000Z</time>
      </trkpt>
      <trkpt lat="43.60216" lon="6.297">
        <ele>680.7</ele>
        <time>2021-11-28T13:52:02.000Z</time>
      </trkpt>
      <trkpt lat="43.60206" lon="6.29698">
        <ele>679.5</ele>
        <time>2021-11-28T13:52:11.000Z</time>
      </trkpt>
      <trkpt lat="43.60197" lon="6.29697">
        <ele>678.8</ele>
        <time>2021-11-28T13:52:19.000Z</time>
      </trkpt>
      <trkpt lat="43.60188" lon="6.29695">
        <ele>677.4</ele>
        <time>2021-11-28T13:52:28.000Z</time>
      </trkpt>
      <trkpt lat="43.60179" lon="6.29693">
        <ele>676.2</ele>
        <time>2021-11-28T13:52:43.000Z</time>
      </trkpt>
      <trkpt lat="43.6017" lon="6.29692">
        <ele>674.8</ele>
        <time>2021-11-28T13:53:09.000Z</time>
      </trkpt>
      <trkpt lat="43.60162" lon="6.29685">
        <ele>674.4</ele>
        <time>2021-11-28T13:53:20.000Z</time>
      </trkpt>
      <trkpt lat="43.60154" lon="6.29677">
        <ele>673.2</ele>
        <time>2021-11-28T13:53:32.000Z</time>
      </trkpt>
      <trkpt lat="43.60145" lon="6.29672">
        <ele>671.7</ele>
        <time>2021-11-28T13:53:41.000Z</time>
      </trkpt>
      <trkpt lat="43.60136" lon="6.29671">
        <ele>669.9</ele>
        <time>2021-11-28T13:53:51.000Z</time>
      </trkpt>
      <trkpt lat="43.60126" lon="6.29668">
        <ele>668.5</ele>
        <time>2021-11-28T13:54:00.000Z</time>
      </trkpt>
      <trkpt lat="43.60118" lon="6.29662">
        <ele>667.5</ele>
        <time>2021-11-28T13:54:08.000Z</time>
      </trkpt>
      <trkpt lat="43.60109" lon="6.29657">
        <ele>666.4</ele>
        <time>2021-11-28T13:54:17.000Z</time>
      </trkpt>
      <trkpt lat="43.60102" lon="6.29649">
        <ele>664.4</ele>
        <time>2021-11-28T13:54:28.000Z</time>
      </trkpt>
      <trkpt lat="43.60098" lon="6.29637">
        <ele>662.8</ele>
        <time>2021-11-28T13:54:36.000Z</time>
      </trkpt>
      <trkpt lat="43.60094" lon="6.29625">
        <ele>661.7</ele>
        <time>2021-11-28T13:54:43.000Z</time>
      </trkpt>
      <trkpt lat="43.6009" lon="6.29612">
        <ele>660.9</ele>
        <time>2021-11-28T13:54:50.000Z</time>
      </trkpt>
      <trkpt lat="43.60085" lon="6.296">
        <ele>659.8</ele>
        <time>2021-11-28T13:54:58.000Z</time>
      </trkpt>
      <trkpt lat="43.60081" lon="6.29589">
        <ele>658.5</ele>
        <time>2021-11-28T13:55:06.000Z</time>
      </trkpt>
      <trkpt lat="43.60072" lon="6.29592">
        <ele>657.4</ele>
        <time>2021-11-28T13:55:23.000Z</time>
      </trkpt>
      <trkpt lat="43.60064" lon="6.296">
        <ele>658.1</ele>
        <time>2021-11-28T13:55:36.000Z</time>
      </trkpt>
      <trkpt lat="43.60057" lon="6.29609">
        <ele>658.4</ele>
        <time>2021-11-28T13:55:47.000Z</time>
      </trkpt>
      <trkpt lat="43.6005" lon="6.29618">
        <ele>659.1</ele>
        <time>2021-11-28T13:56:05.000Z</time>
      </trkpt>
      <trkpt lat="43.60043" lon="6.29627">
        <ele>659.2</ele>
        <time>2021-11-28T13:56:19.000Z</time>
      </trkpt>
      <trkpt lat="43.60034" lon="6.29629">
        <ele>656</ele>
        <time>2021-11-28T13:57:34.000Z</time>
      </trkpt>
      <trkpt lat="43.60034" lon="6.29628">
        <ele>655.8</ele>
        <time>2021-11-28T13:57:42.000Z</time>
      </trkpt>
    </trkseg>
  </trk>
</gpx>